<?xml version="1.0" encoding="UTF-8" standalone="no" ?>
<gpx xmlns="http://www.topografix.com/GPX/1/1" xmlns:xsi="http://www.w3.org/2001/XMLSchema-instance" xsi:schemaLocation="http://www.topografix.com/GPX/1/1 http://www.topografix.com/GPX/1/1/gpx.xsd" version="1.1" creator="VisuGPX - https://www.visugpx.com">
  <metadata>
    <name>Nesles La Vallée - Hédouville</name>
    <desc><![CDATA[Randonnée de 18km en boucle à partir du foyer rural de Nesles la Vallée]]></desc>
  </metadata>
  <trk>
    <name><![CDATA[Randonnée Nesles La Vallée - Hédouville_R1]]></name>
    <trkseg>
      <trkpt lat="49.12994" lon="2.16677">
        <ele>38</ele>
        <time>2013-09-01T07:21:27Z</time>
      </trkpt>
      <trkpt lat="49.12994" lon="2.16676">
        <ele>38</ele>
        <time>2013-09-01T07:21:28Z</time>
      </trkpt>
      <trkpt lat="49.12994" lon="2.16677">
        <ele>38</ele>
        <time>2013-09-01T07:21:31Z</time>
      </trkpt>
      <trkpt lat="49.12994" lon="2.16677">
        <ele>38</ele>
        <time>2013-09-01T07:21:32Z</time>
      </trkpt>
      <trkpt lat="49.12991" lon="2.16678">
        <ele>38.200000762939</ele>
        <time>2013-09-01T07:21:48Z</time>
      </trkpt>
      <trkpt lat="49.1299" lon="2.16677">
        <ele>38.200000762939</ele>
        <time>2013-09-01T07:22:12Z</time>
      </trkpt>
      <trkpt lat="49.13" lon="2.16684">
        <ele>38.200000762939</ele>
        <time>2013-09-01T07:22:36Z</time>
      </trkpt>
      <trkpt lat="49.13" lon="2.16683">
        <ele>38.200000762939</ele>
        <time>2013-09-01T07:22:37Z</time>
      </trkpt>
      <trkpt lat="49.12994" lon="2.16681">
        <ele>38.200000762939</ele>
        <time>2013-09-01T07:22:49Z</time>
      </trkpt>
      <trkpt lat="49.12995" lon="2.16679">
        <ele>38</ele>
        <time>2013-09-01T07:23:05Z</time>
      </trkpt>
      <trkpt lat="49.12994" lon="2.16675">
        <ele>38</ele>
        <time>2013-09-01T07:23:26Z</time>
      </trkpt>
      <trkpt lat="49.12997" lon="2.16675">
        <ele>38</ele>
        <time>2013-09-01T07:23:46Z</time>
      </trkpt>
      <trkpt lat="49.12997" lon="2.16676">
        <ele>38</ele>
        <time>2013-09-01T07:24:10Z</time>
      </trkpt>
      <trkpt lat="49.12996" lon="2.16681">
        <ele>38.200000762939</ele>
        <time>2013-09-01T07:24:31Z</time>
      </trkpt>
      <trkpt lat="49.12996" lon="2.16678">
        <ele>38</ele>
        <time>2013-09-01T07:24:46Z</time>
      </trkpt>
      <trkpt lat="49.12996" lon="2.16676">
        <ele>38</ele>
        <time>2013-09-01T07:25:03Z</time>
      </trkpt>
      <trkpt lat="49.12998" lon="2.16678">
        <ele>38</ele>
        <time>2013-09-01T07:25:24Z</time>
      </trkpt>
      <trkpt lat="49.12996" lon="2.16672">
        <ele>38</ele>
        <time>2013-09-01T07:25:44Z</time>
      </trkpt>
      <trkpt lat="49.12996" lon="2.16676">
        <ele>38</ele>
        <time>2013-09-01T07:26:03Z</time>
      </trkpt>
      <trkpt lat="49.12997" lon="2.16676">
        <ele>38</ele>
        <time>2013-09-01T07:26:28Z</time>
      </trkpt>
      <trkpt lat="49.12997" lon="2.16678">
        <ele>38</ele>
        <time>2013-09-01T07:26:51Z</time>
      </trkpt>
      <trkpt lat="49.12998" lon="2.16675">
        <ele>38</ele>
        <time>2013-09-01T07:27:11Z</time>
      </trkpt>
      <trkpt lat="49.13" lon="2.16677">
        <ele>38</ele>
        <time>2013-09-01T07:27:25Z</time>
      </trkpt>
      <trkpt lat="49.12999" lon="2.16677">
        <ele>38</ele>
        <time>2013-09-01T07:27:34Z</time>
      </trkpt>
      <trkpt lat="49.12994" lon="2.16681">
        <ele>38.200000762939</ele>
        <time>2013-09-01T07:27:47Z</time>
      </trkpt>
      <trkpt lat="49.12993" lon="2.16682">
        <ele>38.200000762939</ele>
        <time>2013-09-01T07:28:01Z</time>
      </trkpt>
      <trkpt lat="49.12993" lon="2.16679">
        <ele>38.200000762939</ele>
        <time>2013-09-01T07:28:27Z</time>
      </trkpt>
      <trkpt lat="49.12991" lon="2.16679">
        <ele>38.200000762939</ele>
        <time>2013-09-01T07:28:44Z</time>
      </trkpt>
      <trkpt lat="49.12992" lon="2.16674">
        <ele>38</ele>
        <time>2013-09-01T07:29:08Z</time>
      </trkpt>
      <trkpt lat="49.12988" lon="2.16677">
        <ele>38.200000762939</ele>
        <time>2013-09-01T07:29:37Z</time>
      </trkpt>
      <trkpt lat="49.1299" lon="2.16693">
        <ele>38.200000762939</ele>
        <time>2013-09-01T07:30:05Z</time>
      </trkpt>
      <trkpt lat="49.12995" lon="2.16673">
        <ele>38</ele>
        <time>2013-09-01T07:30:20Z</time>
      </trkpt>
      <trkpt lat="49.13" lon="2.1668">
        <ele>38</ele>
        <time>2013-09-01T07:30:33Z</time>
      </trkpt>
      <trkpt lat="49.12996" lon="2.16667">
        <ele>38</ele>
        <time>2013-09-01T07:30:49Z</time>
      </trkpt>
      <trkpt lat="49.12994" lon="2.16666">
        <ele>38</ele>
        <time>2013-09-01T07:31:02Z</time>
      </trkpt>
      <trkpt lat="49.12995" lon="2.16681">
        <ele>38.200000762939</ele>
        <time>2013-09-01T07:31:17Z</time>
      </trkpt>
      <trkpt lat="49.12994" lon="2.1668">
        <ele>38.200000762939</ele>
        <time>2013-09-01T07:31:27Z</time>
      </trkpt>
      <trkpt lat="49.12994" lon="2.1668">
        <ele>38.200000762939</ele>
        <time>2013-09-01T07:31:44Z</time>
      </trkpt>
      <trkpt lat="49.12996" lon="2.1668">
        <ele>38</ele>
        <time>2013-09-01T07:32:03Z</time>
      </trkpt>
      <trkpt lat="49.12996" lon="2.16681">
        <ele>38</ele>
        <time>2013-09-01T07:32:23Z</time>
      </trkpt>
      <trkpt lat="49.12995" lon="2.16682">
        <ele>38.200000762939</ele>
        <time>2013-09-01T07:32:39Z</time>
      </trkpt>
      <trkpt lat="49.12995" lon="2.16681">
        <ele>38.200000762939</ele>
        <time>2013-09-01T07:33:01Z</time>
      </trkpt>
      <trkpt lat="49.12995" lon="2.16679">
        <ele>38</ele>
        <time>2013-09-01T07:33:17Z</time>
      </trkpt>
      <trkpt lat="49.12995" lon="2.16677">
        <ele>38</ele>
        <time>2013-09-01T07:33:44Z</time>
      </trkpt>
      <trkpt lat="49.12995" lon="2.16677">
        <ele>38</ele>
        <time>2013-09-01T07:34:14Z</time>
      </trkpt>
      <trkpt lat="49.12994" lon="2.16679">
        <ele>38</ele>
        <time>2013-09-01T07:34:31Z</time>
      </trkpt>
      <trkpt lat="49.12994" lon="2.1668">
        <ele>38.200000762939</ele>
        <time>2013-09-01T07:34:46Z</time>
      </trkpt>
      <trkpt lat="49.12996" lon="2.16682">
        <ele>38.200000762939</ele>
        <time>2013-09-01T07:35:06Z</time>
      </trkpt>
      <trkpt lat="49.12994" lon="2.16681">
        <ele>38.200000762939</ele>
        <time>2013-09-01T07:35:25Z</time>
      </trkpt>
      <trkpt lat="49.12991" lon="2.16681">
        <ele>38.200000762939</ele>
        <time>2013-09-01T07:35:47Z</time>
      </trkpt>
      <trkpt lat="49.12997" lon="2.1668">
        <ele>38</ele>
        <time>2013-09-01T07:36:00Z</time>
      </trkpt>
      <trkpt lat="49.12997" lon="2.1668">
        <ele>38</ele>
        <time>2013-09-01T07:36:18Z</time>
      </trkpt>
      <trkpt lat="49.12996" lon="2.16681">
        <ele>38.200000762939</ele>
        <time>2013-09-01T07:36:40Z</time>
      </trkpt>
      <trkpt lat="49.12996" lon="2.1668">
        <ele>38.200000762939</ele>
        <time>2013-09-01T07:36:57Z</time>
      </trkpt>
      <trkpt lat="49.12994" lon="2.1668">
        <ele>38.200000762939</ele>
        <time>2013-09-01T07:37:13Z</time>
      </trkpt>
      <trkpt lat="49.12997" lon="2.16681">
        <ele>38</ele>
        <time>2013-09-01T07:37:31Z</time>
      </trkpt>
      <trkpt lat="49.12997" lon="2.16681">
        <ele>38</ele>
        <time>2013-09-01T07:37:45Z</time>
      </trkpt>
      <trkpt lat="49.12998" lon="2.16681">
        <ele>38</ele>
        <time>2013-09-01T07:38:01Z</time>
      </trkpt>
      <trkpt lat="49.12998" lon="2.16678">
        <ele>38</ele>
        <time>2013-09-01T07:38:24Z</time>
      </trkpt>
      <trkpt lat="49.12998" lon="2.16682">
        <ele>38</ele>
        <time>2013-09-01T07:38:44Z</time>
      </trkpt>
      <trkpt lat="49.12998" lon="2.16683">
        <ele>38.200000762939</ele>
        <time>2013-09-01T07:39:02Z</time>
      </trkpt>
      <trkpt lat="49.12999" lon="2.16683">
        <ele>38.200000762939</ele>
        <time>2013-09-01T07:39:24Z</time>
      </trkpt>
      <trkpt lat="49.12999" lon="2.16682">
        <ele>38</ele>
        <time>2013-09-01T07:39:40Z</time>
      </trkpt>
      <trkpt lat="49.12998" lon="2.16682">
        <ele>38</ele>
        <time>2013-09-01T07:40:02Z</time>
      </trkpt>
      <trkpt lat="49.12994" lon="2.1668">
        <ele>38.200000762939</ele>
        <time>2013-09-01T07:40:21Z</time>
      </trkpt>
      <trkpt lat="49.13001" lon="2.16677">
        <ele>38</ele>
        <time>2013-09-01T07:40:33Z</time>
      </trkpt>
      <trkpt lat="49.13009" lon="2.16668">
        <ele>38</ele>
        <time>2013-09-01T07:40:47Z</time>
      </trkpt>
      <trkpt lat="49.13012" lon="2.16668">
        <ele>38</ele>
        <time>2013-09-01T07:40:51Z</time>
      </trkpt>
      <trkpt lat="49.13019" lon="2.16668">
        <ele>38.200000762939</ele>
        <time>2013-09-01T07:41:04Z</time>
      </trkpt>
      <trkpt lat="49.13025" lon="2.16664">
        <ele>38.200000762939</ele>
        <time>2013-09-01T07:41:13Z</time>
      </trkpt>
      <trkpt lat="49.13041" lon="2.1665">
        <ele>38.599998474121</ele>
        <time>2013-09-01T07:41:28Z</time>
      </trkpt>
      <trkpt lat="49.13048" lon="2.16648">
        <ele>38.799999237061</ele>
        <time>2013-09-01T07:41:37Z</time>
      </trkpt>
      <trkpt lat="49.13066" lon="2.16638">
        <ele>39.200000762939</ele>
        <time>2013-09-01T07:41:53Z</time>
      </trkpt>
      <trkpt lat="49.1308" lon="2.16627">
        <ele>39.400001525879</ele>
        <time>2013-09-01T07:42:09Z</time>
      </trkpt>
      <trkpt lat="49.131" lon="2.16608">
        <ele>39.599998474121</ele>
        <time>2013-09-01T07:42:29Z</time>
      </trkpt>
      <trkpt lat="49.13106" lon="2.16602">
        <ele>39.799999237061</ele>
        <time>2013-09-01T07:42:36Z</time>
      </trkpt>
      <trkpt lat="49.13126" lon="2.16604">
        <ele>39.799999237061</ele>
        <time>2013-09-01T07:42:51Z</time>
      </trkpt>
      <trkpt lat="49.13145" lon="2.16593">
        <ele>39.799999237061</ele>
        <time>2013-09-01T07:43:10Z</time>
      </trkpt>
      <trkpt lat="49.13152" lon="2.16585">
        <ele>39.799999237061</ele>
        <time>2013-09-01T07:43:24Z</time>
      </trkpt>
      <trkpt lat="49.1316" lon="2.16577">
        <ele>40</ele>
        <time>2013-09-01T07:43:40Z</time>
      </trkpt>
      <trkpt lat="49.13177" lon="2.16569">
        <ele>40</ele>
        <time>2013-09-01T07:43:56Z</time>
      </trkpt>
      <trkpt lat="49.13192" lon="2.1656">
        <ele>40.200000762939</ele>
        <time>2013-09-01T07:44:10Z</time>
      </trkpt>
      <trkpt lat="49.13209" lon="2.16552">
        <ele>40.599998474121</ele>
        <time>2013-09-01T07:44:26Z</time>
      </trkpt>
      <trkpt lat="49.13227" lon="2.16541">
        <ele>41</ele>
        <time>2013-09-01T07:44:43Z</time>
      </trkpt>
      <trkpt lat="49.13247" lon="2.16533">
        <ele>41.400001525879</ele>
        <time>2013-09-01T07:45:03Z</time>
      </trkpt>
      <trkpt lat="49.13264" lon="2.16519">
        <ele>41.599998474121</ele>
        <time>2013-09-01T07:45:19Z</time>
      </trkpt>
      <trkpt lat="49.13282" lon="2.16503">
        <ele>41.799999237061</ele>
        <time>2013-09-01T07:45:36Z</time>
      </trkpt>
      <trkpt lat="49.13291" lon="2.16495">
        <ele>42</ele>
        <time>2013-09-01T07:45:50Z</time>
      </trkpt>
      <trkpt lat="49.1331" lon="2.1648">
        <ele>42</ele>
        <time>2013-09-01T07:46:07Z</time>
      </trkpt>
      <trkpt lat="49.1333" lon="2.16465">
        <ele>41.599998474121</ele>
        <time>2013-09-01T07:46:23Z</time>
      </trkpt>
      <trkpt lat="49.13346" lon="2.1646">
        <ele>41.599998474121</ele>
        <time>2013-09-01T07:46:38Z</time>
      </trkpt>
      <trkpt lat="49.13364" lon="2.16442">
        <ele>41.400001525879</ele>
        <time>2013-09-01T07:46:58Z</time>
      </trkpt>
      <trkpt lat="49.13371" lon="2.16435">
        <ele>41.200000762939</ele>
        <time>2013-09-01T07:47:06Z</time>
      </trkpt>
      <trkpt lat="49.13381" lon="2.1643">
        <ele>41.200000762939</ele>
        <time>2013-09-01T07:47:15Z</time>
      </trkpt>
      <trkpt lat="49.13403" lon="2.16414">
        <ele>40.799999237061</ele>
        <time>2013-09-01T07:47:36Z</time>
      </trkpt>
      <trkpt lat="49.13416" lon="2.16401">
        <ele>40.599998474121</ele>
        <time>2013-09-01T07:47:51Z</time>
      </trkpt>
      <trkpt lat="49.13437" lon="2.16389">
        <ele>41.200000762939</ele>
        <time>2013-09-01T07:48:11Z</time>
      </trkpt>
      <trkpt lat="49.13452" lon="2.16378">
        <ele>41.400001525879</ele>
        <time>2013-09-01T07:48:24Z</time>
      </trkpt>
      <trkpt lat="49.13467" lon="2.1637">
        <ele>41.799999237061</ele>
        <time>2013-09-01T07:48:36Z</time>
      </trkpt>
      <trkpt lat="49.13478" lon="2.16353">
        <ele>41.400001525879</ele>
        <time>2013-09-01T07:48:52Z</time>
      </trkpt>
      <trkpt lat="49.13501" lon="2.16339">
        <ele>41.200000762939</ele>
        <time>2013-09-01T07:49:14Z</time>
      </trkpt>
      <trkpt lat="49.13524" lon="2.16323">
        <ele>40</ele>
        <time>2013-09-01T07:49:36Z</time>
      </trkpt>
      <trkpt lat="49.13542" lon="2.16311">
        <ele>39.599998474121</ele>
        <time>2013-09-01T07:49:53Z</time>
      </trkpt>
      <trkpt lat="49.13559" lon="2.16295">
        <ele>39.599998474121</ele>
        <time>2013-09-01T07:50:10Z</time>
      </trkpt>
      <trkpt lat="49.13573" lon="2.16283">
        <ele>39.799999237061</ele>
        <time>2013-09-01T07:50:28Z</time>
      </trkpt>
      <trkpt lat="49.13599" lon="2.16261">
        <ele>40.200000762939</ele>
        <time>2013-09-01T07:50:52Z</time>
      </trkpt>
      <trkpt lat="49.13616" lon="2.16247">
        <ele>40.200000762939</ele>
        <time>2013-09-01T07:51:10Z</time>
      </trkpt>
      <trkpt lat="49.13636" lon="2.16236">
        <ele>40</ele>
        <time>2013-09-01T07:51:27Z</time>
      </trkpt>
      <trkpt lat="49.13655" lon="2.16217">
        <ele>40</ele>
        <time>2013-09-01T07:51:46Z</time>
      </trkpt>
      <trkpt lat="49.1367" lon="2.16201">
        <ele>40</ele>
        <time>2013-09-01T07:52:02Z</time>
      </trkpt>
      <trkpt lat="49.13682" lon="2.16178">
        <ele>40.400001525879</ele>
        <time>2013-09-01T07:52:20Z</time>
      </trkpt>
      <trkpt lat="49.13687" lon="2.16161">
        <ele>40.799999237061</ele>
        <time>2013-09-01T07:52:32Z</time>
      </trkpt>
      <trkpt lat="49.13698" lon="2.16143">
        <ele>40.799999237061</ele>
        <time>2013-09-01T07:52:47Z</time>
      </trkpt>
      <trkpt lat="49.13703" lon="2.16143">
        <ele>40.799999237061</ele>
        <time>2013-09-01T07:52:52Z</time>
      </trkpt>
      <trkpt lat="49.13728" lon="2.16149">
        <ele>40.200000762939</ele>
        <time>2013-09-01T07:53:13Z</time>
      </trkpt>
      <trkpt lat="49.13734" lon="2.16152">
        <ele>40.200000762939</ele>
        <time>2013-09-01T07:53:28Z</time>
      </trkpt>
      <trkpt lat="49.13735" lon="2.16154">
        <ele>40.200000762939</ele>
        <time>2013-09-01T07:53:45Z</time>
      </trkpt>
      <trkpt lat="49.13737" lon="2.16151">
        <ele>40.200000762939</ele>
        <time>2013-09-01T07:54:06Z</time>
      </trkpt>
      <trkpt lat="49.1375" lon="2.16144">
        <ele>39.799999237061</ele>
        <time>2013-09-01T07:54:21Z</time>
      </trkpt>
      <trkpt lat="49.1377" lon="2.1614">
        <ele>39.599998474121</ele>
        <time>2013-09-01T07:54:37Z</time>
      </trkpt>
      <trkpt lat="49.13789" lon="2.16137">
        <ele>39.200000762939</ele>
        <time>2013-09-01T07:54:54Z</time>
      </trkpt>
      <trkpt lat="49.13808" lon="2.16133">
        <ele>38.799999237061</ele>
        <time>2013-09-01T07:55:11Z</time>
      </trkpt>
      <trkpt lat="49.13827" lon="2.16136">
        <ele>38.400001525879</ele>
        <time>2013-09-01T07:55:28Z</time>
      </trkpt>
      <trkpt lat="49.13856" lon="2.16137">
        <ele>38.200000762939</ele>
        <time>2013-09-01T07:55:49Z</time>
      </trkpt>
      <trkpt lat="49.13873" lon="2.16139">
        <ele>38.200000762939</ele>
        <time>2013-09-01T07:56:04Z</time>
      </trkpt>
      <trkpt lat="49.13895" lon="2.16143">
        <ele>38.200000762939</ele>
        <time>2013-09-01T07:56:21Z</time>
      </trkpt>
      <trkpt lat="49.13908" lon="2.16148">
        <ele>38.200000762939</ele>
        <time>2013-09-01T07:56:35Z</time>
      </trkpt>
      <trkpt lat="49.13914" lon="2.16149">
        <ele>38.200000762939</ele>
        <time>2013-09-01T07:56:41Z</time>
      </trkpt>
      <trkpt lat="49.13931" lon="2.16152">
        <ele>38.799999237061</ele>
        <time>2013-09-01T07:56:56Z</time>
      </trkpt>
      <trkpt lat="49.13933" lon="2.16152">
        <ele>38.799999237061</ele>
        <time>2013-09-01T07:56:58Z</time>
      </trkpt>
      <trkpt lat="49.13952" lon="2.16156">
        <ele>39.599998474121</ele>
        <time>2013-09-01T07:57:14Z</time>
      </trkpt>
      <trkpt lat="49.13959" lon="2.16156">
        <ele>40</ele>
        <time>2013-09-01T07:57:20Z</time>
      </trkpt>
      <trkpt lat="49.13965" lon="2.16159">
        <ele>40.200000762939</ele>
        <time>2013-09-01T07:57:25Z</time>
      </trkpt>
      <trkpt lat="49.13988" lon="2.16163">
        <ele>41.200000762939</ele>
        <time>2013-09-01T07:57:44Z</time>
      </trkpt>
      <trkpt lat="49.14005" lon="2.16167">
        <ele>42</ele>
        <time>2013-09-01T07:58:01Z</time>
      </trkpt>
      <trkpt lat="49.14023" lon="2.16173">
        <ele>42.799999237061</ele>
        <time>2013-09-01T07:58:17Z</time>
      </trkpt>
      <trkpt lat="49.1404" lon="2.16174">
        <ele>43.200000762939</ele>
        <time>2013-09-01T07:58:33Z</time>
      </trkpt>
      <trkpt lat="49.14047" lon="2.16176">
        <ele>43.400001525879</ele>
        <time>2013-09-01T07:58:39Z</time>
      </trkpt>
      <trkpt lat="49.14065" lon="2.16179">
        <ele>44</ele>
        <time>2013-09-01T07:58:54Z</time>
      </trkpt>
      <trkpt lat="49.14074" lon="2.16181">
        <ele>44.200000762939</ele>
        <time>2013-09-01T07:59:08Z</time>
      </trkpt>
      <trkpt lat="49.14082" lon="2.16183">
        <ele>44.400001525879</ele>
        <time>2013-09-01T07:59:23Z</time>
      </trkpt>
      <trkpt lat="49.14087" lon="2.16184">
        <ele>44.599998474121</ele>
        <time>2013-09-01T07:59:28Z</time>
      </trkpt>
      <trkpt lat="49.14095" lon="2.16188">
        <ele>44.599998474121</ele>
        <time>2013-09-01T07:59:43Z</time>
      </trkpt>
      <trkpt lat="49.14097" lon="2.16188">
        <ele>44.599998474121</ele>
        <time>2013-09-01T07:59:45Z</time>
      </trkpt>
      <trkpt lat="49.14121" lon="2.16196">
        <ele>44.799999237061</ele>
        <time>2013-09-01T08:00:06Z</time>
      </trkpt>
      <trkpt lat="49.14152" lon="2.16202">
        <ele>45.200000762939</ele>
        <time>2013-09-01T08:00:33Z</time>
      </trkpt>
      <trkpt lat="49.14174" lon="2.16203">
        <ele>45.799999237061</ele>
        <time>2013-09-01T08:00:53Z</time>
      </trkpt>
      <trkpt lat="49.14196" lon="2.16202">
        <ele>46.799999237061</ele>
        <time>2013-09-01T08:01:15Z</time>
      </trkpt>
      <trkpt lat="49.14216" lon="2.16206">
        <ele>47.599998474121</ele>
        <time>2013-09-01T08:01:35Z</time>
      </trkpt>
      <trkpt lat="49.14244" lon="2.1621">
        <ele>48.599998474121</ele>
        <time>2013-09-01T08:02:00Z</time>
      </trkpt>
      <trkpt lat="49.14268" lon="2.16208">
        <ele>49.599998474121</ele>
        <time>2013-09-01T08:02:21Z</time>
      </trkpt>
      <trkpt lat="49.14291" lon="2.16205">
        <ele>50.400001525879</ele>
        <time>2013-09-01T08:02:41Z</time>
      </trkpt>
      <trkpt lat="49.14309" lon="2.16208">
        <ele>51</ele>
        <time>2013-09-01T08:02:59Z</time>
      </trkpt>
      <trkpt lat="49.14333" lon="2.16202">
        <ele>52.200000762939</ele>
        <time>2013-09-01T08:03:21Z</time>
      </trkpt>
      <trkpt lat="49.14358" lon="2.16202">
        <ele>53.400001525879</ele>
        <time>2013-09-01T08:03:42Z</time>
      </trkpt>
      <trkpt lat="49.1438" lon="2.16197">
        <ele>54.799999237061</ele>
        <time>2013-09-01T08:04:04Z</time>
      </trkpt>
      <trkpt lat="49.14402" lon="2.16198">
        <ele>56</ele>
        <time>2013-09-01T08:04:26Z</time>
      </trkpt>
      <trkpt lat="49.14426" lon="2.16194">
        <ele>57.400001525879</ele>
        <time>2013-09-01T08:04:49Z</time>
      </trkpt>
      <trkpt lat="49.14446" lon="2.16191">
        <ele>58.799999237061</ele>
        <time>2013-09-01T08:05:10Z</time>
      </trkpt>
      <trkpt lat="49.14463" lon="2.16184">
        <ele>60.400001525879</ele>
        <time>2013-09-01T08:05:27Z</time>
      </trkpt>
      <trkpt lat="49.14473" lon="2.16176">
        <ele>61.599998474121</ele>
        <time>2013-09-01T08:05:40Z</time>
      </trkpt>
      <trkpt lat="49.14487" lon="2.16162">
        <ele>63.599998474121</ele>
        <time>2013-09-01T08:05:58Z</time>
      </trkpt>
      <trkpt lat="49.14493" lon="2.1615">
        <ele>65.199996948242</ele>
        <time>2013-09-01T08:06:09Z</time>
      </trkpt>
      <trkpt lat="49.145" lon="2.16136">
        <ele>67.199996948242</ele>
        <time>2013-09-01T08:06:29Z</time>
      </trkpt>
      <trkpt lat="49.14502" lon="2.16133">
        <ele>67.599998474121</ele>
        <time>2013-09-01T08:06:42Z</time>
      </trkpt>
      <trkpt lat="49.14509" lon="2.16131">
        <ele>68.599998474121</ele>
        <time>2013-09-01T08:06:55Z</time>
      </trkpt>
      <trkpt lat="49.14511" lon="2.16128">
        <ele>69.199996948242</ele>
        <time>2013-09-01T08:07:13Z</time>
      </trkpt>
      <trkpt lat="49.14527" lon="2.16118">
        <ele>72</ele>
        <time>2013-09-01T08:07:40Z</time>
      </trkpt>
      <trkpt lat="49.14538" lon="2.16116">
        <ele>73.199996948242</ele>
        <time>2013-09-01T08:07:58Z</time>
      </trkpt>
      <trkpt lat="49.14553" lon="2.16113">
        <ele>75</ele>
        <time>2013-09-01T08:08:20Z</time>
      </trkpt>
      <trkpt lat="49.14556" lon="2.16114">
        <ele>75.199996948242</ele>
        <time>2013-09-01T08:08:44Z</time>
      </trkpt>
      <trkpt lat="49.14552" lon="2.16112">
        <ele>75</ele>
        <time>2013-09-01T08:09:07Z</time>
      </trkpt>
      <trkpt lat="49.14546" lon="2.16105">
        <ele>75</ele>
        <time>2013-09-01T08:09:32Z</time>
      </trkpt>
      <trkpt lat="49.14556" lon="2.16099">
        <ele>76.800003051758</ele>
        <time>2013-09-01T08:09:57Z</time>
      </trkpt>
      <trkpt lat="49.14567" lon="2.161">
        <ele>77.599998474121</ele>
        <time>2013-09-01T08:10:21Z</time>
      </trkpt>
      <trkpt lat="49.14581" lon="2.16107">
        <ele>78.400001525879</ele>
        <time>2013-09-01T08:10:37Z</time>
      </trkpt>
      <trkpt lat="49.14594" lon="2.16094">
        <ele>79.800003051758</ele>
        <time>2013-09-01T08:10:55Z</time>
      </trkpt>
      <trkpt lat="49.14614" lon="2.16069">
        <ele>81.400001525879</ele>
        <time>2013-09-01T08:11:15Z</time>
      </trkpt>
      <trkpt lat="49.14629" lon="2.16053">
        <ele>82.400001525879</ele>
        <time>2013-09-01T08:11:36Z</time>
      </trkpt>
      <trkpt lat="49.14645" lon="2.1604">
        <ele>83.199996948242</ele>
        <time>2013-09-01T08:11:56Z</time>
      </trkpt>
      <trkpt lat="49.14669" lon="2.1603">
        <ele>83.800003051758</ele>
        <time>2013-09-01T08:12:17Z</time>
      </trkpt>
      <trkpt lat="49.14683" lon="2.16016">
        <ele>85.599998474121</ele>
        <time>2013-09-01T08:12:38Z</time>
      </trkpt>
      <trkpt lat="49.147" lon="2.16006">
        <ele>87</ele>
        <time>2013-09-01T08:12:56Z</time>
      </trkpt>
      <trkpt lat="49.1472" lon="2.15993">
        <ele>88.400001525879</ele>
        <time>2013-09-01T08:13:15Z</time>
      </trkpt>
      <trkpt lat="49.14736" lon="2.15985">
        <ele>89</ele>
        <time>2013-09-01T08:13:36Z</time>
      </trkpt>
      <trkpt lat="49.14758" lon="2.15975">
        <ele>90</ele>
        <time>2013-09-01T08:13:58Z</time>
      </trkpt>
      <trkpt lat="49.14772" lon="2.15979">
        <ele>90.800003051758</ele>
        <time>2013-09-01T08:14:15Z</time>
      </trkpt>
      <trkpt lat="49.14805" lon="2.15981">
        <ele>92.800003051758</ele>
        <time>2013-09-01T08:14:40Z</time>
      </trkpt>
      <trkpt lat="49.14824" lon="2.15978">
        <ele>93.800003051758</ele>
        <time>2013-09-01T08:14:59Z</time>
      </trkpt>
      <trkpt lat="49.14848" lon="2.15966">
        <ele>94.599998474121</ele>
        <time>2013-09-01T08:15:26Z</time>
      </trkpt>
      <trkpt lat="49.14877" lon="2.15965">
        <ele>95.400001525879</ele>
        <time>2013-09-01T08:15:47Z</time>
      </trkpt>
      <trkpt lat="49.14898" lon="2.15949">
        <ele>95.599998474121</ele>
        <time>2013-09-01T08:16:11Z</time>
      </trkpt>
      <trkpt lat="49.14921" lon="2.15923">
        <ele>95.199996948242</ele>
        <time>2013-09-01T08:16:36Z</time>
      </trkpt>
      <trkpt lat="49.14939" lon="2.15904">
        <ele>94</ele>
        <time>2013-09-01T08:16:56Z</time>
      </trkpt>
      <trkpt lat="49.14959" lon="2.15894">
        <ele>93.599998474121</ele>
        <time>2013-09-01T08:17:14Z</time>
      </trkpt>
      <trkpt lat="49.14982" lon="2.15881">
        <ele>93.400001525879</ele>
        <time>2013-09-01T08:17:34Z</time>
      </trkpt>
      <trkpt lat="49.14999" lon="2.15866">
        <ele>93.199996948242</ele>
        <time>2013-09-01T08:17:55Z</time>
      </trkpt>
      <trkpt lat="49.15023" lon="2.15846">
        <ele>92</ele>
        <time>2013-09-01T08:18:18Z</time>
      </trkpt>
      <trkpt lat="49.15041" lon="2.15826">
        <ele>91.199996948242</ele>
        <time>2013-09-01T08:18:40Z</time>
      </trkpt>
      <trkpt lat="49.15056" lon="2.15814">
        <ele>91.199996948242</ele>
        <time>2013-09-01T08:18:53Z</time>
      </trkpt>
      <trkpt lat="49.15071" lon="2.15795">
        <ele>91.400001525879</ele>
        <time>2013-09-01T08:19:11Z</time>
      </trkpt>
      <trkpt lat="49.15071" lon="2.15773">
        <ele>91.400001525879</ele>
        <time>2013-09-01T08:19:25Z</time>
      </trkpt>
      <trkpt lat="49.1507" lon="2.15759">
        <ele>91.199996948242</ele>
        <time>2013-09-01T08:19:35Z</time>
      </trkpt>
      <trkpt lat="49.15065" lon="2.15753">
        <ele>90.800003051758</ele>
        <time>2013-09-01T08:19:40Z</time>
      </trkpt>
      <trkpt lat="49.1506" lon="2.15727">
        <ele>91</ele>
        <time>2013-09-01T08:19:55Z</time>
      </trkpt>
      <trkpt lat="49.15058" lon="2.157">
        <ele>91.599998474121</ele>
        <time>2013-09-01T08:20:11Z</time>
      </trkpt>
      <trkpt lat="49.15057" lon="2.15678">
        <ele>92</ele>
        <time>2013-09-01T08:20:25Z</time>
      </trkpt>
      <trkpt lat="49.15065" lon="2.1568">
        <ele>92.599998474121</ele>
        <time>2013-09-01T08:20:40Z</time>
      </trkpt>
      <trkpt lat="49.15063" lon="2.15681">
        <ele>92.400001525879</ele>
        <time>2013-09-01T08:20:59Z</time>
      </trkpt>
      <trkpt lat="49.15064" lon="2.15679">
        <ele>92.400001525879</ele>
        <time>2013-09-01T08:21:21Z</time>
      </trkpt>
      <trkpt lat="49.15064" lon="2.15679">
        <ele>92.400001525879</ele>
        <time>2013-09-01T08:21:45Z</time>
      </trkpt>
      <trkpt lat="49.15068" lon="2.15684">
        <ele>92.599998474121</ele>
        <time>2013-09-01T08:22:03Z</time>
      </trkpt>
      <trkpt lat="49.15068" lon="2.1568">
        <ele>92.599998474121</ele>
        <time>2013-09-01T08:22:25Z</time>
      </trkpt>
      <trkpt lat="49.15066" lon="2.1568">
        <ele>92.599998474121</ele>
        <time>2013-09-01T08:22:49Z</time>
      </trkpt>
      <trkpt lat="49.15065" lon="2.15683">
        <ele>92.400001525879</ele>
        <time>2013-09-01T08:23:11Z</time>
      </trkpt>
      <trkpt lat="49.15065" lon="2.15685">
        <ele>92.400001525879</ele>
        <time>2013-09-01T08:23:31Z</time>
      </trkpt>
      <trkpt lat="49.15064" lon="2.15682">
        <ele>92.400001525879</ele>
        <time>2013-09-01T08:23:52Z</time>
      </trkpt>
      <trkpt lat="49.15063" lon="2.1568">
        <ele>92.400001525879</ele>
        <time>2013-09-01T08:24:12Z</time>
      </trkpt>
      <trkpt lat="49.15072" lon="2.15689">
        <ele>92.599998474121</ele>
        <time>2013-09-01T08:24:30Z</time>
      </trkpt>
      <trkpt lat="49.15075" lon="2.15691">
        <ele>92.800003051758</ele>
        <time>2013-09-01T08:24:34Z</time>
      </trkpt>
      <trkpt lat="49.15089" lon="2.15707">
        <ele>93</ele>
        <time>2013-09-01T08:24:51Z</time>
      </trkpt>
      <trkpt lat="49.15102" lon="2.1572">
        <ele>92.800003051758</ele>
        <time>2013-09-01T08:25:07Z</time>
      </trkpt>
      <trkpt lat="49.15105" lon="2.15723">
        <ele>92.800003051758</ele>
        <time>2013-09-01T08:25:14Z</time>
      </trkpt>
      <trkpt lat="49.15119" lon="2.15727">
        <ele>92.800003051758</ele>
        <time>2013-09-01T08:25:26Z</time>
      </trkpt>
      <trkpt lat="49.1512" lon="2.15727">
        <ele>92.800003051758</ele>
        <time>2013-09-01T08:25:27Z</time>
      </trkpt>
      <trkpt lat="49.15135" lon="2.15718">
        <ele>93</ele>
        <time>2013-09-01T08:25:43Z</time>
      </trkpt>
      <trkpt lat="49.15138" lon="2.15712">
        <ele>93.199996948242</ele>
        <time>2013-09-01T08:25:48Z</time>
      </trkpt>
      <trkpt lat="49.15143" lon="2.15706">
        <ele>93.199996948242</ele>
        <time>2013-09-01T08:25:55Z</time>
      </trkpt>
      <trkpt lat="49.15157" lon="2.15688">
        <ele>93.599998474121</ele>
        <time>2013-09-01T08:26:12Z</time>
      </trkpt>
      <trkpt lat="49.15158" lon="2.15685">
        <ele>93.599998474121</ele>
        <time>2013-09-01T08:26:15Z</time>
      </trkpt>
      <trkpt lat="49.15159" lon="2.15682">
        <ele>93.599998474121</ele>
        <time>2013-09-01T08:26:17Z</time>
      </trkpt>
      <trkpt lat="49.1517" lon="2.15665">
        <ele>94</ele>
        <time>2013-09-01T08:26:28Z</time>
      </trkpt>
      <trkpt lat="49.15172" lon="2.15658">
        <ele>93.800003051758</ele>
        <time>2013-09-01T08:26:35Z</time>
      </trkpt>
      <trkpt lat="49.15181" lon="2.15643">
        <ele>93.800003051758</ele>
        <time>2013-09-01T08:26:48Z</time>
      </trkpt>
      <trkpt lat="49.15186" lon="2.15638">
        <ele>93.800003051758</ele>
        <time>2013-09-01T08:26:53Z</time>
      </trkpt>
      <trkpt lat="49.15194" lon="2.15614">
        <ele>93.599998474121</ele>
        <time>2013-09-01T08:27:09Z</time>
      </trkpt>
      <trkpt lat="49.15204" lon="2.15595">
        <ele>93.400001525879</ele>
        <time>2013-09-01T08:27:24Z</time>
      </trkpt>
      <trkpt lat="49.15211" lon="2.15581">
        <ele>93.400001525879</ele>
        <time>2013-09-01T08:27:34Z</time>
      </trkpt>
      <trkpt lat="49.1522" lon="2.15564">
        <ele>93</ele>
        <time>2013-09-01T08:27:48Z</time>
      </trkpt>
      <trkpt lat="49.15229" lon="2.15546">
        <ele>92.800003051758</ele>
        <time>2013-09-01T08:28:01Z</time>
      </trkpt>
      <trkpt lat="49.15241" lon="2.15519">
        <ele>92.199996948242</ele>
        <time>2013-09-01T08:28:20Z</time>
      </trkpt>
      <trkpt lat="49.15255" lon="2.15497">
        <ele>91.800003051758</ele>
        <time>2013-09-01T08:28:38Z</time>
      </trkpt>
      <trkpt lat="49.15268" lon="2.15475">
        <ele>91</ele>
        <time>2013-09-01T08:28:55Z</time>
      </trkpt>
      <trkpt lat="49.15281" lon="2.1544">
        <ele>89.599998474121</ele>
        <time>2013-09-01T08:29:17Z</time>
      </trkpt>
      <trkpt lat="49.15284" lon="2.1543">
        <ele>89.199996948242</ele>
        <time>2013-09-01T08:29:34Z</time>
      </trkpt>
      <trkpt lat="49.15284" lon="2.15427">
        <ele>89.199996948242</ele>
        <time>2013-09-01T08:29:59Z</time>
      </trkpt>
      <trkpt lat="49.15291" lon="2.15397">
        <ele>88</ele>
        <time>2013-09-01T08:30:18Z</time>
      </trkpt>
      <trkpt lat="49.153" lon="2.15369">
        <ele>86.800003051758</ele>
        <time>2013-09-01T08:30:36Z</time>
      </trkpt>
      <trkpt lat="49.15313" lon="2.15364">
        <ele>86.800003051758</ele>
        <time>2013-09-01T08:30:53Z</time>
      </trkpt>
      <trkpt lat="49.15317" lon="2.15366">
        <ele>87</ele>
        <time>2013-09-01T08:30:58Z</time>
      </trkpt>
      <trkpt lat="49.15343" lon="2.15374">
        <ele>88</ele>
        <time>2013-09-01T08:31:23Z</time>
      </trkpt>
      <trkpt lat="49.15368" lon="2.15382">
        <ele>88.800003051758</ele>
        <time>2013-09-01T08:31:45Z</time>
      </trkpt>
      <trkpt lat="49.15382" lon="2.1539">
        <ele>89.400001525879</ele>
        <time>2013-09-01T08:32:00Z</time>
      </trkpt>
      <trkpt lat="49.15389" lon="2.15394">
        <ele>89.599998474121</ele>
        <time>2013-09-01T08:32:07Z</time>
      </trkpt>
      <trkpt lat="49.15392" lon="2.15396">
        <ele>89.800003051758</ele>
        <time>2013-09-01T08:32:11Z</time>
      </trkpt>
      <trkpt lat="49.15395" lon="2.15399">
        <ele>90</ele>
        <time>2013-09-01T08:32:14Z</time>
      </trkpt>
      <trkpt lat="49.15397" lon="2.15399">
        <ele>90</ele>
        <time>2013-09-01T08:32:16Z</time>
      </trkpt>
      <trkpt lat="49.15407" lon="2.15411">
        <ele>90.599998474121</ele>
        <time>2013-09-01T08:32:27Z</time>
      </trkpt>
      <trkpt lat="49.15415" lon="2.15427">
        <ele>91.199996948242</ele>
        <time>2013-09-01T08:32:40Z</time>
      </trkpt>
      <trkpt lat="49.15421" lon="2.15445">
        <ele>91.599998474121</ele>
        <time>2013-09-01T08:32:51Z</time>
      </trkpt>
      <trkpt lat="49.15422" lon="2.1545">
        <ele>91.800003051758</ele>
        <time>2013-09-01T08:32:54Z</time>
      </trkpt>
      <trkpt lat="49.15429" lon="2.15465">
        <ele>92.400001525879</ele>
        <time>2013-09-01T08:33:06Z</time>
      </trkpt>
      <trkpt lat="49.1543" lon="2.15467">
        <ele>92.400001525879</ele>
        <time>2013-09-01T08:33:07Z</time>
      </trkpt>
      <trkpt lat="49.15437" lon="2.15483">
        <ele>93</ele>
        <time>2013-09-01T08:33:19Z</time>
      </trkpt>
      <trkpt lat="49.15441" lon="2.15494">
        <ele>93.400001525879</ele>
        <time>2013-09-01T08:33:28Z</time>
      </trkpt>
      <trkpt lat="49.15446" lon="2.15506">
        <ele>93.800003051758</ele>
        <time>2013-09-01T08:33:36Z</time>
      </trkpt>
      <trkpt lat="49.15453" lon="2.15515">
        <ele>94.199996948242</ele>
        <time>2013-09-01T08:33:43Z</time>
      </trkpt>
      <trkpt lat="49.15461" lon="2.15532">
        <ele>94.800003051758</ele>
        <time>2013-09-01T08:33:56Z</time>
      </trkpt>
      <trkpt lat="49.1547" lon="2.1555">
        <ele>95.199996948242</ele>
        <time>2013-09-01T08:34:10Z</time>
      </trkpt>
      <trkpt lat="49.15474" lon="2.15555">
        <ele>95.400001525879</ele>
        <time>2013-09-01T08:34:16Z</time>
      </trkpt>
      <trkpt lat="49.15485" lon="2.15572">
        <ele>95.800003051758</ele>
        <time>2013-09-01T08:34:29Z</time>
      </trkpt>
      <trkpt lat="49.15496" lon="2.15587">
        <ele>96</ele>
        <time>2013-09-01T08:34:42Z</time>
      </trkpt>
      <trkpt lat="49.15502" lon="2.15597">
        <ele>96.199996948242</ele>
        <time>2013-09-01T08:34:51Z</time>
      </trkpt>
      <trkpt lat="49.15516" lon="2.15614">
        <ele>97</ele>
        <time>2013-09-01T08:35:06Z</time>
      </trkpt>
      <trkpt lat="49.15525" lon="2.15632">
        <ele>97.800003051758</ele>
        <time>2013-09-01T08:35:20Z</time>
      </trkpt>
      <trkpt lat="49.1554" lon="2.15652">
        <ele>98.800003051758</ele>
        <time>2013-09-01T08:35:38Z</time>
      </trkpt>
      <trkpt lat="49.15554" lon="2.15672">
        <ele>100</ele>
        <time>2013-09-01T08:35:55Z</time>
      </trkpt>
      <trkpt lat="49.15564" lon="2.15687">
        <ele>100.80000305176</ele>
        <time>2013-09-01T08:36:09Z</time>
      </trkpt>
      <trkpt lat="49.15575" lon="2.15704">
        <ele>101.59999847412</ele>
        <time>2013-09-01T08:36:23Z</time>
      </trkpt>
      <trkpt lat="49.15586" lon="2.15722">
        <ele>102.19999694824</ele>
        <time>2013-09-01T08:36:38Z</time>
      </trkpt>
      <trkpt lat="49.15597" lon="2.15739">
        <ele>103</ele>
        <time>2013-09-01T08:36:53Z</time>
      </trkpt>
      <trkpt lat="49.15608" lon="2.15758">
        <ele>103.59999847412</ele>
        <time>2013-09-01T08:37:08Z</time>
      </trkpt>
      <trkpt lat="49.15612" lon="2.15769">
        <ele>104</ele>
        <time>2013-09-01T08:37:17Z</time>
      </trkpt>
      <trkpt lat="49.15613" lon="2.15773">
        <ele>104.19999694824</ele>
        <time>2013-09-01T08:37:19Z</time>
      </trkpt>
      <trkpt lat="49.15616" lon="2.15777">
        <ele>104.40000152588</ele>
        <time>2013-09-01T08:37:23Z</time>
      </trkpt>
      <trkpt lat="49.15619" lon="2.15786">
        <ele>104.59999847412</ele>
        <time>2013-09-01T08:37:29Z</time>
      </trkpt>
      <trkpt lat="49.15623" lon="2.15797">
        <ele>105</ele>
        <time>2013-09-01T08:37:37Z</time>
      </trkpt>
      <trkpt lat="49.15628" lon="2.15813">
        <ele>105.40000152588</ele>
        <time>2013-09-01T08:37:54Z</time>
      </trkpt>
      <trkpt lat="49.15638" lon="2.15834">
        <ele>106.19999694824</ele>
        <time>2013-09-01T08:38:11Z</time>
      </trkpt>
      <trkpt lat="49.15641" lon="2.15841">
        <ele>106.40000152588</ele>
        <time>2013-09-01T08:38:17Z</time>
      </trkpt>
      <trkpt lat="49.15645" lon="2.15848">
        <ele>106.40000152588</ele>
        <time>2013-09-01T08:38:22Z</time>
      </trkpt>
      <trkpt lat="49.15654" lon="2.15864">
        <ele>106.59999847412</ele>
        <time>2013-09-01T08:38:35Z</time>
      </trkpt>
      <trkpt lat="49.15665" lon="2.15882">
        <ele>106.80000305176</ele>
        <time>2013-09-01T08:38:49Z</time>
      </trkpt>
      <trkpt lat="49.15675" lon="2.15899">
        <ele>107</ele>
        <time>2013-09-01T08:39:01Z</time>
      </trkpt>
      <trkpt lat="49.15686" lon="2.15916">
        <ele>107.40000152588</ele>
        <time>2013-09-01T08:39:13Z</time>
      </trkpt>
      <trkpt lat="49.15687" lon="2.15917">
        <ele>107.40000152588</ele>
        <time>2013-09-01T08:39:15Z</time>
      </trkpt>
      <trkpt lat="49.1569" lon="2.15924">
        <ele>107.40000152588</ele>
        <time>2013-09-01T08:39:19Z</time>
      </trkpt>
      <trkpt lat="49.15694" lon="2.15929">
        <ele>107.40000152588</ele>
        <time>2013-09-01T08:39:24Z</time>
      </trkpt>
      <trkpt lat="49.15705" lon="2.15948">
        <ele>107.40000152588</ele>
        <time>2013-09-01T08:39:38Z</time>
      </trkpt>
      <trkpt lat="49.15708" lon="2.15952">
        <ele>107.40000152588</ele>
        <time>2013-09-01T08:39:42Z</time>
      </trkpt>
      <trkpt lat="49.15717" lon="2.15971">
        <ele>107.40000152588</ele>
        <time>2013-09-01T08:39:55Z</time>
      </trkpt>
      <trkpt lat="49.15726" lon="2.15986">
        <ele>107.40000152588</ele>
        <time>2013-09-01T08:40:07Z</time>
      </trkpt>
      <trkpt lat="49.15736" lon="2.16003">
        <ele>107.59999847412</ele>
        <time>2013-09-01T08:40:21Z</time>
      </trkpt>
      <trkpt lat="49.15745" lon="2.16021">
        <ele>107.59999847412</ele>
        <time>2013-09-01T08:40:34Z</time>
      </trkpt>
      <trkpt lat="49.15752" lon="2.16038">
        <ele>107.59999847412</ele>
        <time>2013-09-01T08:40:46Z</time>
      </trkpt>
      <trkpt lat="49.15754" lon="2.16041">
        <ele>107.59999847412</ele>
        <time>2013-09-01T08:40:49Z</time>
      </trkpt>
      <trkpt lat="49.15755" lon="2.16044">
        <ele>107.59999847412</ele>
        <time>2013-09-01T08:40:51Z</time>
      </trkpt>
      <trkpt lat="49.15759" lon="2.16052">
        <ele>107.59999847412</ele>
        <time>2013-09-01T08:40:55Z</time>
      </trkpt>
      <trkpt lat="49.15765" lon="2.16071">
        <ele>107.59999847412</ele>
        <time>2013-09-01T08:41:08Z</time>
      </trkpt>
      <trkpt lat="49.15765" lon="2.16072">
        <ele>107.59999847412</ele>
        <time>2013-09-01T08:41:09Z</time>
      </trkpt>
      <trkpt lat="49.15771" lon="2.16096">
        <ele>107.19999694824</ele>
        <time>2013-09-01T08:41:22Z</time>
      </trkpt>
      <trkpt lat="49.15775" lon="2.16113">
        <ele>106.80000305176</ele>
        <time>2013-09-01T08:41:33Z</time>
      </trkpt>
      <trkpt lat="49.15778" lon="2.16128">
        <ele>106.40000152588</ele>
        <time>2013-09-01T08:41:43Z</time>
      </trkpt>
      <trkpt lat="49.15788" lon="2.16155">
        <ele>106</ele>
        <time>2013-09-01T08:42:01Z</time>
      </trkpt>
      <trkpt lat="49.158" lon="2.16169">
        <ele>106</ele>
        <time>2013-09-01T08:42:16Z</time>
      </trkpt>
      <trkpt lat="49.15802" lon="2.1617">
        <ele>106</ele>
        <time>2013-09-01T08:42:18Z</time>
      </trkpt>
      <trkpt lat="49.15818" lon="2.16187">
        <ele>104.80000305176</ele>
        <time>2013-09-01T08:42:36Z</time>
      </trkpt>
      <trkpt lat="49.15837" lon="2.16204">
        <ele>104.19999694824</ele>
        <time>2013-09-01T08:42:54Z</time>
      </trkpt>
      <trkpt lat="49.15852" lon="2.16215">
        <ele>104.19999694824</ele>
        <time>2013-09-01T08:43:09Z</time>
      </trkpt>
      <trkpt lat="49.15869" lon="2.16233">
        <ele>104</ele>
        <time>2013-09-01T08:43:27Z</time>
      </trkpt>
      <trkpt lat="49.15874" lon="2.16239">
        <ele>104</ele>
        <time>2013-09-01T08:43:33Z</time>
      </trkpt>
      <trkpt lat="49.15887" lon="2.16266">
        <ele>104.40000152588</ele>
        <time>2013-09-01T08:43:51Z</time>
      </trkpt>
      <trkpt lat="49.15891" lon="2.16277">
        <ele>104.80000305176</ele>
        <time>2013-09-01T08:43:59Z</time>
      </trkpt>
      <trkpt lat="49.15893" lon="2.16287">
        <ele>105</ele>
        <time>2013-09-01T08:44:05Z</time>
      </trkpt>
      <trkpt lat="49.15904" lon="2.16309">
        <ele>106.59999847412</ele>
        <time>2013-09-01T08:44:20Z</time>
      </trkpt>
      <trkpt lat="49.1591" lon="2.16323">
        <ele>107.59999847412</ele>
        <time>2013-09-01T08:44:39Z</time>
      </trkpt>
      <trkpt lat="49.15909" lon="2.16323">
        <ele>107.59999847412</ele>
        <time>2013-09-01T08:44:54Z</time>
      </trkpt>
      <trkpt lat="49.15913" lon="2.16321">
        <ele>108</ele>
        <time>2013-09-01T08:45:00Z</time>
      </trkpt>
      <trkpt lat="49.15921" lon="2.16318">
        <ele>109</ele>
        <time>2013-09-01T08:45:08Z</time>
      </trkpt>
      <trkpt lat="49.15936" lon="2.16315">
        <ele>109.40000152588</ele>
        <time>2013-09-01T08:45:22Z</time>
      </trkpt>
      <trkpt lat="49.15947" lon="2.16315">
        <ele>110</ele>
        <time>2013-09-01T08:45:34Z</time>
      </trkpt>
      <trkpt lat="49.15948" lon="2.16315">
        <ele>110</ele>
        <time>2013-09-01T08:45:35Z</time>
      </trkpt>
      <trkpt lat="49.15962" lon="2.16319">
        <ele>110.59999847412</ele>
        <time>2013-09-01T08:45:48Z</time>
      </trkpt>
      <trkpt lat="49.15976" lon="2.16324">
        <ele>111</ele>
        <time>2013-09-01T08:46:01Z</time>
      </trkpt>
      <trkpt lat="49.15992" lon="2.16329">
        <ele>111.59999847412</ele>
        <time>2013-09-01T08:46:16Z</time>
      </trkpt>
      <trkpt lat="49.16014" lon="2.16325">
        <ele>112.40000152588</ele>
        <time>2013-09-01T08:46:36Z</time>
      </trkpt>
      <trkpt lat="49.16032" lon="2.1632">
        <ele>112.80000305176</ele>
        <time>2013-09-01T08:46:52Z</time>
      </trkpt>
      <trkpt lat="49.16049" lon="2.16316">
        <ele>113.19999694824</ele>
        <time>2013-09-01T08:47:08Z</time>
      </trkpt>
      <trkpt lat="49.16067" lon="2.16307">
        <ele>113.80000305176</ele>
        <time>2013-09-01T08:47:25Z</time>
      </trkpt>
      <trkpt lat="49.16083" lon="2.16299">
        <ele>114.40000152588</ele>
        <time>2013-09-01T08:47:39Z</time>
      </trkpt>
      <trkpt lat="49.16097" lon="2.16291">
        <ele>114.80000305176</ele>
        <time>2013-09-01T08:47:52Z</time>
      </trkpt>
      <trkpt lat="49.16113" lon="2.16277">
        <ele>115.59999847412</ele>
        <time>2013-09-01T08:48:10Z</time>
      </trkpt>
      <trkpt lat="49.16133" lon="2.16262">
        <ele>116.59999847412</ele>
        <time>2013-09-01T08:48:30Z</time>
      </trkpt>
      <trkpt lat="49.16145" lon="2.16249">
        <ele>117.19999694824</ele>
        <time>2013-09-01T08:48:44Z</time>
      </trkpt>
      <trkpt lat="49.16156" lon="2.16233">
        <ele>117.59999847412</ele>
        <time>2013-09-01T08:48:59Z</time>
      </trkpt>
      <trkpt lat="49.16162" lon="2.16225">
        <ele>117.80000305176</ele>
        <time>2013-09-01T08:49:06Z</time>
      </trkpt>
      <trkpt lat="49.16174" lon="2.16208">
        <ele>118.19999694824</ele>
        <time>2013-09-01T08:49:21Z</time>
      </trkpt>
      <trkpt lat="49.16184" lon="2.16193">
        <ele>118.40000152588</ele>
        <time>2013-09-01T08:49:33Z</time>
      </trkpt>
      <trkpt lat="49.16192" lon="2.16181">
        <ele>118.80000305176</ele>
        <time>2013-09-01T08:49:42Z</time>
      </trkpt>
      <trkpt lat="49.16199" lon="2.16168">
        <ele>119</ele>
        <time>2013-09-01T08:49:54Z</time>
      </trkpt>
      <trkpt lat="49.16206" lon="2.1616">
        <ele>119.19999694824</ele>
        <time>2013-09-01T08:50:02Z</time>
      </trkpt>
      <trkpt lat="49.1621" lon="2.16155">
        <ele>119.40000152588</ele>
        <time>2013-09-01T08:50:06Z</time>
      </trkpt>
      <trkpt lat="49.16212" lon="2.16153">
        <ele>119.40000152588</ele>
        <time>2013-09-01T08:50:09Z</time>
      </trkpt>
      <trkpt lat="49.16227" lon="2.16138">
        <ele>119.80000305176</ele>
        <time>2013-09-01T08:50:24Z</time>
      </trkpt>
      <trkpt lat="49.16245" lon="2.16126">
        <ele>120.19999694824</ele>
        <time>2013-09-01T08:50:40Z</time>
      </trkpt>
      <trkpt lat="49.16255" lon="2.16117">
        <ele>120.19999694824</ele>
        <time>2013-09-01T08:50:52Z</time>
      </trkpt>
      <trkpt lat="49.16256" lon="2.16116">
        <ele>120.19999694824</ele>
        <time>2013-09-01T08:50:53Z</time>
      </trkpt>
      <trkpt lat="49.16266" lon="2.16112">
        <ele>120.19999694824</ele>
        <time>2013-09-01T08:51:03Z</time>
      </trkpt>
      <trkpt lat="49.16283" lon="2.16105">
        <ele>119.80000305176</ele>
        <time>2013-09-01T08:51:17Z</time>
      </trkpt>
      <trkpt lat="49.16294" lon="2.16099">
        <ele>119.59999847412</ele>
        <time>2013-09-01T08:51:28Z</time>
      </trkpt>
      <trkpt lat="49.16297" lon="2.16099">
        <ele>119.59999847412</ele>
        <time>2013-09-01T08:51:30Z</time>
      </trkpt>
      <trkpt lat="49.16314" lon="2.16092">
        <ele>119.40000152588</ele>
        <time>2013-09-01T08:51:45Z</time>
      </trkpt>
      <trkpt lat="49.16327" lon="2.16085">
        <ele>119</ele>
        <time>2013-09-01T08:51:59Z</time>
      </trkpt>
      <trkpt lat="49.1634" lon="2.16077">
        <ele>119</ele>
        <time>2013-09-01T08:52:11Z</time>
      </trkpt>
      <trkpt lat="49.16351" lon="2.16066">
        <ele>119</ele>
        <time>2013-09-01T08:52:23Z</time>
      </trkpt>
      <trkpt lat="49.16367" lon="2.16056">
        <ele>119</ele>
        <time>2013-09-01T08:52:37Z</time>
      </trkpt>
      <trkpt lat="49.16379" lon="2.16043">
        <ele>118.59999847412</ele>
        <time>2013-09-01T08:52:49Z</time>
      </trkpt>
      <trkpt lat="49.16391" lon="2.16032">
        <ele>118.40000152588</ele>
        <time>2013-09-01T08:53:01Z</time>
      </trkpt>
      <trkpt lat="49.16401" lon="2.16019">
        <ele>117.80000305176</ele>
        <time>2013-09-01T08:53:14Z</time>
      </trkpt>
      <trkpt lat="49.16415" lon="2.16004">
        <ele>117</ele>
        <time>2013-09-01T08:53:29Z</time>
      </trkpt>
      <trkpt lat="49.1643" lon="2.15983">
        <ele>116.19999694824</ele>
        <time>2013-09-01T08:53:47Z</time>
      </trkpt>
      <trkpt lat="49.16445" lon="2.15965">
        <ele>115.40000152588</ele>
        <time>2013-09-01T08:54:04Z</time>
      </trkpt>
      <trkpt lat="49.16457" lon="2.15946">
        <ele>114.59999847412</ele>
        <time>2013-09-01T08:54:20Z</time>
      </trkpt>
      <trkpt lat="49.16471" lon="2.15926">
        <ele>113.80000305176</ele>
        <time>2013-09-01T08:54:37Z</time>
      </trkpt>
      <trkpt lat="49.16484" lon="2.15908">
        <ele>113</ele>
        <time>2013-09-01T08:54:52Z</time>
      </trkpt>
      <trkpt lat="49.16498" lon="2.1589">
        <ele>112</ele>
        <time>2013-09-01T08:55:08Z</time>
      </trkpt>
      <trkpt lat="49.16511" lon="2.15875">
        <ele>111</ele>
        <time>2013-09-01T08:55:23Z</time>
      </trkpt>
      <trkpt lat="49.1653" lon="2.15863">
        <ele>110</ele>
        <time>2013-09-01T08:55:42Z</time>
      </trkpt>
      <trkpt lat="49.16553" lon="2.15853">
        <ele>108.80000305176</ele>
        <time>2013-09-01T08:56:02Z</time>
      </trkpt>
      <trkpt lat="49.16572" lon="2.15851">
        <ele>108.19999694824</ele>
        <time>2013-09-01T08:56:17Z</time>
      </trkpt>
      <trkpt lat="49.16581" lon="2.15845">
        <ele>107.59999847412</ele>
        <time>2013-09-01T08:56:40Z</time>
      </trkpt>
      <trkpt lat="49.16575" lon="2.15849">
        <ele>108</ele>
        <time>2013-09-01T08:57:06Z</time>
      </trkpt>
      <trkpt lat="49.16598" lon="2.15845">
        <ele>107</ele>
        <time>2013-09-01T08:57:28Z</time>
      </trkpt>
      <trkpt lat="49.16613" lon="2.15831">
        <ele>106</ele>
        <time>2013-09-01T08:57:45Z</time>
      </trkpt>
      <trkpt lat="49.16634" lon="2.15829">
        <ele>105.40000152588</ele>
        <time>2013-09-01T08:58:03Z</time>
      </trkpt>
      <trkpt lat="49.16651" lon="2.15822">
        <ele>104.40000152588</ele>
        <time>2013-09-01T08:58:25Z</time>
      </trkpt>
      <trkpt lat="49.16675" lon="2.15799">
        <ele>101.59999847412</ele>
        <time>2013-09-01T08:58:48Z</time>
      </trkpt>
      <trkpt lat="49.16692" lon="2.15795">
        <ele>100.19999694824</ele>
        <time>2013-09-01T08:59:09Z</time>
      </trkpt>
      <trkpt lat="49.16692" lon="2.15793">
        <ele>100</ele>
        <time>2013-09-01T08:59:11Z</time>
      </trkpt>
      <trkpt lat="49.16674" lon="2.15806">
        <ele>102.19999694824</ele>
        <time>2013-09-01T08:59:24Z</time>
      </trkpt>
      <trkpt lat="49.16694" lon="2.1579">
        <ele>99.599998474121</ele>
        <time>2013-09-01T08:59:42Z</time>
      </trkpt>
      <trkpt lat="49.16702" lon="2.15796">
        <ele>99.599998474121</ele>
        <time>2013-09-01T09:00:06Z</time>
      </trkpt>
      <trkpt lat="49.16707" lon="2.15793">
        <ele>99.199996948242</ele>
        <time>2013-09-01T09:00:23Z</time>
      </trkpt>
      <trkpt lat="49.16705" lon="2.15796">
        <ele>99.599998474121</ele>
        <time>2013-09-01T09:00:45Z</time>
      </trkpt>
      <trkpt lat="49.1671" lon="2.1579">
        <ele>98.599998474121</ele>
        <time>2013-09-01T09:01:00Z</time>
      </trkpt>
      <trkpt lat="49.1671" lon="2.15788">
        <ele>98.400001525879</ele>
        <time>2013-09-01T09:01:01Z</time>
      </trkpt>
      <trkpt lat="49.16711" lon="2.15783">
        <ele>97.800003051758</ele>
        <time>2013-09-01T09:01:04Z</time>
      </trkpt>
      <trkpt lat="49.16711" lon="2.15781">
        <ele>97.599998474121</ele>
        <time>2013-09-01T09:01:05Z</time>
      </trkpt>
      <trkpt lat="49.16711" lon="2.15779">
        <ele>97.599998474121</ele>
        <time>2013-09-01T09:01:06Z</time>
      </trkpt>
      <trkpt lat="49.1671" lon="2.15777">
        <ele>97.400001525879</ele>
        <time>2013-09-01T09:01:07Z</time>
      </trkpt>
      <trkpt lat="49.16709" lon="2.15775">
        <ele>97.199996948242</ele>
        <time>2013-09-01T09:01:08Z</time>
      </trkpt>
      <trkpt lat="49.16709" lon="2.15773">
        <ele>97</ele>
        <time>2013-09-01T09:01:09Z</time>
      </trkpt>
      <trkpt lat="49.16708" lon="2.15771">
        <ele>97</ele>
        <time>2013-09-01T09:01:10Z</time>
      </trkpt>
      <trkpt lat="49.16717" lon="2.15796">
        <ele>98.800003051758</ele>
        <time>2013-09-01T09:01:28Z</time>
      </trkpt>
      <trkpt lat="49.16726" lon="2.15787">
        <ele>97.400001525879</ele>
        <time>2013-09-01T09:01:42Z</time>
      </trkpt>
      <trkpt lat="49.16734" lon="2.15789">
        <ele>97.199996948242</ele>
        <time>2013-09-01T09:01:59Z</time>
      </trkpt>
      <trkpt lat="49.16744" lon="2.15789">
        <ele>96.599998474121</ele>
        <time>2013-09-01T09:02:20Z</time>
      </trkpt>
      <trkpt lat="49.16765" lon="2.15793">
        <ele>94</ele>
        <time>2013-09-01T09:02:43Z</time>
      </trkpt>
      <trkpt lat="49.16768" lon="2.15795">
        <ele>93.599998474121</ele>
        <time>2013-09-01T09:02:45Z</time>
      </trkpt>
      <trkpt lat="49.16798" lon="2.15818">
        <ele>89.800003051758</ele>
        <time>2013-09-01T09:03:11Z</time>
      </trkpt>
      <trkpt lat="49.16818" lon="2.1583">
        <ele>86</ele>
        <time>2013-09-01T09:03:34Z</time>
      </trkpt>
      <trkpt lat="49.16835" lon="2.1582">
        <ele>82.800003051758</ele>
        <time>2013-09-01T09:03:53Z</time>
      </trkpt>
      <trkpt lat="49.16858" lon="2.15827">
        <ele>85</ele>
        <time>2013-09-01T09:04:11Z</time>
      </trkpt>
      <trkpt lat="49.16876" lon="2.1582">
        <ele>86.599998474121</ele>
        <time>2013-09-01T09:04:25Z</time>
      </trkpt>
      <trkpt lat="49.16886" lon="2.15812">
        <ele>87.599998474121</ele>
        <time>2013-09-01T09:04:38Z</time>
      </trkpt>
      <trkpt lat="49.16893" lon="2.15808">
        <ele>88.199996948242</ele>
        <time>2013-09-01T09:04:45Z</time>
      </trkpt>
      <trkpt lat="49.16902" lon="2.15816">
        <ele>89</ele>
        <time>2013-09-01T09:04:55Z</time>
      </trkpt>
      <trkpt lat="49.16915" lon="2.15831">
        <ele>89.800003051758</ele>
        <time>2013-09-01T09:05:10Z</time>
      </trkpt>
      <trkpt lat="49.16926" lon="2.15855">
        <ele>91.400001525879</ele>
        <time>2013-09-01T09:05:27Z</time>
      </trkpt>
      <trkpt lat="49.16928" lon="2.15859">
        <ele>91.800003051758</ele>
        <time>2013-09-01T09:05:30Z</time>
      </trkpt>
      <trkpt lat="49.1694" lon="2.15878">
        <ele>94</ele>
        <time>2013-09-01T09:05:47Z</time>
      </trkpt>
      <trkpt lat="49.16948" lon="2.15911">
        <ele>94.599998474121</ele>
        <time>2013-09-01T09:06:06Z</time>
      </trkpt>
      <trkpt lat="49.16956" lon="2.15927">
        <ele>95.800003051758</ele>
        <time>2013-09-01T09:06:28Z</time>
      </trkpt>
      <trkpt lat="49.16972" lon="2.15963">
        <ele>96.800003051758</ele>
        <time>2013-09-01T09:06:51Z</time>
      </trkpt>
      <trkpt lat="49.16979" lon="2.16006">
        <ele>95.199996948242</ele>
        <time>2013-09-01T09:07:16Z</time>
      </trkpt>
      <trkpt lat="49.1699" lon="2.16037">
        <ele>95.199996948242</ele>
        <time>2013-09-01T09:07:38Z</time>
      </trkpt>
      <trkpt lat="49.16996" lon="2.16044">
        <ele>95.400001525879</ele>
        <time>2013-09-01T09:07:43Z</time>
      </trkpt>
      <trkpt lat="49.17014" lon="2.16075">
        <ele>97.199996948242</ele>
        <time>2013-09-01T09:08:04Z</time>
      </trkpt>
      <trkpt lat="49.17012" lon="2.16099">
        <ele>95.199996948242</ele>
        <time>2013-09-01T09:08:25Z</time>
      </trkpt>
      <trkpt lat="49.17011" lon="2.161">
        <ele>94.800003051758</ele>
        <time>2013-09-01T09:08:26Z</time>
      </trkpt>
      <trkpt lat="49.17008" lon="2.16102">
        <ele>94</ele>
        <time>2013-09-01T09:08:28Z</time>
      </trkpt>
      <trkpt lat="49.17007" lon="2.16103">
        <ele>93.800003051758</ele>
        <time>2013-09-01T09:08:29Z</time>
      </trkpt>
      <trkpt lat="49.17007" lon="2.16104">
        <ele>93.599998474121</ele>
        <time>2013-09-01T09:08:30Z</time>
      </trkpt>
      <trkpt lat="49.17006" lon="2.16106">
        <ele>93.199996948242</ele>
        <time>2013-09-01T09:08:31Z</time>
      </trkpt>
      <trkpt lat="49.17006" lon="2.16107">
        <ele>93</ele>
        <time>2013-09-01T09:08:32Z</time>
      </trkpt>
      <trkpt lat="49.17018" lon="2.16131">
        <ele>94.199996948242</ele>
        <time>2013-09-01T09:08:48Z</time>
      </trkpt>
      <trkpt lat="49.17042" lon="2.16157">
        <ele>96.400001525879</ele>
        <time>2013-09-01T09:09:10Z</time>
      </trkpt>
      <trkpt lat="49.17052" lon="2.16172">
        <ele>96.599998474121</ele>
        <time>2013-09-01T09:09:30Z</time>
      </trkpt>
      <trkpt lat="49.17066" lon="2.16188">
        <ele>96.800003051758</ele>
        <time>2013-09-01T09:09:48Z</time>
      </trkpt>
      <trkpt lat="49.17083" lon="2.16209">
        <ele>95.800003051758</ele>
        <time>2013-09-01T09:10:04Z</time>
      </trkpt>
      <trkpt lat="49.17084" lon="2.1621">
        <ele>95.800003051758</ele>
        <time>2013-09-01T09:10:05Z</time>
      </trkpt>
      <trkpt lat="49.17085" lon="2.16212">
        <ele>95.800003051758</ele>
        <time>2013-09-01T09:10:06Z</time>
      </trkpt>
      <trkpt lat="49.17101" lon="2.16228">
        <ele>97</ele>
        <time>2013-09-01T09:10:23Z</time>
      </trkpt>
      <trkpt lat="49.17117" lon="2.16253">
        <ele>96.800003051758</ele>
        <time>2013-09-01T09:10:44Z</time>
      </trkpt>
      <trkpt lat="49.17133" lon="2.16279">
        <ele>97.199996948242</ele>
        <time>2013-09-01T09:11:03Z</time>
      </trkpt>
      <trkpt lat="49.17153" lon="2.163">
        <ele>97.199996948242</ele>
        <time>2013-09-01T09:11:24Z</time>
      </trkpt>
      <trkpt lat="49.17166" lon="2.16317">
        <ele>95.800003051758</ele>
        <time>2013-09-01T09:11:39Z</time>
      </trkpt>
      <trkpt lat="49.17181" lon="2.16339">
        <ele>94.199996948242</ele>
        <time>2013-09-01T09:11:57Z</time>
      </trkpt>
      <trkpt lat="49.17196" lon="2.16364">
        <ele>94.199996948242</ele>
        <time>2013-09-01T09:12:16Z</time>
      </trkpt>
      <trkpt lat="49.1721" lon="2.16387">
        <ele>93.800003051758</ele>
        <time>2013-09-01T09:12:34Z</time>
      </trkpt>
      <trkpt lat="49.17224" lon="2.16413">
        <ele>93</ele>
        <time>2013-09-01T09:12:53Z</time>
      </trkpt>
      <trkpt lat="49.17236" lon="2.16439">
        <ele>94.199996948242</ele>
        <time>2013-09-01T09:13:10Z</time>
      </trkpt>
      <trkpt lat="49.17242" lon="2.16461">
        <ele>94.599998474121</ele>
        <time>2013-09-01T09:13:24Z</time>
      </trkpt>
      <trkpt lat="49.17255" lon="2.16495">
        <ele>96.199996948242</ele>
        <time>2013-09-01T09:13:45Z</time>
      </trkpt>
      <trkpt lat="49.17262" lon="2.16529">
        <ele>97.599998474121</ele>
        <time>2013-09-01T09:14:05Z</time>
      </trkpt>
      <trkpt lat="49.17264" lon="2.16547">
        <ele>98</ele>
        <time>2013-09-01T09:14:22Z</time>
      </trkpt>
      <trkpt lat="49.17265" lon="2.16548">
        <ele>98.199996948242</ele>
        <time>2013-09-01T09:14:31Z</time>
      </trkpt>
      <trkpt lat="49.17264" lon="2.16549">
        <ele>98.199996948242</ele>
        <time>2013-09-01T09:14:32Z</time>
      </trkpt>
      <trkpt lat="49.17264" lon="2.16551">
        <ele>98</ele>
        <time>2013-09-01T09:14:33Z</time>
      </trkpt>
      <trkpt lat="49.17264" lon="2.16552">
        <ele>98.199996948242</ele>
        <time>2013-09-01T09:14:34Z</time>
      </trkpt>
      <trkpt lat="49.17265" lon="2.16554">
        <ele>98.199996948242</ele>
        <time>2013-09-01T09:14:35Z</time>
      </trkpt>
      <trkpt lat="49.17266" lon="2.16555">
        <ele>98.400001525879</ele>
        <time>2013-09-01T09:14:36Z</time>
      </trkpt>
      <trkpt lat="49.17271" lon="2.16569">
        <ele>99.199996948242</ele>
        <time>2013-09-01T09:14:50Z</time>
      </trkpt>
      <trkpt lat="49.17271" lon="2.16575">
        <ele>99</ele>
        <time>2013-09-01T09:14:53Z</time>
      </trkpt>
      <trkpt lat="49.17271" lon="2.16577">
        <ele>99</ele>
        <time>2013-09-01T09:14:54Z</time>
      </trkpt>
      <trkpt lat="49.17272" lon="2.16589">
        <ele>99</ele>
        <time>2013-09-01T09:15:01Z</time>
      </trkpt>
      <trkpt lat="49.17275" lon="2.166">
        <ele>99.199996948242</ele>
        <time>2013-09-01T09:15:19Z</time>
      </trkpt>
      <trkpt lat="49.17276" lon="2.16601">
        <ele>99.199996948242</ele>
        <time>2013-09-01T09:15:20Z</time>
      </trkpt>
      <trkpt lat="49.17287" lon="2.16636">
        <ele>99</ele>
        <time>2013-09-01T09:15:40Z</time>
      </trkpt>
      <trkpt lat="49.17294" lon="2.16647">
        <ele>99</ele>
        <time>2013-09-01T09:15:50Z</time>
      </trkpt>
      <trkpt lat="49.173" lon="2.16658">
        <ele>98.599998474121</ele>
        <time>2013-09-01T09:16:03Z</time>
      </trkpt>
      <trkpt lat="49.17301" lon="2.16659">
        <ele>98.599998474121</ele>
        <time>2013-09-01T09:16:05Z</time>
      </trkpt>
      <trkpt lat="49.17302" lon="2.1666">
        <ele>98.599998474121</ele>
        <time>2013-09-01T09:16:06Z</time>
      </trkpt>
      <trkpt lat="49.17307" lon="2.16665">
        <ele>98.400001525879</ele>
        <time>2013-09-01T09:16:23Z</time>
      </trkpt>
      <trkpt lat="49.17306" lon="2.16667">
        <ele>98.199996948242</ele>
        <time>2013-09-01T09:16:24Z</time>
      </trkpt>
      <trkpt lat="49.17307" lon="2.16668">
        <ele>98.199996948242</ele>
        <time>2013-09-01T09:16:25Z</time>
      </trkpt>
      <trkpt lat="49.17315" lon="2.16674">
        <ele>98.599998474121</ele>
        <time>2013-09-01T09:16:38Z</time>
      </trkpt>
      <trkpt lat="49.17317" lon="2.16678">
        <ele>98.599998474121</ele>
        <time>2013-09-01T09:16:51Z</time>
      </trkpt>
      <trkpt lat="49.17336" lon="2.16696">
        <ele>99.199996948242</ele>
        <time>2013-09-01T09:17:13Z</time>
      </trkpt>
      <trkpt lat="49.17346" lon="2.16706">
        <ele>99.800003051758</ele>
        <time>2013-09-01T09:17:24Z</time>
      </trkpt>
      <trkpt lat="49.17351" lon="2.1672">
        <ele>100.19999694824</ele>
        <time>2013-09-01T09:17:44Z</time>
      </trkpt>
      <trkpt lat="49.17351" lon="2.16715">
        <ele>100.19999694824</ele>
        <time>2013-09-01T09:18:06Z</time>
      </trkpt>
      <trkpt lat="49.17349" lon="2.16712">
        <ele>100</ele>
        <time>2013-09-01T09:18:25Z</time>
      </trkpt>
      <trkpt lat="49.17354" lon="2.16716">
        <ele>100.40000152588</ele>
        <time>2013-09-01T09:18:45Z</time>
      </trkpt>
      <trkpt lat="49.17352" lon="2.16712">
        <ele>100.19999694824</ele>
        <time>2013-09-01T09:19:18Z</time>
      </trkpt>
      <trkpt lat="49.17352" lon="2.16726">
        <ele>100.19999694824</ele>
        <time>2013-09-01T09:19:43Z</time>
      </trkpt>
      <trkpt lat="49.17347" lon="2.16733">
        <ele>99.800003051758</ele>
        <time>2013-09-01T09:19:55Z</time>
      </trkpt>
      <trkpt lat="49.17345" lon="2.16737">
        <ele>99.599998474121</ele>
        <time>2013-09-01T09:19:59Z</time>
      </trkpt>
      <trkpt lat="49.17337" lon="2.16762">
        <ele>100.19999694824</ele>
        <time>2013-09-01T09:20:19Z</time>
      </trkpt>
      <trkpt lat="49.17327" lon="2.16793">
        <ele>102.59999847412</ele>
        <time>2013-09-01T09:20:41Z</time>
      </trkpt>
      <trkpt lat="49.17322" lon="2.16817">
        <ele>104.80000305176</ele>
        <time>2013-09-01T09:21:00Z</time>
      </trkpt>
      <trkpt lat="49.17311" lon="2.16854">
        <ele>108.19999694824</ele>
        <time>2013-09-01T09:21:22Z</time>
      </trkpt>
      <trkpt lat="49.173" lon="2.16888">
        <ele>111.19999694824</ele>
        <time>2013-09-01T09:21:45Z</time>
      </trkpt>
      <trkpt lat="49.17293" lon="2.16916">
        <ele>113.40000152588</ele>
        <time>2013-09-01T09:22:07Z</time>
      </trkpt>
      <trkpt lat="49.17284" lon="2.16944">
        <ele>116.19999694824</ele>
        <time>2013-09-01T09:22:30Z</time>
      </trkpt>
      <trkpt lat="49.17273" lon="2.16977">
        <ele>119</ele>
        <time>2013-09-01T09:22:56Z</time>
      </trkpt>
      <trkpt lat="49.17263" lon="2.17001">
        <ele>120.80000305176</ele>
        <time>2013-09-01T09:23:19Z</time>
      </trkpt>
      <trkpt lat="49.17255" lon="2.1702">
        <ele>122</ele>
        <time>2013-09-01T09:23:39Z</time>
      </trkpt>
      <trkpt lat="49.17245" lon="2.17048">
        <ele>124.19999694824</ele>
        <time>2013-09-01T09:24:06Z</time>
      </trkpt>
      <trkpt lat="49.17238" lon="2.17079">
        <ele>127.40000152588</ele>
        <time>2013-09-01T09:24:31Z</time>
      </trkpt>
      <trkpt lat="49.17229" lon="2.17088">
        <ele>129</ele>
        <time>2013-09-01T09:24:52Z</time>
      </trkpt>
      <trkpt lat="49.1723" lon="2.17091">
        <ele>129.39999389648</ele>
        <time>2013-09-01T09:24:54Z</time>
      </trkpt>
      <trkpt lat="49.17222" lon="2.1714">
        <ele>134.60000610352</ele>
        <time>2013-09-01T09:25:16Z</time>
      </trkpt>
      <trkpt lat="49.17215" lon="2.1715">
        <ele>136</ele>
        <time>2013-09-01T09:25:37Z</time>
      </trkpt>
      <trkpt lat="49.17213" lon="2.17159">
        <ele>137</ele>
        <time>2013-09-01T09:25:57Z</time>
      </trkpt>
      <trkpt lat="49.17204" lon="2.17158">
        <ele>137.39999389648</ele>
        <time>2013-09-01T09:26:20Z</time>
      </trkpt>
      <trkpt lat="49.17205" lon="2.17159">
        <ele>137.39999389648</ele>
        <time>2013-09-01T09:26:43Z</time>
      </trkpt>
      <trkpt lat="49.17214" lon="2.17157">
        <ele>136.80000305176</ele>
        <time>2013-09-01T09:27:08Z</time>
      </trkpt>
      <trkpt lat="49.17214" lon="2.17175">
        <ele>138</ele>
        <time>2013-09-01T09:27:29Z</time>
      </trkpt>
      <trkpt lat="49.17216" lon="2.1719">
        <ele>138.39999389648</ele>
        <time>2013-09-01T09:27:51Z</time>
      </trkpt>
      <trkpt lat="49.17211" lon="2.17216">
        <ele>139.60000610352</ele>
        <time>2013-09-01T09:28:16Z</time>
      </trkpt>
      <trkpt lat="49.17211" lon="2.17246">
        <ele>140.80000305176</ele>
        <time>2013-09-01T09:28:41Z</time>
      </trkpt>
      <trkpt lat="49.17203" lon="2.17282">
        <ele>142</ele>
        <time>2013-09-01T09:29:07Z</time>
      </trkpt>
      <trkpt lat="49.17205" lon="2.17316">
        <ele>143</ele>
        <time>2013-09-01T09:29:30Z</time>
      </trkpt>
      <trkpt lat="49.17205" lon="2.17351">
        <ele>144</ele>
        <time>2013-09-01T09:29:52Z</time>
      </trkpt>
      <trkpt lat="49.17193" lon="2.17386">
        <ele>145.19999694824</ele>
        <time>2013-09-01T09:30:16Z</time>
      </trkpt>
      <trkpt lat="49.17186" lon="2.17418">
        <ele>146.19999694824</ele>
        <time>2013-09-01T09:30:36Z</time>
      </trkpt>
      <trkpt lat="49.1718" lon="2.17448">
        <ele>148</ele>
        <time>2013-09-01T09:31:01Z</time>
      </trkpt>
      <trkpt lat="49.1718" lon="2.17484">
        <ele>149.80000305176</ele>
        <time>2013-09-01T09:31:24Z</time>
      </trkpt>
      <trkpt lat="49.17169" lon="2.1753">
        <ele>152</ele>
        <time>2013-09-01T09:31:50Z</time>
      </trkpt>
      <trkpt lat="49.17168" lon="2.17559">
        <ele>153</ele>
        <time>2013-09-01T09:32:13Z</time>
      </trkpt>
      <trkpt lat="49.17159" lon="2.17589">
        <ele>154.19999694824</ele>
        <time>2013-09-01T09:32:37Z</time>
      </trkpt>
      <trkpt lat="49.17152" lon="2.17631">
        <ele>156</ele>
        <time>2013-09-01T09:32:59Z</time>
      </trkpt>
      <trkpt lat="49.17138" lon="2.17653">
        <ele>157</ele>
        <time>2013-09-01T09:33:24Z</time>
      </trkpt>
      <trkpt lat="49.1714" lon="2.17645">
        <ele>156.80000305176</ele>
        <time>2013-09-01T09:33:49Z</time>
      </trkpt>
      <trkpt lat="49.17142" lon="2.17669">
        <ele>157.60000610352</ele>
        <time>2013-09-01T09:34:15Z</time>
      </trkpt>
      <trkpt lat="49.17135" lon="2.17689">
        <ele>158.19999694824</ele>
        <time>2013-09-01T09:34:37Z</time>
      </trkpt>
      <trkpt lat="49.17122" lon="2.17707">
        <ele>159</ele>
        <time>2013-09-01T09:34:56Z</time>
      </trkpt>
      <trkpt lat="49.17102" lon="2.1773">
        <ele>159.60000610352</ele>
        <time>2013-09-01T09:35:22Z</time>
      </trkpt>
      <trkpt lat="49.17091" lon="2.17773">
        <ele>160.19999694824</ele>
        <time>2013-09-01T09:35:47Z</time>
      </trkpt>
      <trkpt lat="49.1709" lon="2.17801">
        <ele>160.60000610352</ele>
        <time>2013-09-01T09:36:11Z</time>
      </trkpt>
      <trkpt lat="49.17079" lon="2.17831">
        <ele>160.80000305176</ele>
        <time>2013-09-01T09:36:30Z</time>
      </trkpt>
      <trkpt lat="49.17073" lon="2.17863">
        <ele>161.39999389648</ele>
        <time>2013-09-01T09:36:48Z</time>
      </trkpt>
      <trkpt lat="49.17073" lon="2.17866">
        <ele>161.60000610352</ele>
        <time>2013-09-01T09:36:49Z</time>
      </trkpt>
      <trkpt lat="49.17074" lon="2.17885">
        <ele>162.19999694824</ele>
        <time>2013-09-01T09:37:04Z</time>
      </trkpt>
      <trkpt lat="49.17078" lon="2.1791">
        <ele>163.39999389648</ele>
        <time>2013-09-01T09:37:22Z</time>
      </trkpt>
      <trkpt lat="49.17081" lon="2.1793">
        <ele>164.19999694824</ele>
        <time>2013-09-01T09:37:41Z</time>
      </trkpt>
      <trkpt lat="49.17089" lon="2.17964">
        <ele>165.60000610352</ele>
        <time>2013-09-01T09:38:03Z</time>
      </trkpt>
      <trkpt lat="49.17085" lon="2.17999">
        <ele>166.80000305176</ele>
        <time>2013-09-01T09:38:26Z</time>
      </trkpt>
      <trkpt lat="49.17067" lon="2.18013">
        <ele>165.60000610352</ele>
        <time>2013-09-01T09:38:45Z</time>
      </trkpt>
      <trkpt lat="49.17071" lon="2.17919">
        <ele>163</ele>
        <time>2013-09-01T09:39:08Z</time>
      </trkpt>
      <trkpt lat="49.17054" lon="2.18043">
        <ele>164.19999694824</ele>
        <time>2013-09-01T09:39:34Z</time>
      </trkpt>
      <trkpt lat="49.17053" lon="2.1805">
        <ele>164.19999694824</ele>
        <time>2013-09-01T09:39:43Z</time>
      </trkpt>
      <trkpt lat="49.1703" lon="2.18053">
        <ele>162.39999389648</ele>
        <time>2013-09-01T09:40:01Z</time>
      </trkpt>
      <trkpt lat="49.17033" lon="2.18088">
        <ele>162.19999694824</ele>
        <time>2013-09-01T09:40:20Z</time>
      </trkpt>
      <trkpt lat="49.17032" lon="2.18081">
        <ele>162.19999694824</ele>
        <time>2013-09-01T09:40:38Z</time>
      </trkpt>
      <trkpt lat="49.17027" lon="2.18081">
        <ele>161.80000305176</ele>
        <time>2013-09-01T09:40:59Z</time>
      </trkpt>
      <trkpt lat="49.17039" lon="2.18087">
        <ele>162.60000610352</ele>
        <time>2013-09-01T09:41:15Z</time>
      </trkpt>
      <trkpt lat="49.17041" lon="2.18098">
        <ele>162.80000305176</ele>
        <time>2013-09-01T09:41:20Z</time>
      </trkpt>
      <trkpt lat="49.17047" lon="2.18119">
        <ele>163</ele>
        <time>2013-09-01T09:41:41Z</time>
      </trkpt>
      <trkpt lat="49.17052" lon="2.18128">
        <ele>163.19999694824</ele>
        <time>2013-09-01T09:41:51Z</time>
      </trkpt>
      <trkpt lat="49.17054" lon="2.18134">
        <ele>163.39999389648</ele>
        <time>2013-09-01T09:41:55Z</time>
      </trkpt>
      <trkpt lat="49.17062" lon="2.18147">
        <ele>163.80000305176</ele>
        <time>2013-09-01T09:42:07Z</time>
      </trkpt>
      <trkpt lat="49.1707" lon="2.18162">
        <ele>164.19999694824</ele>
        <time>2013-09-01T09:42:20Z</time>
      </trkpt>
      <trkpt lat="49.17079" lon="2.18176">
        <ele>164.19999694824</ele>
        <time>2013-09-01T09:42:34Z</time>
      </trkpt>
      <trkpt lat="49.17088" lon="2.18182">
        <ele>163.60000610352</ele>
        <time>2013-09-01T09:42:48Z</time>
      </trkpt>
      <trkpt lat="49.17097" lon="2.18176">
        <ele>163.19999694824</ele>
        <time>2013-09-01T09:43:05Z</time>
      </trkpt>
      <trkpt lat="49.17096" lon="2.18191">
        <ele>162.39999389648</ele>
        <time>2013-09-01T09:43:18Z</time>
      </trkpt>
      <trkpt lat="49.17094" lon="2.18193">
        <ele>162.60000610352</ele>
        <time>2013-09-01T09:43:35Z</time>
      </trkpt>
      <trkpt lat="49.17091" lon="2.18197">
        <ele>162.39999389648</ele>
        <time>2013-09-01T09:43:42Z</time>
      </trkpt>
      <trkpt lat="49.17083" lon="2.18206">
        <ele>162.60000610352</ele>
        <time>2013-09-01T09:43:58Z</time>
      </trkpt>
      <trkpt lat="49.17076" lon="2.18215">
        <ele>162</ele>
        <time>2013-09-01T09:44:12Z</time>
      </trkpt>
      <trkpt lat="49.17062" lon="2.18232">
        <ele>161</ele>
        <time>2013-09-01T09:44:30Z</time>
      </trkpt>
      <trkpt lat="49.17047" lon="2.18249">
        <ele>160.80000305176</ele>
        <time>2013-09-01T09:44:48Z</time>
      </trkpt>
      <trkpt lat="49.17032" lon="2.18265">
        <ele>161</ele>
        <time>2013-09-01T09:45:07Z</time>
      </trkpt>
      <trkpt lat="49.1702" lon="2.18279">
        <ele>161.39999389648</ele>
        <time>2013-09-01T09:45:23Z</time>
      </trkpt>
      <trkpt lat="49.17006" lon="2.18293">
        <ele>161.80000305176</ele>
        <time>2013-09-01T09:45:40Z</time>
      </trkpt>
      <trkpt lat="49.16984" lon="2.18313">
        <ele>162</ele>
        <time>2013-09-01T09:46:03Z</time>
      </trkpt>
      <trkpt lat="49.16967" lon="2.18334">
        <ele>162.19999694824</ele>
        <time>2013-09-01T09:46:28Z</time>
      </trkpt>
      <trkpt lat="49.16951" lon="2.1835">
        <ele>162.39999389648</ele>
        <time>2013-09-01T09:46:50Z</time>
      </trkpt>
      <trkpt lat="49.16931" lon="2.18371">
        <ele>162.39999389648</ele>
        <time>2013-09-01T09:47:13Z</time>
      </trkpt>
      <trkpt lat="49.16916" lon="2.18387">
        <ele>162.19999694824</ele>
        <time>2013-09-01T09:47:32Z</time>
      </trkpt>
      <trkpt lat="49.16899" lon="2.18405">
        <ele>161.80000305176</ele>
        <time>2013-09-01T09:47:52Z</time>
      </trkpt>
      <trkpt lat="49.16879" lon="2.18426">
        <ele>161.60000610352</ele>
        <time>2013-09-01T09:48:14Z</time>
      </trkpt>
      <trkpt lat="49.16859" lon="2.18449">
        <ele>161.80000305176</ele>
        <time>2013-09-01T09:48:36Z</time>
      </trkpt>
      <trkpt lat="49.16844" lon="2.18465">
        <ele>162.19999694824</ele>
        <time>2013-09-01T09:48:53Z</time>
      </trkpt>
      <trkpt lat="49.16822" lon="2.18489">
        <ele>162.60000610352</ele>
        <time>2013-09-01T09:49:16Z</time>
      </trkpt>
      <trkpt lat="49.16801" lon="2.18509">
        <ele>162.80000305176</ele>
        <time>2013-09-01T09:49:38Z</time>
      </trkpt>
      <trkpt lat="49.1678" lon="2.18533">
        <ele>163.19999694824</ele>
        <time>2013-09-01T09:50:01Z</time>
      </trkpt>
      <trkpt lat="49.16771" lon="2.18538">
        <ele>163.19999694824</ele>
        <time>2013-09-01T09:50:23Z</time>
      </trkpt>
      <trkpt lat="49.16774" lon="2.18535">
        <ele>163.19999694824</ele>
        <time>2013-09-01T09:50:47Z</time>
      </trkpt>
      <trkpt lat="49.16782" lon="2.18538">
        <ele>163.39999389648</ele>
        <time>2013-09-01T09:51:08Z</time>
      </trkpt>
      <trkpt lat="49.16783" lon="2.1854">
        <ele>163.39999389648</ele>
        <time>2013-09-01T09:51:11Z</time>
      </trkpt>
      <trkpt lat="49.16781" lon="2.18545">
        <ele>163.60000610352</ele>
        <time>2013-09-01T09:51:37Z</time>
      </trkpt>
      <trkpt lat="49.16776" lon="2.1854">
        <ele>163.39999389648</ele>
        <time>2013-09-01T09:51:58Z</time>
      </trkpt>
      <trkpt lat="49.16776" lon="2.18531">
        <ele>163</ele>
        <time>2013-09-01T09:52:21Z</time>
      </trkpt>
      <trkpt lat="49.16779" lon="2.18532">
        <ele>163.19999694824</ele>
        <time>2013-09-01T09:52:41Z</time>
      </trkpt>
      <trkpt lat="49.16777" lon="2.18533">
        <ele>163.19999694824</ele>
        <time>2013-09-01T09:53:09Z</time>
      </trkpt>
      <trkpt lat="49.16774" lon="2.18527">
        <ele>163</ele>
        <time>2013-09-01T09:53:33Z</time>
      </trkpt>
      <trkpt lat="49.16774" lon="2.18526">
        <ele>162.80000305176</ele>
        <time>2013-09-01T09:54:00Z</time>
      </trkpt>
      <trkpt lat="49.16773" lon="2.18519">
        <ele>162.60000610352</ele>
        <time>2013-09-01T09:54:11Z</time>
      </trkpt>
      <trkpt lat="49.1677" lon="2.18505">
        <ele>162.19999694824</ele>
        <time>2013-09-01T09:54:23Z</time>
      </trkpt>
      <trkpt lat="49.16767" lon="2.18499">
        <ele>162</ele>
        <time>2013-09-01T09:54:27Z</time>
      </trkpt>
      <trkpt lat="49.16762" lon="2.18489">
        <ele>161.80000305176</ele>
        <time>2013-09-01T09:54:37Z</time>
      </trkpt>
      <trkpt lat="49.16759" lon="2.18481">
        <ele>161.80000305176</ele>
        <time>2013-09-01T09:54:44Z</time>
      </trkpt>
      <trkpt lat="49.16754" lon="2.18476">
        <ele>161.60000610352</ele>
        <time>2013-09-01T09:54:51Z</time>
      </trkpt>
      <trkpt lat="49.16746" lon="2.18461">
        <ele>161.39999389648</ele>
        <time>2013-09-01T09:55:05Z</time>
      </trkpt>
      <trkpt lat="49.16738" lon="2.18444">
        <ele>161.39999389648</ele>
        <time>2013-09-01T09:55:18Z</time>
      </trkpt>
      <trkpt lat="49.16731" lon="2.1843">
        <ele>161.19999694824</ele>
        <time>2013-09-01T09:55:31Z</time>
      </trkpt>
      <trkpt lat="49.16719" lon="2.1841">
        <ele>161</ele>
        <time>2013-09-01T09:55:47Z</time>
      </trkpt>
      <trkpt lat="49.16708" lon="2.18392">
        <ele>160.60000610352</ele>
        <time>2013-09-01T09:56:04Z</time>
      </trkpt>
      <trkpt lat="49.16695" lon="2.18377">
        <ele>160.19999694824</ele>
        <time>2013-09-01T09:56:21Z</time>
      </trkpt>
      <trkpt lat="49.16678" lon="2.18362">
        <ele>159.80000305176</ele>
        <time>2013-09-01T09:56:40Z</time>
      </trkpt>
      <trkpt lat="49.16654" lon="2.18356">
        <ele>159.39999389648</ele>
        <time>2013-09-01T09:57:01Z</time>
      </trkpt>
      <trkpt lat="49.16632" lon="2.18356">
        <ele>159</ele>
        <time>2013-09-01T09:57:22Z</time>
      </trkpt>
      <trkpt lat="49.16608" lon="2.18361">
        <ele>158.80000305176</ele>
        <time>2013-09-01T09:57:45Z</time>
      </trkpt>
      <trkpt lat="49.16602" lon="2.18364">
        <ele>158.80000305176</ele>
        <time>2013-09-01T09:57:51Z</time>
      </trkpt>
      <trkpt lat="49.16581" lon="2.18366">
        <ele>158.39999389648</ele>
        <time>2013-09-01T09:58:12Z</time>
      </trkpt>
      <trkpt lat="49.16559" lon="2.18368">
        <ele>157.80000305176</ele>
        <time>2013-09-01T09:58:31Z</time>
      </trkpt>
      <trkpt lat="49.16539" lon="2.18368">
        <ele>157</ele>
        <time>2013-09-01T09:58:50Z</time>
      </trkpt>
      <trkpt lat="49.16518" lon="2.18366">
        <ele>156.19999694824</ele>
        <time>2013-09-01T09:59:09Z</time>
      </trkpt>
      <trkpt lat="49.16497" lon="2.18363">
        <ele>155.19999694824</ele>
        <time>2013-09-01T09:59:30Z</time>
      </trkpt>
      <trkpt lat="49.16498" lon="2.18364">
        <ele>155.39999389648</ele>
        <time>2013-09-01T09:59:45Z</time>
      </trkpt>
      <trkpt lat="49.16483" lon="2.1836">
        <ele>154.80000305176</ele>
        <time>2013-09-01T10:00:06Z</time>
      </trkpt>
      <trkpt lat="49.16466" lon="2.18357">
        <ele>154.39999389648</ele>
        <time>2013-09-01T10:00:22Z</time>
      </trkpt>
      <trkpt lat="49.16457" lon="2.18358">
        <ele>154.19999694824</ele>
        <time>2013-09-01T10:00:37Z</time>
      </trkpt>
      <trkpt lat="49.16436" lon="2.18357">
        <ele>153.60000610352</ele>
        <time>2013-09-01T10:00:55Z</time>
      </trkpt>
      <trkpt lat="49.16417" lon="2.18356">
        <ele>153.19999694824</ele>
        <time>2013-09-01T10:01:15Z</time>
      </trkpt>
      <trkpt lat="49.16399" lon="2.1835">
        <ele>152.60000610352</ele>
        <time>2013-09-01T10:01:34Z</time>
      </trkpt>
      <trkpt lat="49.16396" lon="2.18341">
        <ele>152.39999389648</ele>
        <time>2013-09-01T10:01:52Z</time>
      </trkpt>
      <trkpt lat="49.16394" lon="2.18341">
        <ele>152.39999389648</ele>
        <time>2013-09-01T10:01:54Z</time>
      </trkpt>
      <trkpt lat="49.16388" lon="2.18336">
        <ele>152.19999694824</ele>
        <time>2013-09-01T10:02:13Z</time>
      </trkpt>
      <trkpt lat="49.1638" lon="2.18326">
        <ele>152</ele>
        <time>2013-09-01T10:02:32Z</time>
      </trkpt>
      <trkpt lat="49.16366" lon="2.18324">
        <ele>151.60000610352</ele>
        <time>2013-09-01T10:02:50Z</time>
      </trkpt>
      <trkpt lat="49.1634" lon="2.18321">
        <ele>151.19999694824</ele>
        <time>2013-09-01T10:03:09Z</time>
      </trkpt>
      <trkpt lat="49.16326" lon="2.18332">
        <ele>150.80000305176</ele>
        <time>2013-09-01T10:03:31Z</time>
      </trkpt>
      <trkpt lat="49.16324" lon="2.18329">
        <ele>150.80000305176</ele>
        <time>2013-09-01T10:03:44Z</time>
      </trkpt>
      <trkpt lat="49.16323" lon="2.18323">
        <ele>150.80000305176</ele>
        <time>2013-09-01T10:03:57Z</time>
      </trkpt>
      <trkpt lat="49.16315" lon="2.18321">
        <ele>150.60000610352</ele>
        <time>2013-09-01T10:04:17Z</time>
      </trkpt>
      <trkpt lat="49.16311" lon="2.18322">
        <ele>150.60000610352</ele>
        <time>2013-09-01T10:04:31Z</time>
      </trkpt>
      <trkpt lat="49.16313" lon="2.18325">
        <ele>150.60000610352</ele>
        <time>2013-09-01T10:05:04Z</time>
      </trkpt>
      <trkpt lat="49.16309" lon="2.18325">
        <ele>150.39999389648</ele>
        <time>2013-09-01T10:05:31Z</time>
      </trkpt>
      <trkpt lat="49.16311" lon="2.18325">
        <ele>150.39999389648</ele>
        <time>2013-09-01T10:05:51Z</time>
      </trkpt>
      <trkpt lat="49.16303" lon="2.18319">
        <ele>150.39999389648</ele>
        <time>2013-09-01T10:06:10Z</time>
      </trkpt>
      <trkpt lat="49.16289" lon="2.1832">
        <ele>150</ele>
        <time>2013-09-01T10:06:24Z</time>
      </trkpt>
      <trkpt lat="49.16276" lon="2.1832">
        <ele>149.80000305176</ele>
        <time>2013-09-01T10:06:39Z</time>
      </trkpt>
      <trkpt lat="49.16265" lon="2.18314">
        <ele>149.60000610352</ele>
        <time>2013-09-01T10:06:54Z</time>
      </trkpt>
      <trkpt lat="49.16257" lon="2.18315">
        <ele>149.39999389648</ele>
        <time>2013-09-01T10:07:00Z</time>
      </trkpt>
      <trkpt lat="49.16223" lon="2.18327">
        <ele>146.80000305176</ele>
        <time>2013-09-01T10:07:25Z</time>
      </trkpt>
      <trkpt lat="49.16208" lon="2.18337">
        <ele>145.39999389648</ele>
        <time>2013-09-01T10:07:44Z</time>
      </trkpt>
      <trkpt lat="49.16195" lon="2.1834">
        <ele>144.19999694824</ele>
        <time>2013-09-01T10:08:08Z</time>
      </trkpt>
      <trkpt lat="49.1618" lon="2.18355">
        <ele>142.80000305176</ele>
        <time>2013-09-01T10:08:26Z</time>
      </trkpt>
      <trkpt lat="49.16159" lon="2.18361">
        <ele>140.80000305176</ele>
        <time>2013-09-01T10:08:45Z</time>
      </trkpt>
      <trkpt lat="49.1614" lon="2.18363">
        <ele>139</ele>
        <time>2013-09-01T10:09:07Z</time>
      </trkpt>
      <trkpt lat="49.16124" lon="2.18362">
        <ele>137.39999389648</ele>
        <time>2013-09-01T10:09:25Z</time>
      </trkpt>
      <trkpt lat="49.16095" lon="2.18359">
        <ele>134.80000305176</ele>
        <time>2013-09-01T10:09:47Z</time>
      </trkpt>
      <trkpt lat="49.1608" lon="2.18354">
        <ele>133.60000610352</ele>
        <time>2013-09-01T10:10:08Z</time>
      </trkpt>
      <trkpt lat="49.16086" lon="2.18361">
        <ele>133.80000305176</ele>
        <time>2013-09-01T10:10:23Z</time>
      </trkpt>
      <trkpt lat="49.16094" lon="2.18371">
        <ele>134.19999694824</ele>
        <time>2013-09-01T10:10:33Z</time>
      </trkpt>
      <trkpt lat="49.16099" lon="2.18378">
        <ele>134.39999389648</ele>
        <time>2013-09-01T10:10:39Z</time>
      </trkpt>
      <trkpt lat="49.16114" lon="2.18401">
        <ele>135.19999694824</ele>
        <time>2013-09-01T10:10:58Z</time>
      </trkpt>
      <trkpt lat="49.16125" lon="2.18421">
        <ele>135.80000305176</ele>
        <time>2013-09-01T10:11:16Z</time>
      </trkpt>
      <trkpt lat="49.16141" lon="2.18448">
        <ele>137.39999389648</ele>
        <time>2013-09-01T10:11:37Z</time>
      </trkpt>
      <trkpt lat="49.16155" lon="2.18468">
        <ele>138.60000610352</ele>
        <time>2013-09-01T10:11:56Z</time>
      </trkpt>
      <trkpt lat="49.16173" lon="2.18495">
        <ele>139.80000305176</ele>
        <time>2013-09-01T10:12:17Z</time>
      </trkpt>
      <trkpt lat="49.16193" lon="2.18523">
        <ele>141.60000610352</ele>
        <time>2013-09-01T10:12:39Z</time>
      </trkpt>
      <trkpt lat="49.16215" lon="2.18551">
        <ele>142.60000610352</ele>
        <time>2013-09-01T10:13:03Z</time>
      </trkpt>
      <trkpt lat="49.16232" lon="2.18578">
        <ele>142.39999389648</ele>
        <time>2013-09-01T10:13:23Z</time>
      </trkpt>
      <trkpt lat="49.16246" lon="2.18594">
        <ele>143.60000610352</ele>
        <time>2013-09-01T10:13:41Z</time>
      </trkpt>
      <trkpt lat="49.16257" lon="2.18605">
        <ele>145</ele>
        <time>2013-09-01T10:13:52Z</time>
      </trkpt>
      <trkpt lat="49.1628" lon="2.18625">
        <ele>147</ele>
        <time>2013-09-01T10:14:13Z</time>
      </trkpt>
      <trkpt lat="49.163" lon="2.18649">
        <ele>148.19999694824</ele>
        <time>2013-09-01T10:14:36Z</time>
      </trkpt>
      <trkpt lat="49.16324" lon="2.18684">
        <ele>150.19999694824</ele>
        <time>2013-09-01T10:15:06Z</time>
      </trkpt>
      <trkpt lat="49.16346" lon="2.18722">
        <ele>154.19999694824</ele>
        <time>2013-09-01T10:15:34Z</time>
      </trkpt>
      <trkpt lat="49.16368" lon="2.18749">
        <ele>155.39999389648</ele>
        <time>2013-09-01T10:16:00Z</time>
      </trkpt>
      <trkpt lat="49.1639" lon="2.18777">
        <ele>155.60000610352</ele>
        <time>2013-09-01T10:16:26Z</time>
      </trkpt>
      <trkpt lat="49.16403" lon="2.18804">
        <ele>156.39999389648</ele>
        <time>2013-09-01T10:16:51Z</time>
      </trkpt>
      <trkpt lat="49.16428" lon="2.18829">
        <ele>156.60000610352</ele>
        <time>2013-09-01T10:17:15Z</time>
      </trkpt>
      <trkpt lat="49.16445" lon="2.18865">
        <ele>158.39999389648</ele>
        <time>2013-09-01T10:17:41Z</time>
      </trkpt>
      <trkpt lat="49.16451" lon="2.18883">
        <ele>159.19999694824</ele>
        <time>2013-09-01T10:17:59Z</time>
      </trkpt>
      <trkpt lat="49.1646" lon="2.18907">
        <ele>159.80000305176</ele>
        <time>2013-09-01T10:18:19Z</time>
      </trkpt>
      <trkpt lat="49.16463" lon="2.18943">
        <ele>160.60000610352</ele>
        <time>2013-09-01T10:18:40Z</time>
      </trkpt>
      <trkpt lat="49.16479" lon="2.18959">
        <ele>159.39999389648</ele>
        <time>2013-09-01T10:19:03Z</time>
      </trkpt>
      <trkpt lat="49.16486" lon="2.18959">
        <ele>158.80000305176</ele>
        <time>2013-09-01T10:19:23Z</time>
      </trkpt>
      <trkpt lat="49.1649" lon="2.18952">
        <ele>158.19999694824</ele>
        <time>2013-09-01T10:19:48Z</time>
      </trkpt>
      <trkpt lat="49.16497" lon="2.18955">
        <ele>157.60000610352</ele>
        <time>2013-09-01T10:20:08Z</time>
      </trkpt>
      <trkpt lat="49.16497" lon="2.18951">
        <ele>157.60000610352</ele>
        <time>2013-09-01T10:20:24Z</time>
      </trkpt>
      <trkpt lat="49.16508" lon="2.18942">
        <ele>157.60000610352</ele>
        <time>2013-09-01T10:20:39Z</time>
      </trkpt>
      <trkpt lat="49.16517" lon="2.18935">
        <ele>157.80000305176</ele>
        <time>2013-09-01T10:20:55Z</time>
      </trkpt>
      <trkpt lat="49.16531" lon="2.18927">
        <ele>158.19999694824</ele>
        <time>2013-09-01T10:21:13Z</time>
      </trkpt>
      <trkpt lat="49.16542" lon="2.18921">
        <ele>158.60000610352</ele>
        <time>2013-09-01T10:21:29Z</time>
      </trkpt>
      <trkpt lat="49.16547" lon="2.18917">
        <ele>158.60000610352</ele>
        <time>2013-09-01T10:21:41Z</time>
      </trkpt>
      <trkpt lat="49.16545" lon="2.18918">
        <ele>158.60000610352</ele>
        <time>2013-09-01T10:21:44Z</time>
      </trkpt>
      <trkpt lat="49.16539" lon="2.18924">
        <ele>158.39999389648</ele>
        <time>2013-09-01T10:22:04Z</time>
      </trkpt>
      <trkpt lat="49.1654" lon="2.18922">
        <ele>158.39999389648</ele>
        <time>2013-09-01T10:22:25Z</time>
      </trkpt>
      <trkpt lat="49.16542" lon="2.18925">
        <ele>158.60000610352</ele>
        <time>2013-09-01T10:22:47Z</time>
      </trkpt>
      <trkpt lat="49.16541" lon="2.18922">
        <ele>158.60000610352</ele>
        <time>2013-09-01T10:23:03Z</time>
      </trkpt>
      <trkpt lat="49.16538" lon="2.18932">
        <ele>158.60000610352</ele>
        <time>2013-09-01T10:23:12Z</time>
      </trkpt>
      <trkpt lat="49.16541" lon="2.18936">
        <ele>158.80000305176</ele>
        <time>2013-09-01T10:23:16Z</time>
      </trkpt>
      <trkpt lat="49.16546" lon="2.18942">
        <ele>159.19999694824</ele>
        <time>2013-09-01T10:23:28Z</time>
      </trkpt>
      <trkpt lat="49.16558" lon="2.18961">
        <ele>160.19999694824</ele>
        <time>2013-09-01T10:23:47Z</time>
      </trkpt>
      <trkpt lat="49.16569" lon="2.18981">
        <ele>161.39999389648</ele>
        <time>2013-09-01T10:24:09Z</time>
      </trkpt>
      <trkpt lat="49.16586" lon="2.18993">
        <ele>163</ele>
        <time>2013-09-01T10:24:35Z</time>
      </trkpt>
      <trkpt lat="49.16588" lon="2.18996">
        <ele>163.19999694824</ele>
        <time>2013-09-01T10:24:49Z</time>
      </trkpt>
      <trkpt lat="49.16597" lon="2.18997">
        <ele>164</ele>
        <time>2013-09-01T10:25:13Z</time>
      </trkpt>
      <trkpt lat="49.16598" lon="2.18997">
        <ele>164.19999694824</ele>
        <time>2013-09-01T10:25:35Z</time>
      </trkpt>
      <trkpt lat="49.1658" lon="2.18999">
        <ele>162.60000610352</ele>
        <time>2013-09-01T10:25:51Z</time>
      </trkpt>
      <trkpt lat="49.1658" lon="2.19">
        <ele>162.60000610352</ele>
        <time>2013-09-01T10:26:07Z</time>
      </trkpt>
      <trkpt lat="49.16579" lon="2.18999">
        <ele>162.60000610352</ele>
        <time>2013-09-01T10:26:19Z</time>
      </trkpt>
      <trkpt lat="49.16582" lon="2.18999">
        <ele>162.80000305176</ele>
        <time>2013-09-01T10:26:36Z</time>
      </trkpt>
      <trkpt lat="49.16579" lon="2.19001">
        <ele>162.60000610352</ele>
        <time>2013-09-01T10:26:51Z</time>
      </trkpt>
      <trkpt lat="49.16579" lon="2.19001">
        <ele>162.60000610352</ele>
        <time>2013-09-01T10:27:12Z</time>
      </trkpt>
      <trkpt lat="49.16579" lon="2.19001">
        <ele>162.60000610352</ele>
        <time>2013-09-01T10:27:37Z</time>
      </trkpt>
      <trkpt lat="49.16578" lon="2.19001">
        <ele>162.60000610352</ele>
        <time>2013-09-01T10:27:56Z</time>
      </trkpt>
      <trkpt lat="49.1658" lon="2.19006">
        <ele>162.80000305176</ele>
        <time>2013-09-01T10:28:19Z</time>
      </trkpt>
      <trkpt lat="49.16583" lon="2.19004">
        <ele>163</ele>
        <time>2013-09-01T10:28:39Z</time>
      </trkpt>
      <trkpt lat="49.16585" lon="2.19004">
        <ele>163.19999694824</ele>
        <time>2013-09-01T10:28:51Z</time>
      </trkpt>
      <trkpt lat="49.16582" lon="2.19005">
        <ele>163</ele>
        <time>2013-09-01T10:29:07Z</time>
      </trkpt>
      <trkpt lat="49.16582" lon="2.19006">
        <ele>163</ele>
        <time>2013-09-01T10:29:32Z</time>
      </trkpt>
      <trkpt lat="49.16586" lon="2.19003">
        <ele>163.19999694824</ele>
        <time>2013-09-01T10:30:02Z</time>
      </trkpt>
      <trkpt lat="49.16586" lon="2.19003">
        <ele>163.19999694824</ele>
        <time>2013-09-01T10:30:25Z</time>
      </trkpt>
      <trkpt lat="49.16583" lon="2.19003">
        <ele>163</ele>
        <time>2013-09-01T10:30:46Z</time>
      </trkpt>
      <trkpt lat="49.16582" lon="2.19005">
        <ele>163</ele>
        <time>2013-09-01T10:31:03Z</time>
      </trkpt>
      <trkpt lat="49.16582" lon="2.19004">
        <ele>163</ele>
        <time>2013-09-01T10:31:21Z</time>
      </trkpt>
      <trkpt lat="49.16581" lon="2.19004">
        <ele>162.80000305176</ele>
        <time>2013-09-01T10:31:45Z</time>
      </trkpt>
      <trkpt lat="49.16583" lon="2.19005">
        <ele>163</ele>
        <time>2013-09-01T10:32:04Z</time>
      </trkpt>
      <trkpt lat="49.16587" lon="2.19008">
        <ele>163.39999389648</ele>
        <time>2013-09-01T10:32:35Z</time>
      </trkpt>
      <trkpt lat="49.16587" lon="2.19005">
        <ele>163.39999389648</ele>
        <time>2013-09-01T10:32:58Z</time>
      </trkpt>
      <trkpt lat="49.16586" lon="2.19005">
        <ele>163.19999694824</ele>
        <time>2013-09-01T10:33:10Z</time>
      </trkpt>
      <trkpt lat="49.16583" lon="2.19005">
        <ele>163</ele>
        <time>2013-09-01T10:33:25Z</time>
      </trkpt>
      <trkpt lat="49.16587" lon="2.19004">
        <ele>163.39999389648</ele>
        <time>2013-09-01T10:33:52Z</time>
      </trkpt>
      <trkpt lat="49.16587" lon="2.19003">
        <ele>163.39999389648</ele>
        <time>2013-09-01T10:34:09Z</time>
      </trkpt>
      <trkpt lat="49.16588" lon="2.19002">
        <ele>163.39999389648</ele>
        <time>2013-09-01T10:34:31Z</time>
      </trkpt>
      <trkpt lat="49.16585" lon="2.19004">
        <ele>163.19999694824</ele>
        <time>2013-09-01T10:34:53Z</time>
      </trkpt>
      <trkpt lat="49.16584" lon="2.19004">
        <ele>163</ele>
        <time>2013-09-01T10:35:19Z</time>
      </trkpt>
      <trkpt lat="49.16584" lon="2.19003">
        <ele>163</ele>
        <time>2013-09-01T10:35:44Z</time>
      </trkpt>
      <trkpt lat="49.16585" lon="2.19004">
        <ele>163.19999694824</ele>
        <time>2013-09-01T10:36:08Z</time>
      </trkpt>
      <trkpt lat="49.16584" lon="2.19004">
        <ele>163</ele>
        <time>2013-09-01T10:36:29Z</time>
      </trkpt>
      <trkpt lat="49.16582" lon="2.19003">
        <ele>162.80000305176</ele>
        <time>2013-09-01T10:36:52Z</time>
      </trkpt>
      <trkpt lat="49.16583" lon="2.19002">
        <ele>162.80000305176</ele>
        <time>2013-09-01T10:37:20Z</time>
      </trkpt>
      <trkpt lat="49.16587" lon="2.19002">
        <ele>163.39999389648</ele>
        <time>2013-09-01T10:37:47Z</time>
      </trkpt>
      <trkpt lat="49.16581" lon="2.19003">
        <ele>162.80000305176</ele>
        <time>2013-09-01T10:38:12Z</time>
      </trkpt>
      <trkpt lat="49.16577" lon="2.19003">
        <ele>162.60000610352</ele>
        <time>2013-09-01T10:38:31Z</time>
      </trkpt>
      <trkpt lat="49.16582" lon="2.19001">
        <ele>162.80000305176</ele>
        <time>2013-09-01T10:38:50Z</time>
      </trkpt>
      <trkpt lat="49.16582" lon="2.19003">
        <ele>163</ele>
        <time>2013-09-01T10:39:20Z</time>
      </trkpt>
      <trkpt lat="49.16583" lon="2.19006">
        <ele>163</ele>
        <time>2013-09-01T10:39:43Z</time>
      </trkpt>
      <trkpt lat="49.16582" lon="2.19003">
        <ele>162.80000305176</ele>
        <time>2013-09-01T10:40:15Z</time>
      </trkpt>
      <trkpt lat="49.16582" lon="2.19">
        <ele>162.80000305176</ele>
        <time>2013-09-01T10:40:38Z</time>
      </trkpt>
      <trkpt lat="49.16585" lon="2.19003">
        <ele>163.19999694824</ele>
        <time>2013-09-01T10:41:14Z</time>
      </trkpt>
      <trkpt lat="49.16581" lon="2.19003">
        <ele>162.80000305176</ele>
        <time>2013-09-01T10:41:46Z</time>
      </trkpt>
      <trkpt lat="49.16581" lon="2.19002">
        <ele>162.80000305176</ele>
        <time>2013-09-01T10:42:14Z</time>
      </trkpt>
      <trkpt lat="49.16581" lon="2.19004">
        <ele>162.80000305176</ele>
        <time>2013-09-01T10:42:40Z</time>
      </trkpt>
      <trkpt lat="49.16578" lon="2.19002">
        <ele>162.60000610352</ele>
        <time>2013-09-01T10:43:17Z</time>
      </trkpt>
      <trkpt lat="49.16579" lon="2.19004">
        <ele>162.80000305176</ele>
        <time>2013-09-01T10:43:35Z</time>
      </trkpt>
      <trkpt lat="49.16583" lon="2.19005">
        <ele>163</ele>
        <time>2013-09-01T10:44:01Z</time>
      </trkpt>
      <trkpt lat="49.16578" lon="2.19005">
        <ele>162.80000305176</ele>
        <time>2013-09-01T10:44:21Z</time>
      </trkpt>
      <trkpt lat="49.16576" lon="2.19006">
        <ele>162.60000610352</ele>
        <time>2013-09-01T10:44:26Z</time>
      </trkpt>
      <trkpt lat="49.16573" lon="2.19005">
        <ele>162.39999389648</ele>
        <time>2013-09-01T10:44:39Z</time>
      </trkpt>
      <trkpt lat="49.16582" lon="2.19005">
        <ele>163</ele>
        <time>2013-09-01T10:45:09Z</time>
      </trkpt>
      <trkpt lat="49.16581" lon="2.19004">
        <ele>162.80000305176</ele>
        <time>2013-09-01T10:45:35Z</time>
      </trkpt>
      <trkpt lat="49.16576" lon="2.19001">
        <ele>162.39999389648</ele>
        <time>2013-09-01T10:46:02Z</time>
      </trkpt>
      <trkpt lat="49.16577" lon="2.19005">
        <ele>162.60000610352</ele>
        <time>2013-09-01T10:46:28Z</time>
      </trkpt>
      <trkpt lat="49.16578" lon="2.19005">
        <ele>162.80000305176</ele>
        <time>2013-09-01T10:46:53Z</time>
      </trkpt>
      <trkpt lat="49.16583" lon="2.19007">
        <ele>163</ele>
        <time>2013-09-01T10:47:21Z</time>
      </trkpt>
      <trkpt lat="49.16578" lon="2.19007">
        <ele>162.80000305176</ele>
        <time>2013-09-01T10:47:43Z</time>
      </trkpt>
      <trkpt lat="49.16576" lon="2.19005">
        <ele>162.60000610352</ele>
        <time>2013-09-01T10:48:04Z</time>
      </trkpt>
      <trkpt lat="49.16576" lon="2.19003">
        <ele>162.60000610352</ele>
        <time>2013-09-01T10:48:19Z</time>
      </trkpt>
      <trkpt lat="49.16579" lon="2.19003">
        <ele>162.80000305176</ele>
        <time>2013-09-01T10:48:36Z</time>
      </trkpt>
      <trkpt lat="49.1658" lon="2.19003">
        <ele>162.80000305176</ele>
        <time>2013-09-01T10:48:56Z</time>
      </trkpt>
      <trkpt lat="49.16576" lon="2.19004">
        <ele>162.60000610352</ele>
        <time>2013-09-01T10:49:15Z</time>
      </trkpt>
      <trkpt lat="49.1658" lon="2.19001">
        <ele>162.80000305176</ele>
        <time>2013-09-01T10:49:33Z</time>
      </trkpt>
      <trkpt lat="49.1658" lon="2.18999">
        <ele>162.60000610352</ele>
        <time>2013-09-01T10:49:53Z</time>
      </trkpt>
      <trkpt lat="49.16579" lon="2.19001">
        <ele>162.60000610352</ele>
        <time>2013-09-01T10:50:14Z</time>
      </trkpt>
      <trkpt lat="49.16583" lon="2.19002">
        <ele>163</ele>
        <time>2013-09-01T10:50:33Z</time>
      </trkpt>
      <trkpt lat="49.16584" lon="2.19004">
        <ele>163</ele>
        <time>2013-09-01T10:50:55Z</time>
      </trkpt>
      <trkpt lat="49.16583" lon="2.19006">
        <ele>163</ele>
        <time>2013-09-01T10:51:17Z</time>
      </trkpt>
      <trkpt lat="49.1658" lon="2.19007">
        <ele>162.80000305176</ele>
        <time>2013-09-01T10:51:36Z</time>
      </trkpt>
      <trkpt lat="49.16584" lon="2.19005">
        <ele>163</ele>
        <time>2013-09-01T10:51:59Z</time>
      </trkpt>
      <trkpt lat="49.16582" lon="2.19003">
        <ele>163</ele>
        <time>2013-09-01T10:52:20Z</time>
      </trkpt>
      <trkpt lat="49.16581" lon="2.19003">
        <ele>162.80000305176</ele>
        <time>2013-09-01T10:52:38Z</time>
      </trkpt>
      <trkpt lat="49.16585" lon="2.19006">
        <ele>163.19999694824</ele>
        <time>2013-09-01T10:53:02Z</time>
      </trkpt>
      <trkpt lat="49.16582" lon="2.19004">
        <ele>163</ele>
        <time>2013-09-01T10:53:31Z</time>
      </trkpt>
      <trkpt lat="49.16581" lon="2.19005">
        <ele>163</ele>
        <time>2013-09-01T10:53:48Z</time>
      </trkpt>
      <trkpt lat="49.16578" lon="2.19005">
        <ele>162.80000305176</ele>
        <time>2013-09-01T10:54:08Z</time>
      </trkpt>
      <trkpt lat="49.16577" lon="2.19">
        <ele>162.60000610352</ele>
        <time>2013-09-01T10:54:24Z</time>
      </trkpt>
      <trkpt lat="49.16577" lon="2.19003">
        <ele>162.60000610352</ele>
        <time>2013-09-01T10:54:43Z</time>
      </trkpt>
      <trkpt lat="49.16579" lon="2.19004">
        <ele>162.80000305176</ele>
        <time>2013-09-01T10:55:07Z</time>
      </trkpt>
      <trkpt lat="49.16576" lon="2.19004">
        <ele>162.60000610352</ele>
        <time>2013-09-01T10:55:30Z</time>
      </trkpt>
      <trkpt lat="49.16576" lon="2.19003">
        <ele>162.60000610352</ele>
        <time>2013-09-01T10:55:52Z</time>
      </trkpt>
      <trkpt lat="49.16576" lon="2.19003">
        <ele>162.60000610352</ele>
        <time>2013-09-01T10:56:15Z</time>
      </trkpt>
      <trkpt lat="49.16576" lon="2.19001">
        <ele>162.60000610352</ele>
        <time>2013-09-01T10:56:33Z</time>
      </trkpt>
      <trkpt lat="49.16577" lon="2.19001">
        <ele>162.60000610352</ele>
        <time>2013-09-01T10:57:05Z</time>
      </trkpt>
      <trkpt lat="49.16577" lon="2.19001">
        <ele>162.60000610352</ele>
        <time>2013-09-01T10:57:34Z</time>
      </trkpt>
      <trkpt lat="49.16575" lon="2.19">
        <ele>162.39999389648</ele>
        <time>2013-09-01T10:57:55Z</time>
      </trkpt>
      <trkpt lat="49.16578" lon="2.19">
        <ele>162.60000610352</ele>
        <time>2013-09-01T10:58:28Z</time>
      </trkpt>
      <trkpt lat="49.16577" lon="2.18999">
        <ele>162.60000610352</ele>
        <time>2013-09-01T10:58:44Z</time>
      </trkpt>
      <trkpt lat="49.16577" lon="2.19001">
        <ele>162.60000610352</ele>
        <time>2013-09-01T10:59:10Z</time>
      </trkpt>
      <trkpt lat="49.1658" lon="2.19001">
        <ele>162.80000305176</ele>
        <time>2013-09-01T10:59:31Z</time>
      </trkpt>
      <trkpt lat="49.16577" lon="2.19001">
        <ele>162.60000610352</ele>
        <time>2013-09-01T11:00:02Z</time>
      </trkpt>
      <trkpt lat="49.16572" lon="2.19004">
        <ele>162.19999694824</ele>
        <time>2013-09-01T11:00:31Z</time>
      </trkpt>
      <trkpt lat="49.16574" lon="2.19002">
        <ele>162.39999389648</ele>
        <time>2013-09-01T11:01:03Z</time>
      </trkpt>
      <trkpt lat="49.16572" lon="2.19002">
        <ele>162.19999694824</ele>
        <time>2013-09-01T11:01:26Z</time>
      </trkpt>
      <trkpt lat="49.16574" lon="2.19002">
        <ele>162.39999389648</ele>
        <time>2013-09-01T11:01:49Z</time>
      </trkpt>
      <trkpt lat="49.16574" lon="2.19004">
        <ele>162.39999389648</ele>
        <time>2013-09-01T11:02:15Z</time>
      </trkpt>
      <trkpt lat="49.16575" lon="2.19004">
        <ele>162.60000610352</ele>
        <time>2013-09-01T11:02:40Z</time>
      </trkpt>
      <trkpt lat="49.16577" lon="2.19002">
        <ele>162.60000610352</ele>
        <time>2013-09-01T11:03:04Z</time>
      </trkpt>
      <trkpt lat="49.16579" lon="2.18999">
        <ele>162.60000610352</ele>
        <time>2013-09-01T11:03:31Z</time>
      </trkpt>
      <trkpt lat="49.16579" lon="2.18999">
        <ele>162.60000610352</ele>
        <time>2013-09-01T11:04:00Z</time>
      </trkpt>
      <trkpt lat="49.16581" lon="2.19">
        <ele>162.80000305176</ele>
        <time>2013-09-01T11:04:38Z</time>
      </trkpt>
      <trkpt lat="49.1658" lon="2.19">
        <ele>162.60000610352</ele>
        <time>2013-09-01T11:05:12Z</time>
      </trkpt>
      <trkpt lat="49.16579" lon="2.19001">
        <ele>162.60000610352</ele>
        <time>2013-09-01T11:05:45Z</time>
      </trkpt>
      <trkpt lat="49.16578" lon="2.18999">
        <ele>162.60000610352</ele>
        <time>2013-09-01T11:06:14Z</time>
      </trkpt>
      <trkpt lat="49.1658" lon="2.18999">
        <ele>162.60000610352</ele>
        <time>2013-09-01T11:06:39Z</time>
      </trkpt>
      <trkpt lat="49.1658" lon="2.19">
        <ele>162.60000610352</ele>
        <time>2013-09-01T11:06:54Z</time>
      </trkpt>
      <trkpt lat="49.16577" lon="2.18996">
        <ele>162.39999389648</ele>
        <time>2013-09-01T11:07:11Z</time>
      </trkpt>
      <trkpt lat="49.16578" lon="2.18994">
        <ele>162.39999389648</ele>
        <time>2013-09-01T11:07:28Z</time>
      </trkpt>
      <trkpt lat="49.16579" lon="2.18994">
        <ele>162.39999389648</ele>
        <time>2013-09-01T11:07:39Z</time>
      </trkpt>
      <trkpt lat="49.16577" lon="2.18994">
        <ele>162.39999389648</ele>
        <time>2013-09-01T11:07:50Z</time>
      </trkpt>
      <trkpt lat="49.16577" lon="2.18991">
        <ele>162.19999694824</ele>
        <time>2013-09-01T11:07:58Z</time>
      </trkpt>
      <trkpt lat="49.1657" lon="2.1898">
        <ele>161.39999389648</ele>
        <time>2013-09-01T11:08:07Z</time>
      </trkpt>
      <trkpt lat="49.16567" lon="2.18975">
        <ele>161.19999694824</ele>
        <time>2013-09-01T11:08:12Z</time>
      </trkpt>
      <trkpt lat="49.16566" lon="2.18972">
        <ele>161</ele>
        <time>2013-09-01T11:08:16Z</time>
      </trkpt>
      <trkpt lat="49.16558" lon="2.18961">
        <ele>160.19999694824</ele>
        <time>2013-09-01T11:08:30Z</time>
      </trkpt>
      <trkpt lat="49.16551" lon="2.18948">
        <ele>159.60000610352</ele>
        <time>2013-09-01T11:08:45Z</time>
      </trkpt>
      <trkpt lat="49.16545" lon="2.18939">
        <ele>159</ele>
        <time>2013-09-01T11:09:00Z</time>
      </trkpt>
      <trkpt lat="49.16539" lon="2.18933">
        <ele>158.60000610352</ele>
        <time>2013-09-01T11:09:12Z</time>
      </trkpt>
      <trkpt lat="49.1654" lon="2.18927">
        <ele>158.60000610352</ele>
        <time>2013-09-01T11:09:25Z</time>
      </trkpt>
      <trkpt lat="49.16532" lon="2.18932">
        <ele>158.39999389648</ele>
        <time>2013-09-01T11:09:40Z</time>
      </trkpt>
      <trkpt lat="49.16518" lon="2.18938">
        <ele>158</ele>
        <time>2013-09-01T11:09:56Z</time>
      </trkpt>
      <trkpt lat="49.16517" lon="2.1894">
        <ele>157.80000305176</ele>
        <time>2013-09-01T11:09:59Z</time>
      </trkpt>
      <trkpt lat="49.16509" lon="2.18947">
        <ele>157.60000610352</ele>
        <time>2013-09-01T11:10:11Z</time>
      </trkpt>
      <trkpt lat="49.16502" lon="2.18952">
        <ele>157.39999389648</ele>
        <time>2013-09-01T11:10:22Z</time>
      </trkpt>
      <trkpt lat="49.16488" lon="2.18959">
        <ele>158.60000610352</ele>
        <time>2013-09-01T11:10:39Z</time>
      </trkpt>
      <trkpt lat="49.16476" lon="2.18971">
        <ele>160</ele>
        <time>2013-09-01T11:10:55Z</time>
      </trkpt>
      <trkpt lat="49.16461" lon="2.18977">
        <ele>161.60000610352</ele>
        <time>2013-09-01T11:11:12Z</time>
      </trkpt>
      <trkpt lat="49.16449" lon="2.18969">
        <ele>162.60000610352</ele>
        <time>2013-09-01T11:11:29Z</time>
      </trkpt>
      <trkpt lat="49.16437" lon="2.18947">
        <ele>163.19999694824</ele>
        <time>2013-09-01T11:11:48Z</time>
      </trkpt>
      <trkpt lat="49.16429" lon="2.18959">
        <ele>164.19999694824</ele>
        <time>2013-09-01T11:12:06Z</time>
      </trkpt>
      <trkpt lat="49.16423" lon="2.18959">
        <ele>164.80000305176</ele>
        <time>2013-09-01T11:12:12Z</time>
      </trkpt>
      <trkpt lat="49.16404" lon="2.18961">
        <ele>165.60000610352</ele>
        <time>2013-09-01T11:12:32Z</time>
      </trkpt>
      <trkpt lat="49.16388" lon="2.18965">
        <ele>166</ele>
        <time>2013-09-01T11:12:51Z</time>
      </trkpt>
      <trkpt lat="49.16373" lon="2.18966">
        <ele>166.19999694824</ele>
        <time>2013-09-01T11:13:10Z</time>
      </trkpt>
      <trkpt lat="49.16354" lon="2.18969">
        <ele>166.60000610352</ele>
        <time>2013-09-01T11:13:31Z</time>
      </trkpt>
      <trkpt lat="49.16338" lon="2.18969">
        <ele>166.80000305176</ele>
        <time>2013-09-01T11:13:50Z</time>
      </trkpt>
      <trkpt lat="49.16322" lon="2.18969">
        <ele>166.60000610352</ele>
        <time>2013-09-01T11:14:08Z</time>
      </trkpt>
      <trkpt lat="49.16322" lon="2.18968">
        <ele>166.60000610352</ele>
        <time>2013-09-01T11:14:25Z</time>
      </trkpt>
      <trkpt lat="49.16321" lon="2.18966">
        <ele>166.60000610352</ele>
        <time>2013-09-01T11:14:49Z</time>
      </trkpt>
      <trkpt lat="49.16307" lon="2.18963">
        <ele>166.19999694824</ele>
        <time>2013-09-01T11:15:05Z</time>
      </trkpt>
      <trkpt lat="49.16286" lon="2.1897">
        <ele>166.19999694824</ele>
        <time>2013-09-01T11:15:25Z</time>
      </trkpt>
      <trkpt lat="49.16267" lon="2.18967">
        <ele>166</ele>
        <time>2013-09-01T11:15:41Z</time>
      </trkpt>
      <trkpt lat="49.16253" lon="2.1897">
        <ele>165.80000305176</ele>
        <time>2013-09-01T11:16:00Z</time>
      </trkpt>
      <trkpt lat="49.16237" lon="2.18966">
        <ele>165.19999694824</ele>
        <time>2013-09-01T11:16:18Z</time>
      </trkpt>
      <trkpt lat="49.16223" lon="2.18969">
        <ele>164.80000305176</ele>
        <time>2013-09-01T11:16:36Z</time>
      </trkpt>
      <trkpt lat="49.16206" lon="2.18966">
        <ele>163.80000305176</ele>
        <time>2013-09-01T11:16:55Z</time>
      </trkpt>
      <trkpt lat="49.16184" lon="2.18967">
        <ele>163</ele>
        <time>2013-09-01T11:17:15Z</time>
      </trkpt>
      <trkpt lat="49.16169" lon="2.1898">
        <ele>163</ele>
        <time>2013-09-01T11:17:35Z</time>
      </trkpt>
      <trkpt lat="49.16156" lon="2.18982">
        <ele>162.39999389648</ele>
        <time>2013-09-01T11:17:51Z</time>
      </trkpt>
      <trkpt lat="49.16141" lon="2.18985">
        <ele>161.80000305176</ele>
        <time>2013-09-01T11:18:11Z</time>
      </trkpt>
      <trkpt lat="49.16122" lon="2.18991">
        <ele>161.19999694824</ele>
        <time>2013-09-01T11:18:30Z</time>
      </trkpt>
      <trkpt lat="49.16099" lon="2.19001">
        <ele>160.80000305176</ele>
        <time>2013-09-01T11:18:51Z</time>
      </trkpt>
      <trkpt lat="49.1608" lon="2.19013">
        <ele>160.39999389648</ele>
        <time>2013-09-01T11:19:11Z</time>
      </trkpt>
      <trkpt lat="49.16076" lon="2.19014">
        <ele>160.39999389648</ele>
        <time>2013-09-01T11:19:14Z</time>
      </trkpt>
      <trkpt lat="49.16057" lon="2.1902">
        <ele>160.39999389648</ele>
        <time>2013-09-01T11:19:33Z</time>
      </trkpt>
      <trkpt lat="49.16046" lon="2.19027">
        <ele>160.39999389648</ele>
        <time>2013-09-01T11:19:46Z</time>
      </trkpt>
      <trkpt lat="49.16029" lon="2.19033">
        <ele>160.39999389648</ele>
        <time>2013-09-01T11:20:04Z</time>
      </trkpt>
      <trkpt lat="49.16016" lon="2.19047">
        <ele>160.39999389648</ele>
        <time>2013-09-01T11:20:24Z</time>
      </trkpt>
      <trkpt lat="49.16004" lon="2.19051">
        <ele>160.19999694824</ele>
        <time>2013-09-01T11:20:41Z</time>
      </trkpt>
      <trkpt lat="49.15984" lon="2.1906">
        <ele>159.80000305176</ele>
        <time>2013-09-01T11:21:02Z</time>
      </trkpt>
      <trkpt lat="49.15965" lon="2.19063">
        <ele>159.39999389648</ele>
        <time>2013-09-01T11:21:18Z</time>
      </trkpt>
      <trkpt lat="49.15954" lon="2.19069">
        <ele>159.39999389648</ele>
        <time>2013-09-01T11:21:32Z</time>
      </trkpt>
      <trkpt lat="49.15933" lon="2.19078">
        <ele>159</ele>
        <time>2013-09-01T11:21:51Z</time>
      </trkpt>
      <trkpt lat="49.15912" lon="2.19088">
        <ele>158.60000610352</ele>
        <time>2013-09-01T11:22:09Z</time>
      </trkpt>
      <trkpt lat="49.15893" lon="2.19099">
        <ele>157.80000305176</ele>
        <time>2013-09-01T11:22:27Z</time>
      </trkpt>
      <trkpt lat="49.15874" lon="2.19106">
        <ele>156.80000305176</ele>
        <time>2013-09-01T11:22:43Z</time>
      </trkpt>
      <trkpt lat="49.15851" lon="2.19116">
        <ele>155.60000610352</ele>
        <time>2013-09-01T11:23:02Z</time>
      </trkpt>
      <trkpt lat="49.15849" lon="2.19117">
        <ele>155.60000610352</ele>
        <time>2013-09-01T11:23:05Z</time>
      </trkpt>
      <trkpt lat="49.15846" lon="2.19119">
        <ele>155.39999389648</ele>
        <time>2013-09-01T11:23:07Z</time>
      </trkpt>
      <trkpt lat="49.15827" lon="2.19127">
        <ele>154.80000305176</ele>
        <time>2013-09-01T11:23:24Z</time>
      </trkpt>
      <trkpt lat="49.15803" lon="2.19134">
        <ele>154.39999389648</ele>
        <time>2013-09-01T11:23:45Z</time>
      </trkpt>
      <trkpt lat="49.15785" lon="2.19145">
        <ele>154</ele>
        <time>2013-09-01T11:24:02Z</time>
      </trkpt>
      <trkpt lat="49.15769" lon="2.19156">
        <ele>153.60000610352</ele>
        <time>2013-09-01T11:24:19Z</time>
      </trkpt>
      <trkpt lat="49.15755" lon="2.19157">
        <ele>153</ele>
        <time>2013-09-01T11:24:30Z</time>
      </trkpt>
      <trkpt lat="49.1573" lon="2.19168">
        <ele>152.60000610352</ele>
        <time>2013-09-01T11:24:51Z</time>
      </trkpt>
      <trkpt lat="49.15712" lon="2.19178">
        <ele>152.19999694824</ele>
        <time>2013-09-01T11:25:11Z</time>
      </trkpt>
      <trkpt lat="49.1569" lon="2.19184">
        <ele>152</ele>
        <time>2013-09-01T11:25:33Z</time>
      </trkpt>
      <trkpt lat="49.15671" lon="2.19192">
        <ele>151.60000610352</ele>
        <time>2013-09-01T11:25:52Z</time>
      </trkpt>
      <trkpt lat="49.15651" lon="2.19201">
        <ele>151.60000610352</ele>
        <time>2013-09-01T11:26:11Z</time>
      </trkpt>
      <trkpt lat="49.15623" lon="2.19217">
        <ele>151.80000305176</ele>
        <time>2013-09-01T11:26:37Z</time>
      </trkpt>
      <trkpt lat="49.15599" lon="2.19219">
        <ele>152</ele>
        <time>2013-09-01T11:26:58Z</time>
      </trkpt>
      <trkpt lat="49.15581" lon="2.1923">
        <ele>152.19999694824</ele>
        <time>2013-09-01T11:27:18Z</time>
      </trkpt>
      <trkpt lat="49.15561" lon="2.19236">
        <ele>151.80000305176</ele>
        <time>2013-09-01T11:27:36Z</time>
      </trkpt>
      <trkpt lat="49.15532" lon="2.19253">
        <ele>151.19999694824</ele>
        <time>2013-09-01T11:28:01Z</time>
      </trkpt>
      <trkpt lat="49.15519" lon="2.1926">
        <ele>151.19999694824</ele>
        <time>2013-09-01T11:28:11Z</time>
      </trkpt>
      <trkpt lat="49.15493" lon="2.19272">
        <ele>151.39999389648</ele>
        <time>2013-09-01T11:28:32Z</time>
      </trkpt>
      <trkpt lat="49.1549" lon="2.19273">
        <ele>151.39999389648</ele>
        <time>2013-09-01T11:28:34Z</time>
      </trkpt>
      <trkpt lat="49.15462" lon="2.19284">
        <ele>152</ele>
        <time>2013-09-01T11:28:58Z</time>
      </trkpt>
      <trkpt lat="49.15445" lon="2.19295">
        <ele>152.39999389648</ele>
        <time>2013-09-01T11:29:17Z</time>
      </trkpt>
      <trkpt lat="49.15419" lon="2.19302">
        <ele>152.80000305176</ele>
        <time>2013-09-01T11:29:43Z</time>
      </trkpt>
      <trkpt lat="49.15386" lon="2.19313">
        <ele>151.39999389648</ele>
        <time>2013-09-01T11:30:06Z</time>
      </trkpt>
      <trkpt lat="49.15381" lon="2.19318">
        <ele>151.19999694824</ele>
        <time>2013-09-01T11:30:11Z</time>
      </trkpt>
      <trkpt lat="49.15352" lon="2.19334">
        <ele>149.80000305176</ele>
        <time>2013-09-01T11:30:38Z</time>
      </trkpt>
      <trkpt lat="49.15325" lon="2.1934">
        <ele>148.80000305176</ele>
        <time>2013-09-01T11:31:04Z</time>
      </trkpt>
      <trkpt lat="49.15297" lon="2.19355">
        <ele>148.19999694824</ele>
        <time>2013-09-01T11:31:27Z</time>
      </trkpt>
      <trkpt lat="49.15262" lon="2.19369">
        <ele>147.60000610352</ele>
        <time>2013-09-01T11:31:54Z</time>
      </trkpt>
      <trkpt lat="49.15239" lon="2.19382">
        <ele>147.19999694824</ele>
        <time>2013-09-01T11:32:18Z</time>
      </trkpt>
      <trkpt lat="49.1522" lon="2.19385">
        <ele>146.80000305176</ele>
        <time>2013-09-01T11:32:32Z</time>
      </trkpt>
      <trkpt lat="49.15198" lon="2.19398">
        <ele>146.39999389648</ele>
        <time>2013-09-01T11:32:50Z</time>
      </trkpt>
      <trkpt lat="49.15192" lon="2.19402">
        <ele>146.39999389648</ele>
        <time>2013-09-01T11:32:56Z</time>
      </trkpt>
      <trkpt lat="49.15173" lon="2.19411">
        <ele>146</ele>
        <time>2013-09-01T11:33:15Z</time>
      </trkpt>
      <trkpt lat="49.15163" lon="2.19419">
        <ele>145.80000305176</ele>
        <time>2013-09-01T11:33:32Z</time>
      </trkpt>
      <trkpt lat="49.1517" lon="2.19419">
        <ele>146</ele>
        <time>2013-09-01T11:33:58Z</time>
      </trkpt>
      <trkpt lat="49.15168" lon="2.19419">
        <ele>145.80000305176</ele>
        <time>2013-09-01T11:34:23Z</time>
      </trkpt>
      <trkpt lat="49.15162" lon="2.19419">
        <ele>146</ele>
        <time>2013-09-01T11:34:44Z</time>
      </trkpt>
      <trkpt lat="49.15163" lon="2.19417">
        <ele>146</ele>
        <time>2013-09-01T11:35:06Z</time>
      </trkpt>
      <trkpt lat="49.15162" lon="2.19408">
        <ele>145.80000305176</ele>
        <time>2013-09-01T11:35:21Z</time>
      </trkpt>
      <trkpt lat="49.15154" lon="2.1939">
        <ele>145.80000305176</ele>
        <time>2013-09-01T11:35:36Z</time>
      </trkpt>
      <trkpt lat="49.15146" lon="2.19372">
        <ele>145.80000305176</ele>
        <time>2013-09-01T11:35:55Z</time>
      </trkpt>
      <trkpt lat="49.15135" lon="2.19344">
        <ele>145.80000305176</ele>
        <time>2013-09-01T11:36:12Z</time>
      </trkpt>
      <trkpt lat="49.15125" lon="2.19321">
        <ele>145.80000305176</ele>
        <time>2013-09-01T11:36:31Z</time>
      </trkpt>
      <trkpt lat="49.15113" lon="2.1929">
        <ele>145.80000305176</ele>
        <time>2013-09-01T11:36:52Z</time>
      </trkpt>
      <trkpt lat="49.15107" lon="2.19269">
        <ele>145.80000305176</ele>
        <time>2013-09-01T11:37:05Z</time>
      </trkpt>
      <trkpt lat="49.15098" lon="2.19244">
        <ele>145.60000610352</ele>
        <time>2013-09-01T11:37:21Z</time>
      </trkpt>
      <trkpt lat="49.15087" lon="2.1922">
        <ele>144.80000305176</ele>
        <time>2013-09-01T11:37:41Z</time>
      </trkpt>
      <trkpt lat="49.15076" lon="2.19198">
        <ele>143.80000305176</ele>
        <time>2013-09-01T11:37:59Z</time>
      </trkpt>
      <trkpt lat="49.15068" lon="2.19189">
        <ele>143.19999694824</ele>
        <time>2013-09-01T11:38:18Z</time>
      </trkpt>
      <trkpt lat="49.15068" lon="2.19192">
        <ele>143.39999389648</ele>
        <time>2013-09-01T11:38:47Z</time>
      </trkpt>
      <trkpt lat="49.15065" lon="2.19197">
        <ele>143.39999389648</ele>
        <time>2013-09-01T11:39:10Z</time>
      </trkpt>
      <trkpt lat="49.15059" lon="2.19198">
        <ele>143.19999694824</ele>
        <time>2013-09-01T11:39:39Z</time>
      </trkpt>
      <trkpt lat="49.15046" lon="2.19207">
        <ele>143.19999694824</ele>
        <time>2013-09-01T11:39:55Z</time>
      </trkpt>
      <trkpt lat="49.15041" lon="2.19206">
        <ele>143</ele>
        <time>2013-09-01T11:40:00Z</time>
      </trkpt>
      <trkpt lat="49.15021" lon="2.19213">
        <ele>142.80000305176</ele>
        <time>2013-09-01T11:40:22Z</time>
      </trkpt>
      <trkpt lat="49.1502" lon="2.19213">
        <ele>142.60000610352</ele>
        <time>2013-09-01T11:40:24Z</time>
      </trkpt>
      <trkpt lat="49.15" lon="2.19221">
        <ele>142.39999389648</ele>
        <time>2013-09-01T11:40:41Z</time>
      </trkpt>
      <trkpt lat="49.14979" lon="2.19235">
        <ele>142.80000305176</ele>
        <time>2013-09-01T11:41:02Z</time>
      </trkpt>
      <trkpt lat="49.14963" lon="2.19242">
        <ele>142.60000610352</ele>
        <time>2013-09-01T11:41:21Z</time>
      </trkpt>
      <trkpt lat="49.14942" lon="2.19253">
        <ele>142.60000610352</ele>
        <time>2013-09-01T11:41:43Z</time>
      </trkpt>
      <trkpt lat="49.14916" lon="2.19266">
        <ele>142.19999694824</ele>
        <time>2013-09-01T11:42:06Z</time>
      </trkpt>
      <trkpt lat="49.14888" lon="2.19276">
        <ele>141.39999389648</ele>
        <time>2013-09-01T11:42:27Z</time>
      </trkpt>
      <trkpt lat="49.14875" lon="2.19281">
        <ele>141.19999694824</ele>
        <time>2013-09-01T11:42:43Z</time>
      </trkpt>
      <trkpt lat="49.14853" lon="2.19292">
        <ele>140.60000610352</ele>
        <time>2013-09-01T11:43:04Z</time>
      </trkpt>
      <trkpt lat="49.14833" lon="2.19295">
        <ele>140</ele>
        <time>2013-09-01T11:43:23Z</time>
      </trkpt>
      <trkpt lat="49.14832" lon="2.19306">
        <ele>140.19999694824</ele>
        <time>2013-09-01T11:43:43Z</time>
      </trkpt>
      <trkpt lat="49.14827" lon="2.19304">
        <ele>139.80000305176</ele>
        <time>2013-09-01T11:44:07Z</time>
      </trkpt>
      <trkpt lat="49.14829" lon="2.19308">
        <ele>140</ele>
        <time>2013-09-01T11:44:26Z</time>
      </trkpt>
      <trkpt lat="49.14807" lon="2.19318">
        <ele>139</ele>
        <time>2013-09-01T11:44:47Z</time>
      </trkpt>
      <trkpt lat="49.14793" lon="2.19323">
        <ele>138.19999694824</ele>
        <time>2013-09-01T11:45:08Z</time>
      </trkpt>
      <trkpt lat="49.14766" lon="2.19343">
        <ele>137</ele>
        <time>2013-09-01T11:45:34Z</time>
      </trkpt>
      <trkpt lat="49.14746" lon="2.19355">
        <ele>136.19999694824</ele>
        <time>2013-09-01T11:45:57Z</time>
      </trkpt>
      <trkpt lat="49.14719" lon="2.19356">
        <ele>135.19999694824</ele>
        <time>2013-09-01T11:46:22Z</time>
      </trkpt>
      <trkpt lat="49.14696" lon="2.19371">
        <ele>134.19999694824</ele>
        <time>2013-09-01T11:46:44Z</time>
      </trkpt>
      <trkpt lat="49.14683" lon="2.19379">
        <ele>133.60000610352</ele>
        <time>2013-09-01T11:47:01Z</time>
      </trkpt>
      <trkpt lat="49.14663" lon="2.19386">
        <ele>132.60000610352</ele>
        <time>2013-09-01T11:47:19Z</time>
      </trkpt>
      <trkpt lat="49.1464" lon="2.19398">
        <ele>131.19999694824</ele>
        <time>2013-09-01T11:47:33Z</time>
      </trkpt>
      <trkpt lat="49.14633" lon="2.19402">
        <ele>130.60000610352</ele>
        <time>2013-09-01T11:47:39Z</time>
      </trkpt>
      <trkpt lat="49.14619" lon="2.1941">
        <ele>129.60000610352</ele>
        <time>2013-09-01T11:47:54Z</time>
      </trkpt>
      <trkpt lat="49.14608" lon="2.19415">
        <ele>128.80000305176</ele>
        <time>2013-09-01T11:48:11Z</time>
      </trkpt>
      <trkpt lat="49.14587" lon="2.19423">
        <ele>127.40000152588</ele>
        <time>2013-09-01T11:48:30Z</time>
      </trkpt>
      <trkpt lat="49.14567" lon="2.19442">
        <ele>127</ele>
        <time>2013-09-01T11:48:51Z</time>
      </trkpt>
      <trkpt lat="49.14548" lon="2.19447">
        <ele>126.40000152588</ele>
        <time>2013-09-01T11:49:08Z</time>
      </trkpt>
      <trkpt lat="49.14533" lon="2.19452">
        <ele>125.80000305176</ele>
        <time>2013-09-01T11:49:24Z</time>
      </trkpt>
      <trkpt lat="49.14521" lon="2.19458">
        <ele>125.19999694824</ele>
        <time>2013-09-01T11:49:40Z</time>
      </trkpt>
      <trkpt lat="49.14526" lon="2.19445">
        <ele>125.59999847412</ele>
        <time>2013-09-01T11:50:09Z</time>
      </trkpt>
      <trkpt lat="49.14523" lon="2.19443">
        <ele>125.40000152588</ele>
        <time>2013-09-01T11:50:45Z</time>
      </trkpt>
      <trkpt lat="49.14525" lon="2.19439">
        <ele>125.40000152588</ele>
        <time>2013-09-01T11:51:22Z</time>
      </trkpt>
      <trkpt lat="49.14522" lon="2.19446">
        <ele>125.40000152588</ele>
        <time>2013-09-01T11:51:48Z</time>
      </trkpt>
      <trkpt lat="49.14522" lon="2.19435">
        <ele>125.40000152588</ele>
        <time>2013-09-01T11:52:14Z</time>
      </trkpt>
      <trkpt lat="49.14496" lon="2.19459">
        <ele>124.19999694824</ele>
        <time>2013-09-01T11:52:31Z</time>
      </trkpt>
      <trkpt lat="49.14471" lon="2.19473">
        <ele>123.19999694824</ele>
        <time>2013-09-01T11:52:52Z</time>
      </trkpt>
      <trkpt lat="49.14444" lon="2.19491">
        <ele>122.40000152588</ele>
        <time>2013-09-01T11:53:15Z</time>
      </trkpt>
      <trkpt lat="49.14418" lon="2.19501">
        <ele>122</ele>
        <time>2013-09-01T11:53:42Z</time>
      </trkpt>
      <trkpt lat="49.14392" lon="2.19512">
        <ele>121.80000305176</ele>
        <time>2013-09-01T11:54:06Z</time>
      </trkpt>
      <trkpt lat="49.14375" lon="2.19528">
        <ele>122</ele>
        <time>2013-09-01T11:54:27Z</time>
      </trkpt>
      <trkpt lat="49.14353" lon="2.19531">
        <ele>121.59999847412</ele>
        <time>2013-09-01T11:54:47Z</time>
      </trkpt>
      <trkpt lat="49.1433" lon="2.19543">
        <ele>121.40000152588</ele>
        <time>2013-09-01T11:55:09Z</time>
      </trkpt>
      <trkpt lat="49.14326" lon="2.19581">
        <ele>121.80000305176</ele>
        <time>2013-09-01T11:55:31Z</time>
      </trkpt>
      <trkpt lat="49.14325" lon="2.19594">
        <ele>121.59999847412</ele>
        <time>2013-09-01T11:55:48Z</time>
      </trkpt>
      <trkpt lat="49.14328" lon="2.19621">
        <ele>121.40000152588</ele>
        <time>2013-09-01T11:56:04Z</time>
      </trkpt>
      <trkpt lat="49.14334" lon="2.19654">
        <ele>121</ele>
        <time>2013-09-01T11:56:29Z</time>
      </trkpt>
      <trkpt lat="49.14331" lon="2.19681">
        <ele>120.40000152588</ele>
        <time>2013-09-01T11:56:45Z</time>
      </trkpt>
      <trkpt lat="49.14344" lon="2.19706">
        <ele>120.80000305176</ele>
        <time>2013-09-01T11:57:05Z</time>
      </trkpt>
      <trkpt lat="49.14351" lon="2.19734">
        <ele>121</ele>
        <time>2013-09-01T11:57:25Z</time>
      </trkpt>
      <trkpt lat="49.14354" lon="2.19758">
        <ele>121.19999694824</ele>
        <time>2013-09-01T11:57:45Z</time>
      </trkpt>
      <trkpt lat="49.14354" lon="2.19746">
        <ele>121.19999694824</ele>
        <time>2013-09-01T11:58:08Z</time>
      </trkpt>
      <trkpt lat="49.14352" lon="2.19755">
        <ele>121</ele>
        <time>2013-09-01T11:58:29Z</time>
      </trkpt>
      <trkpt lat="49.14356" lon="2.19755">
        <ele>121.40000152588</ele>
        <time>2013-09-01T11:58:50Z</time>
      </trkpt>
      <trkpt lat="49.1436" lon="2.19758">
        <ele>121.80000305176</ele>
        <time>2013-09-01T11:59:05Z</time>
      </trkpt>
      <trkpt lat="49.14348" lon="2.19758">
        <ele>120.59999847412</ele>
        <time>2013-09-01T11:59:41Z</time>
      </trkpt>
      <trkpt lat="49.1435" lon="2.19758">
        <ele>120.80000305176</ele>
        <time>2013-09-01T11:59:53Z</time>
      </trkpt>
      <trkpt lat="49.14351" lon="2.19764">
        <ele>121</ele>
        <time>2013-09-01T12:00:24Z</time>
      </trkpt>
      <trkpt lat="49.14352" lon="2.19769">
        <ele>121.19999694824</ele>
        <time>2013-09-01T12:00:56Z</time>
      </trkpt>
      <trkpt lat="49.14349" lon="2.1976">
        <ele>120.80000305176</ele>
        <time>2013-09-01T12:01:20Z</time>
      </trkpt>
      <trkpt lat="49.1435" lon="2.19761">
        <ele>121</ele>
        <time>2013-09-01T12:01:50Z</time>
      </trkpt>
      <trkpt lat="49.14348" lon="2.19775">
        <ele>121</ele>
        <time>2013-09-01T12:02:23Z</time>
      </trkpt>
      <trkpt lat="49.14352" lon="2.19769">
        <ele>121.19999694824</ele>
        <time>2013-09-01T12:02:49Z</time>
      </trkpt>
      <trkpt lat="49.14355" lon="2.19771">
        <ele>121.59999847412</ele>
        <time>2013-09-01T12:03:26Z</time>
      </trkpt>
      <trkpt lat="49.14351" lon="2.19766">
        <ele>121</ele>
        <time>2013-09-01T12:03:58Z</time>
      </trkpt>
      <trkpt lat="49.14352" lon="2.19766">
        <ele>121.19999694824</ele>
        <time>2013-09-01T12:04:18Z</time>
      </trkpt>
      <trkpt lat="49.14355" lon="2.19759">
        <ele>121.40000152588</ele>
        <time>2013-09-01T12:04:43Z</time>
      </trkpt>
      <trkpt lat="49.14338" lon="2.19756">
        <ele>119.59999847412</ele>
        <time>2013-09-01T12:05:02Z</time>
      </trkpt>
      <trkpt lat="49.14326" lon="2.1976">
        <ele>118.40000152588</ele>
        <time>2013-09-01T12:05:17Z</time>
      </trkpt>
      <trkpt lat="49.14325" lon="2.19756">
        <ele>118.19999694824</ele>
        <time>2013-09-01T12:05:30Z</time>
      </trkpt>
      <trkpt lat="49.14321" lon="2.19792">
        <ele>118.59999847412</ele>
        <time>2013-09-01T12:05:50Z</time>
      </trkpt>
      <trkpt lat="49.14317" lon="2.19803">
        <ele>118.40000152588</ele>
        <time>2013-09-01T12:05:57Z</time>
      </trkpt>
      <trkpt lat="49.14311" lon="2.19821">
        <ele>118</ele>
        <time>2013-09-01T12:06:16Z</time>
      </trkpt>
      <trkpt lat="49.14308" lon="2.1983">
        <ele>117.80000305176</ele>
        <time>2013-09-01T12:06:23Z</time>
      </trkpt>
      <trkpt lat="49.14293" lon="2.19843">
        <ele>116.19999694824</ele>
        <time>2013-09-01T12:06:39Z</time>
      </trkpt>
      <trkpt lat="49.14281" lon="2.19865">
        <ele>114.80000305176</ele>
        <time>2013-09-01T12:06:56Z</time>
      </trkpt>
      <trkpt lat="49.14266" lon="2.19885">
        <ele>113</ele>
        <time>2013-09-01T12:07:12Z</time>
      </trkpt>
      <trkpt lat="49.14252" lon="2.19897">
        <ele>111.19999694824</ele>
        <time>2013-09-01T12:07:26Z</time>
      </trkpt>
      <trkpt lat="49.14246" lon="2.199">
        <ele>110.59999847412</ele>
        <time>2013-09-01T12:07:33Z</time>
      </trkpt>
      <trkpt lat="49.14236" lon="2.19908">
        <ele>110</ele>
        <time>2013-09-01T12:07:43Z</time>
      </trkpt>
      <trkpt lat="49.1422" lon="2.1992">
        <ele>109</ele>
        <time>2013-09-01T12:07:59Z</time>
      </trkpt>
      <trkpt lat="49.14202" lon="2.19926">
        <ele>107.80000305176</ele>
        <time>2013-09-01T12:08:16Z</time>
      </trkpt>
      <trkpt lat="49.14198" lon="2.19927">
        <ele>107.59999847412</ele>
        <time>2013-09-01T12:08:19Z</time>
      </trkpt>
      <trkpt lat="49.14179" lon="2.19927">
        <ele>106.40000152588</ele>
        <time>2013-09-01T12:08:36Z</time>
      </trkpt>
      <trkpt lat="49.1416" lon="2.19926">
        <ele>105.59999847412</ele>
        <time>2013-09-01T12:08:53Z</time>
      </trkpt>
      <trkpt lat="49.1414" lon="2.19924">
        <ele>105</ele>
        <time>2013-09-01T12:09:12Z</time>
      </trkpt>
      <trkpt lat="49.1412" lon="2.19922">
        <ele>104.19999694824</ele>
        <time>2013-09-01T12:09:30Z</time>
      </trkpt>
      <trkpt lat="49.14112" lon="2.19922">
        <ele>104</ele>
        <time>2013-09-01T12:09:37Z</time>
      </trkpt>
      <trkpt lat="49.14089" lon="2.19917">
        <ele>103.19999694824</ele>
        <time>2013-09-01T12:09:58Z</time>
      </trkpt>
      <trkpt lat="49.14069" lon="2.19915">
        <ele>102.80000305176</ele>
        <time>2013-09-01T12:10:17Z</time>
      </trkpt>
      <trkpt lat="49.14046" lon="2.19914">
        <ele>102.40000152588</ele>
        <time>2013-09-01T12:10:38Z</time>
      </trkpt>
      <trkpt lat="49.14028" lon="2.19912">
        <ele>102.19999694824</ele>
        <time>2013-09-01T12:10:53Z</time>
      </trkpt>
      <trkpt lat="49.14009" lon="2.19919">
        <ele>102</ele>
        <time>2013-09-01T12:11:10Z</time>
      </trkpt>
      <trkpt lat="49.13992" lon="2.1992">
        <ele>101.59999847412</ele>
        <time>2013-09-01T12:11:25Z</time>
      </trkpt>
      <trkpt lat="49.13975" lon="2.19921">
        <ele>101.19999694824</ele>
        <time>2013-09-01T12:11:41Z</time>
      </trkpt>
      <trkpt lat="49.13957" lon="2.19925">
        <ele>100.80000305176</ele>
        <time>2013-09-01T12:11:58Z</time>
      </trkpt>
      <trkpt lat="49.13938" lon="2.19928">
        <ele>100.19999694824</ele>
        <time>2013-09-01T12:12:16Z</time>
      </trkpt>
      <trkpt lat="49.13917" lon="2.19932">
        <ele>99.800003051758</ele>
        <time>2013-09-01T12:12:34Z</time>
      </trkpt>
      <trkpt lat="49.13897" lon="2.19934">
        <ele>99.599998474121</ele>
        <time>2013-09-01T12:12:53Z</time>
      </trkpt>
      <trkpt lat="49.13876" lon="2.19938">
        <ele>99.400001525879</ele>
        <time>2013-09-01T12:13:12Z</time>
      </trkpt>
      <trkpt lat="49.13859" lon="2.19945">
        <ele>99.400001525879</ele>
        <time>2013-09-01T12:13:28Z</time>
      </trkpt>
      <trkpt lat="49.13838" lon="2.19955">
        <ele>99.400001525879</ele>
        <time>2013-09-01T12:13:47Z</time>
      </trkpt>
      <trkpt lat="49.13822" lon="2.19961">
        <ele>99.400001525879</ele>
        <time>2013-09-01T12:14:03Z</time>
      </trkpt>
      <trkpt lat="49.13799" lon="2.19968">
        <ele>99.199996948242</ele>
        <time>2013-09-01T12:14:23Z</time>
      </trkpt>
      <trkpt lat="49.13777" lon="2.19975">
        <ele>99.199996948242</ele>
        <time>2013-09-01T12:14:41Z</time>
      </trkpt>
      <trkpt lat="49.13762" lon="2.19985">
        <ele>99</ele>
        <time>2013-09-01T12:14:55Z</time>
      </trkpt>
      <trkpt lat="49.13745" lon="2.19984">
        <ele>98.800003051758</ele>
        <time>2013-09-01T12:15:10Z</time>
      </trkpt>
      <trkpt lat="49.13721" lon="2.19985">
        <ele>98.199996948242</ele>
        <time>2013-09-01T12:15:30Z</time>
      </trkpt>
      <trkpt lat="49.13712" lon="2.19983">
        <ele>98</ele>
        <time>2013-09-01T12:15:38Z</time>
      </trkpt>
      <trkpt lat="49.13698" lon="2.19983">
        <ele>97.599998474121</ele>
        <time>2013-09-01T12:15:54Z</time>
      </trkpt>
      <trkpt lat="49.13699" lon="2.1998">
        <ele>97.599998474121</ele>
        <time>2013-09-01T12:16:16Z</time>
      </trkpt>
      <trkpt lat="49.13699" lon="2.1998">
        <ele>97.599998474121</ele>
        <time>2013-09-01T12:16:45Z</time>
      </trkpt>
      <trkpt lat="49.137" lon="2.1998">
        <ele>97.599998474121</ele>
        <time>2013-09-01T12:17:09Z</time>
      </trkpt>
      <trkpt lat="49.137" lon="2.1998">
        <ele>97.599998474121</ele>
        <time>2013-09-01T12:17:34Z</time>
      </trkpt>
      <trkpt lat="49.137" lon="2.19979">
        <ele>97.599998474121</ele>
        <time>2013-09-01T12:18:02Z</time>
      </trkpt>
      <trkpt lat="49.13702" lon="2.19972">
        <ele>97.800003051758</ele>
        <time>2013-09-01T12:18:18Z</time>
      </trkpt>
      <trkpt lat="49.13702" lon="2.19968">
        <ele>97.800003051758</ele>
        <time>2013-09-01T12:18:22Z</time>
      </trkpt>
      <trkpt lat="49.13702" lon="2.19941">
        <ele>97.800003051758</ele>
        <time>2013-09-01T12:18:39Z</time>
      </trkpt>
      <trkpt lat="49.13701" lon="2.19927">
        <ele>97.800003051758</ele>
        <time>2013-09-01T12:18:46Z</time>
      </trkpt>
      <trkpt lat="49.137" lon="2.19922">
        <ele>97.599998474121</ele>
        <time>2013-09-01T12:18:50Z</time>
      </trkpt>
      <trkpt lat="49.13698" lon="2.19894">
        <ele>97.800003051758</ele>
        <time>2013-09-01T12:19:06Z</time>
      </trkpt>
      <trkpt lat="49.13698" lon="2.19867">
        <ele>97.800003051758</ele>
        <time>2013-09-01T12:19:22Z</time>
      </trkpt>
      <trkpt lat="49.13695" lon="2.19841">
        <ele>97.800003051758</ele>
        <time>2013-09-01T12:19:38Z</time>
      </trkpt>
      <trkpt lat="49.13694" lon="2.19815">
        <ele>98</ele>
        <time>2013-09-01T12:19:54Z</time>
      </trkpt>
      <trkpt lat="49.13693" lon="2.19789">
        <ele>98</ele>
        <time>2013-09-01T12:20:09Z</time>
      </trkpt>
      <trkpt lat="49.13693" lon="2.19761">
        <ele>98</ele>
        <time>2013-09-01T12:20:24Z</time>
      </trkpt>
      <trkpt lat="49.13692" lon="2.1974">
        <ele>97.800003051758</ele>
        <time>2013-09-01T12:20:37Z</time>
      </trkpt>
      <trkpt lat="49.13692" lon="2.19725">
        <ele>97.400001525879</ele>
        <time>2013-09-01T12:20:46Z</time>
      </trkpt>
      <trkpt lat="49.13692" lon="2.19706">
        <ele>96.800003051758</ele>
        <time>2013-09-01T12:21:02Z</time>
      </trkpt>
      <trkpt lat="49.13692" lon="2.19705">
        <ele>96.800003051758</ele>
        <time>2013-09-01T12:21:03Z</time>
      </trkpt>
      <trkpt lat="49.13688" lon="2.1968">
        <ele>95.800003051758</ele>
        <time>2013-09-01T12:21:18Z</time>
      </trkpt>
      <trkpt lat="49.13687" lon="2.19667">
        <ele>95.400001525879</ele>
        <time>2013-09-01T12:21:27Z</time>
      </trkpt>
      <trkpt lat="49.13688" lon="2.19635">
        <ele>95.400001525879</ele>
        <time>2013-09-01T12:21:45Z</time>
      </trkpt>
      <trkpt lat="49.1369" lon="2.19621">
        <ele>95.599998474121</ele>
        <time>2013-09-01T12:21:55Z</time>
      </trkpt>
      <trkpt lat="49.1369" lon="2.1961">
        <ele>95.400001525879</ele>
        <time>2013-09-01T12:22:01Z</time>
      </trkpt>
      <trkpt lat="49.13689" lon="2.19607">
        <ele>95.400001525879</ele>
        <time>2013-09-01T12:22:03Z</time>
      </trkpt>
      <trkpt lat="49.13682" lon="2.19617">
        <ele>94.599998474121</ele>
        <time>2013-09-01T12:22:16Z</time>
      </trkpt>
      <trkpt lat="49.13678" lon="2.19635">
        <ele>94.199996948242</ele>
        <time>2013-09-01T12:22:34Z</time>
      </trkpt>
      <trkpt lat="49.13671" lon="2.19668">
        <ele>93.400001525879</ele>
        <time>2013-09-01T12:22:53Z</time>
      </trkpt>
      <trkpt lat="49.13672" lon="2.19698">
        <ele>94.599998474121</ele>
        <time>2013-09-01T12:23:10Z</time>
      </trkpt>
      <trkpt lat="49.1367" lon="2.19708">
        <ele>94.800003051758</ele>
        <time>2013-09-01T12:23:16Z</time>
      </trkpt>
      <trkpt lat="49.13652" lon="2.19726">
        <ele>94.400001525879</ele>
        <time>2013-09-01T12:23:32Z</time>
      </trkpt>
      <trkpt lat="49.13638" lon="2.19729">
        <ele>94.199996948242</ele>
        <time>2013-09-01T12:23:50Z</time>
      </trkpt>
      <trkpt lat="49.13618" lon="2.19731">
        <ele>93.800003051758</ele>
        <time>2013-09-01T12:24:07Z</time>
      </trkpt>
      <trkpt lat="49.13602" lon="2.19737">
        <ele>93.800003051758</ele>
        <time>2013-09-01T12:24:23Z</time>
      </trkpt>
      <trkpt lat="49.13582" lon="2.19745">
        <ele>94.199996948242</ele>
        <time>2013-09-01T12:24:45Z</time>
      </trkpt>
      <trkpt lat="49.13564" lon="2.19754">
        <ele>94.800003051758</ele>
        <time>2013-09-01T12:25:04Z</time>
      </trkpt>
      <trkpt lat="49.13537" lon="2.19762">
        <ele>94.400001525879</ele>
        <time>2013-09-01T12:25:30Z</time>
      </trkpt>
      <trkpt lat="49.13514" lon="2.19765">
        <ele>94</ele>
        <time>2013-09-01T12:25:51Z</time>
      </trkpt>
      <trkpt lat="49.13493" lon="2.19774">
        <ele>93.400001525879</ele>
        <time>2013-09-01T12:26:12Z</time>
      </trkpt>
      <trkpt lat="49.13472" lon="2.19788">
        <ele>92.400001525879</ele>
        <time>2013-09-01T12:26:32Z</time>
      </trkpt>
      <trkpt lat="49.13453" lon="2.19798">
        <ele>91.800003051758</ele>
        <time>2013-09-01T12:26:52Z</time>
      </trkpt>
      <trkpt lat="49.13433" lon="2.19808">
        <ele>91.199996948242</ele>
        <time>2013-09-01T12:27:10Z</time>
      </trkpt>
      <trkpt lat="49.13421" lon="2.19815">
        <ele>91.199996948242</ele>
        <time>2013-09-01T12:27:30Z</time>
      </trkpt>
      <trkpt lat="49.13415" lon="2.19812">
        <ele>90.599998474121</ele>
        <time>2013-09-01T12:27:54Z</time>
      </trkpt>
      <trkpt lat="49.13395" lon="2.19821">
        <ele>91.599998474121</ele>
        <time>2013-09-01T12:28:18Z</time>
      </trkpt>
      <trkpt lat="49.1339" lon="2.19824">
        <ele>91.800003051758</ele>
        <time>2013-09-01T12:28:26Z</time>
      </trkpt>
      <trkpt lat="49.13383" lon="2.19826">
        <ele>92</ele>
        <time>2013-09-01T12:28:30Z</time>
      </trkpt>
      <trkpt lat="49.13361" lon="2.19832">
        <ele>92.800003051758</ele>
        <time>2013-09-01T12:28:50Z</time>
      </trkpt>
      <trkpt lat="49.13342" lon="2.19838">
        <ele>93</ele>
        <time>2013-09-01T12:29:09Z</time>
      </trkpt>
      <trkpt lat="49.13322" lon="2.19849">
        <ele>92.800003051758</ele>
        <time>2013-09-01T12:29:26Z</time>
      </trkpt>
      <trkpt lat="49.13302" lon="2.19866">
        <ele>92.800003051758</ele>
        <time>2013-09-01T12:29:49Z</time>
      </trkpt>
      <trkpt lat="49.13288" lon="2.19876">
        <ele>92.800003051758</ele>
        <time>2013-09-01T12:30:09Z</time>
      </trkpt>
      <trkpt lat="49.13277" lon="2.19885">
        <ele>93.199996948242</ele>
        <time>2013-09-01T12:30:26Z</time>
      </trkpt>
      <trkpt lat="49.13278" lon="2.19881">
        <ele>92.800003051758</ele>
        <time>2013-09-01T12:30:51Z</time>
      </trkpt>
      <trkpt lat="49.1329" lon="2.19865">
        <ele>92.400001525879</ele>
        <time>2013-09-01T12:31:06Z</time>
      </trkpt>
      <trkpt lat="49.13283" lon="2.19877">
        <ele>92.800003051758</ele>
        <time>2013-09-01T12:31:20Z</time>
      </trkpt>
      <trkpt lat="49.13279" lon="2.19874">
        <ele>92.599998474121</ele>
        <time>2013-09-01T12:31:40Z</time>
      </trkpt>
      <trkpt lat="49.13273" lon="2.19881">
        <ele>92.800003051758</ele>
        <time>2013-09-01T12:32:02Z</time>
      </trkpt>
      <trkpt lat="49.1328" lon="2.19883">
        <ele>93</ele>
        <time>2013-09-01T12:32:25Z</time>
      </trkpt>
      <trkpt lat="49.13288" lon="2.19882">
        <ele>93.199996948242</ele>
        <time>2013-09-01T12:32:49Z</time>
      </trkpt>
      <trkpt lat="49.13274" lon="2.19889">
        <ele>93.199996948242</ele>
        <time>2013-09-01T12:33:11Z</time>
      </trkpt>
      <trkpt lat="49.13271" lon="2.19884">
        <ele>93</ele>
        <time>2013-09-01T12:33:29Z</time>
      </trkpt>
      <trkpt lat="49.13265" lon="2.19869">
        <ele>92</ele>
        <time>2013-09-01T12:33:49Z</time>
      </trkpt>
      <trkpt lat="49.1325" lon="2.19867">
        <ele>91.400001525879</ele>
        <time>2013-09-01T12:34:07Z</time>
      </trkpt>
      <trkpt lat="49.13231" lon="2.19858">
        <ele>91.199996948242</ele>
        <time>2013-09-01T12:34:30Z</time>
      </trkpt>
      <trkpt lat="49.13219" lon="2.1985">
        <ele>91</ele>
        <time>2013-09-01T12:34:47Z</time>
      </trkpt>
      <trkpt lat="49.13212" lon="2.19832">
        <ele>90.199996948242</ele>
        <time>2013-09-01T12:35:02Z</time>
      </trkpt>
      <trkpt lat="49.13205" lon="2.19817">
        <ele>88.800003051758</ele>
        <time>2013-09-01T12:35:15Z</time>
      </trkpt>
      <trkpt lat="49.13194" lon="2.198">
        <ele>87.599998474121</ele>
        <time>2013-09-01T12:35:31Z</time>
      </trkpt>
      <trkpt lat="49.1318" lon="2.19775">
        <ele>86.599998474121</ele>
        <time>2013-09-01T12:35:51Z</time>
      </trkpt>
      <trkpt lat="49.13165" lon="2.19734">
        <ele>84.599998474121</ele>
        <time>2013-09-01T12:36:15Z</time>
      </trkpt>
      <trkpt lat="49.13161" lon="2.19715">
        <ele>83.199996948242</ele>
        <time>2013-09-01T12:36:32Z</time>
      </trkpt>
      <trkpt lat="49.13151" lon="2.1969">
        <ele>82.400001525879</ele>
        <time>2013-09-01T12:36:52Z</time>
      </trkpt>
      <trkpt lat="49.13148" lon="2.19678">
        <ele>82</ele>
        <time>2013-09-01T12:36:58Z</time>
      </trkpt>
      <trkpt lat="49.13138" lon="2.19652">
        <ele>80.800003051758</ele>
        <time>2013-09-01T12:37:18Z</time>
      </trkpt>
      <trkpt lat="49.13129" lon="2.19624">
        <ele>78.800003051758</ele>
        <time>2013-09-01T12:37:42Z</time>
      </trkpt>
      <trkpt lat="49.13117" lon="2.19598">
        <ele>77</ele>
        <time>2013-09-01T12:38:02Z</time>
      </trkpt>
      <trkpt lat="49.13101" lon="2.19578">
        <ele>76</ele>
        <time>2013-09-01T12:38:23Z</time>
      </trkpt>
      <trkpt lat="49.13094" lon="2.19572">
        <ele>75.800003051758</ele>
        <time>2013-09-01T12:38:29Z</time>
      </trkpt>
      <trkpt lat="49.13082" lon="2.19559">
        <ele>75.199996948242</ele>
        <time>2013-09-01T12:38:47Z</time>
      </trkpt>
      <trkpt lat="49.13068" lon="2.19539">
        <ele>75</ele>
        <time>2013-09-01T12:39:03Z</time>
      </trkpt>
      <trkpt lat="49.1305" lon="2.19495">
        <ele>72.599998474121</ele>
        <time>2013-09-01T12:39:25Z</time>
      </trkpt>
      <trkpt lat="49.13037" lon="2.19472">
        <ele>73.599998474121</ele>
        <time>2013-09-01T12:39:42Z</time>
      </trkpt>
      <trkpt lat="49.13027" lon="2.19446">
        <ele>73.400001525879</ele>
        <time>2013-09-01T12:40:00Z</time>
      </trkpt>
      <trkpt lat="49.13016" lon="2.19426">
        <ele>73.199996948242</ele>
        <time>2013-09-01T12:40:21Z</time>
      </trkpt>
      <trkpt lat="49.13004" lon="2.19401">
        <ele>72.400001525879</ele>
        <time>2013-09-01T12:40:43Z</time>
      </trkpt>
      <trkpt lat="49.12986" lon="2.19377">
        <ele>72.800003051758</ele>
        <time>2013-09-01T12:41:05Z</time>
      </trkpt>
      <trkpt lat="49.12966" lon="2.19357">
        <ele>73.800003051758</ele>
        <time>2013-09-01T12:41:27Z</time>
      </trkpt>
      <trkpt lat="49.1296" lon="2.19326">
        <ele>71.199996948242</ele>
        <time>2013-09-01T12:41:43Z</time>
      </trkpt>
      <trkpt lat="49.12959" lon="2.19324">
        <ele>71</ele>
        <time>2013-09-01T12:41:44Z</time>
      </trkpt>
      <trkpt lat="49.12954" lon="2.19294">
        <ele>67.599998474121</ele>
        <time>2013-09-01T12:42:04Z</time>
      </trkpt>
      <trkpt lat="49.12953" lon="2.19252">
        <ele>62</ele>
        <time>2013-09-01T12:42:26Z</time>
      </trkpt>
      <trkpt lat="49.12949" lon="2.19224">
        <ele>59.400001525879</ele>
        <time>2013-09-01T12:42:45Z</time>
      </trkpt>
      <trkpt lat="49.12945" lon="2.19201">
        <ele>57.400001525879</ele>
        <time>2013-09-01T12:43:03Z</time>
      </trkpt>
      <trkpt lat="49.12948" lon="2.19183">
        <ele>55</ele>
        <time>2013-09-01T12:43:22Z</time>
      </trkpt>
      <trkpt lat="49.12956" lon="2.19173">
        <ele>53.200000762939</ele>
        <time>2013-09-01T12:43:32Z</time>
      </trkpt>
      <trkpt lat="49.12966" lon="2.19156">
        <ele>51.799999237061</ele>
        <time>2013-09-01T12:43:44Z</time>
      </trkpt>
      <trkpt lat="49.12979" lon="2.19131">
        <ele>51.200000762939</ele>
        <time>2013-09-01T12:44:01Z</time>
      </trkpt>
      <trkpt lat="49.12992" lon="2.19109">
        <ele>50.200000762939</ele>
        <time>2013-09-01T12:44:19Z</time>
      </trkpt>
      <trkpt lat="49.13005" lon="2.19079">
        <ele>50</ele>
        <time>2013-09-01T12:44:44Z</time>
      </trkpt>
      <trkpt lat="49.13018" lon="2.19083">
        <ele>50.200000762939</ele>
        <time>2013-09-01T12:45:05Z</time>
      </trkpt>
      <trkpt lat="49.1301" lon="2.19084">
        <ele>50</ele>
        <time>2013-09-01T12:45:27Z</time>
      </trkpt>
      <trkpt lat="49.1301" lon="2.19084">
        <ele>50</ele>
        <time>2013-09-01T12:45:47Z</time>
      </trkpt>
      <trkpt lat="49.13009" lon="2.19082">
        <ele>50</ele>
        <time>2013-09-01T12:46:04Z</time>
      </trkpt>
      <trkpt lat="49.13009" lon="2.19067">
        <ele>50</ele>
        <time>2013-09-01T12:46:23Z</time>
      </trkpt>
      <trkpt lat="49.13005" lon="2.19079">
        <ele>50</ele>
        <time>2013-09-01T12:46:39Z</time>
      </trkpt>
      <trkpt lat="49.13013" lon="2.19082">
        <ele>50</ele>
        <time>2013-09-01T12:47:02Z</time>
      </trkpt>
      <trkpt lat="49.13008" lon="2.19069">
        <ele>50</ele>
        <time>2013-09-01T12:47:26Z</time>
      </trkpt>
      <trkpt lat="49.12992" lon="2.19053">
        <ele>50.599998474121</ele>
        <time>2013-09-01T12:47:47Z</time>
      </trkpt>
      <trkpt lat="49.12975" lon="2.19022">
        <ele>52.200000762939</ele>
        <time>2013-09-01T12:48:14Z</time>
      </trkpt>
      <trkpt lat="49.12958" lon="2.18998">
        <ele>54</ele>
        <time>2013-09-01T12:48:37Z</time>
      </trkpt>
      <trkpt lat="49.12951" lon="2.18984">
        <ele>54.200000762939</ele>
        <time>2013-09-01T12:48:41Z</time>
      </trkpt>
      <trkpt lat="49.12945" lon="2.18968">
        <ele>54.599998474121</ele>
        <time>2013-09-01T12:48:58Z</time>
      </trkpt>
      <trkpt lat="49.12928" lon="2.18937">
        <ele>56</ele>
        <time>2013-09-01T12:49:24Z</time>
      </trkpt>
      <trkpt lat="49.12904" lon="2.18906">
        <ele>58.400001525879</ele>
        <time>2013-09-01T12:49:46Z</time>
      </trkpt>
      <trkpt lat="49.12897" lon="2.18873">
        <ele>57.400001525879</ele>
        <time>2013-09-01T12:50:08Z</time>
      </trkpt>
      <trkpt lat="49.12882" lon="2.18833">
        <ele>56.799999237061</ele>
        <time>2013-09-01T12:50:33Z</time>
      </trkpt>
      <trkpt lat="49.12864" lon="2.18808">
        <ele>56</ele>
        <time>2013-09-01T12:50:58Z</time>
      </trkpt>
      <trkpt lat="49.12852" lon="2.18789">
        <ele>54.400001525879</ele>
        <time>2013-09-01T12:51:16Z</time>
      </trkpt>
      <trkpt lat="49.1284" lon="2.18767">
        <ele>51.599998474121</ele>
        <time>2013-09-01T12:51:37Z</time>
      </trkpt>
      <trkpt lat="49.12817" lon="2.18754">
        <ele>51</ele>
        <time>2013-09-01T12:52:00Z</time>
      </trkpt>
      <trkpt lat="49.12786" lon="2.1874">
        <ele>52</ele>
        <time>2013-09-01T12:52:23Z</time>
      </trkpt>
      <trkpt lat="49.12759" lon="2.18718">
        <ele>51.799999237061</ele>
        <time>2013-09-01T12:52:46Z</time>
      </trkpt>
      <trkpt lat="49.12755" lon="2.18707">
        <ele>50.799999237061</ele>
        <time>2013-09-01T12:52:57Z</time>
      </trkpt>
      <trkpt lat="49.12736" lon="2.18694">
        <ele>52.599998474121</ele>
        <time>2013-09-01T12:53:16Z</time>
      </trkpt>
      <trkpt lat="49.12729" lon="2.18691">
        <ele>53.799999237061</ele>
        <time>2013-09-01T12:53:29Z</time>
      </trkpt>
      <trkpt lat="49.12718" lon="2.18679">
        <ele>54.599998474121</ele>
        <time>2013-09-01T12:53:53Z</time>
      </trkpt>
      <trkpt lat="49.12702" lon="2.18655">
        <ele>55.799999237061</ele>
        <time>2013-09-01T12:54:15Z</time>
      </trkpt>
      <trkpt lat="49.12699" lon="2.1865">
        <ele>56</ele>
        <time>2013-09-01T12:54:19Z</time>
      </trkpt>
      <trkpt lat="49.12683" lon="2.18614">
        <ele>56</ele>
        <time>2013-09-01T12:54:44Z</time>
      </trkpt>
      <trkpt lat="49.12679" lon="2.18576">
        <ele>53.599998474121</ele>
        <time>2013-09-01T12:55:05Z</time>
      </trkpt>
      <trkpt lat="49.12674" lon="2.18545">
        <ele>52.400001525879</ele>
        <time>2013-09-01T12:55:23Z</time>
      </trkpt>
      <trkpt lat="49.1267" lon="2.18536">
        <ele>52.200000762939</ele>
        <time>2013-09-01T12:55:31Z</time>
      </trkpt>
      <trkpt lat="49.12654" lon="2.18522">
        <ele>52.799999237061</ele>
        <time>2013-09-01T12:55:48Z</time>
      </trkpt>
      <trkpt lat="49.12632" lon="2.1851">
        <ele>53.799999237061</ele>
        <time>2013-09-01T12:56:09Z</time>
      </trkpt>
      <trkpt lat="49.12614" lon="2.18503">
        <ele>54.599998474121</ele>
        <time>2013-09-01T12:56:28Z</time>
      </trkpt>
      <trkpt lat="49.12603" lon="2.18489">
        <ele>54</ele>
        <time>2013-09-01T12:56:40Z</time>
      </trkpt>
      <trkpt lat="49.12595" lon="2.18485">
        <ele>54</ele>
        <time>2013-09-01T12:56:46Z</time>
      </trkpt>
      <trkpt lat="49.12594" lon="2.18484">
        <ele>54</ele>
        <time>2013-09-01T12:56:47Z</time>
      </trkpt>
      <trkpt lat="49.12589" lon="2.18476">
        <ele>53.200000762939</ele>
        <time>2013-09-01T12:57:02Z</time>
      </trkpt>
      <trkpt lat="49.12589" lon="2.18466">
        <ele>51.799999237061</ele>
        <time>2013-09-01T12:57:22Z</time>
      </trkpt>
      <trkpt lat="49.12583" lon="2.18461">
        <ele>51.200000762939</ele>
        <time>2013-09-01T12:57:45Z</time>
      </trkpt>
      <trkpt lat="49.12581" lon="2.18454">
        <ele>50.400001525879</ele>
        <time>2013-09-01T12:58:09Z</time>
      </trkpt>
      <trkpt lat="49.12585" lon="2.18461">
        <ele>51.200000762939</ele>
        <time>2013-09-01T12:58:28Z</time>
      </trkpt>
      <trkpt lat="49.12588" lon="2.18471">
        <ele>52.400001525879</ele>
        <time>2013-09-01T12:58:53Z</time>
      </trkpt>
      <trkpt lat="49.12586" lon="2.18457">
        <ele>50.599998474121</ele>
        <time>2013-09-01T12:59:19Z</time>
      </trkpt>
      <trkpt lat="49.12583" lon="2.18454">
        <ele>50.200000762939</ele>
        <time>2013-09-01T12:59:44Z</time>
      </trkpt>
      <trkpt lat="49.1258" lon="2.18454">
        <ele>50.400001525879</ele>
        <time>2013-09-01T13:00:05Z</time>
      </trkpt>
      <trkpt lat="49.1258" lon="2.18448">
        <ele>49.400001525879</ele>
        <time>2013-09-01T13:00:15Z</time>
      </trkpt>
      <trkpt lat="49.12581" lon="2.18446">
        <ele>49.200000762939</ele>
        <time>2013-09-01T13:00:20Z</time>
      </trkpt>
      <trkpt lat="49.12586" lon="2.18444">
        <ele>48.799999237061</ele>
        <time>2013-09-01T13:00:38Z</time>
      </trkpt>
      <trkpt lat="49.12582" lon="2.18439">
        <ele>48</ele>
        <time>2013-09-01T13:00:44Z</time>
      </trkpt>
      <trkpt lat="49.12593" lon="2.18415">
        <ele>45.200000762939</ele>
        <time>2013-09-01T13:01:00Z</time>
      </trkpt>
      <trkpt lat="49.1261" lon="2.18388">
        <ele>44.799999237061</ele>
        <time>2013-09-01T13:01:19Z</time>
      </trkpt>
      <trkpt lat="49.12615" lon="2.18372">
        <ele>44.400001525879</ele>
        <time>2013-09-01T13:01:35Z</time>
      </trkpt>
      <trkpt lat="49.12617" lon="2.18357">
        <ele>43.799999237061</ele>
        <time>2013-09-01T13:01:48Z</time>
      </trkpt>
      <trkpt lat="49.12617" lon="2.18353">
        <ele>43.799999237061</ele>
        <time>2013-09-01T13:01:50Z</time>
      </trkpt>
      <trkpt lat="49.12617" lon="2.18352">
        <ele>43.599998474121</ele>
        <time>2013-09-01T13:01:51Z</time>
      </trkpt>
      <trkpt lat="49.12618" lon="2.18323">
        <ele>43</ele>
        <time>2013-09-01T13:02:09Z</time>
      </trkpt>
      <trkpt lat="49.12616" lon="2.18298">
        <ele>42.599998474121</ele>
        <time>2013-09-01T13:02:25Z</time>
      </trkpt>
      <trkpt lat="49.12613" lon="2.18272">
        <ele>42.400001525879</ele>
        <time>2013-09-01T13:02:40Z</time>
      </trkpt>
      <trkpt lat="49.12608" lon="2.18245">
        <ele>42</ele>
        <time>2013-09-01T13:02:57Z</time>
      </trkpt>
      <trkpt lat="49.12601" lon="2.18213">
        <ele>41.599998474121</ele>
        <time>2013-09-01T13:03:16Z</time>
      </trkpt>
      <trkpt lat="49.126" lon="2.18205">
        <ele>41.599998474121</ele>
        <time>2013-09-01T13:03:22Z</time>
      </trkpt>
      <trkpt lat="49.12595" lon="2.18177">
        <ele>41.400001525879</ele>
        <time>2013-09-01T13:03:39Z</time>
      </trkpt>
      <trkpt lat="49.12595" lon="2.18168">
        <ele>41.400001525879</ele>
        <time>2013-09-01T13:03:44Z</time>
      </trkpt>
      <trkpt lat="49.12594" lon="2.18166">
        <ele>41.400001525879</ele>
        <time>2013-09-01T13:03:45Z</time>
      </trkpt>
      <trkpt lat="49.12594" lon="2.18163">
        <ele>41.400001525879</ele>
        <time>2013-09-01T13:03:46Z</time>
      </trkpt>
      <trkpt lat="49.12595" lon="2.18136">
        <ele>41.599998474121</ele>
        <time>2013-09-01T13:04:05Z</time>
      </trkpt>
      <trkpt lat="49.1259" lon="2.18122">
        <ele>41.599998474121</ele>
        <time>2013-09-01T13:04:14Z</time>
      </trkpt>
      <trkpt lat="49.1259" lon="2.1812">
        <ele>41.799999237061</ele>
        <time>2013-09-01T13:04:15Z</time>
      </trkpt>
      <trkpt lat="49.12584" lon="2.18094">
        <ele>41.799999237061</ele>
        <time>2013-09-01T13:04:32Z</time>
      </trkpt>
      <trkpt lat="49.12585" lon="2.18066">
        <ele>42</ele>
        <time>2013-09-01T13:04:50Z</time>
      </trkpt>
      <trkpt lat="49.12588" lon="2.1805">
        <ele>42.200000762939</ele>
        <time>2013-09-01T13:05:05Z</time>
      </trkpt>
      <trkpt lat="49.12592" lon="2.18017">
        <ele>42.400001525879</ele>
        <time>2013-09-01T13:05:28Z</time>
      </trkpt>
      <trkpt lat="49.12594" lon="2.17983">
        <ele>42.400001525879</ele>
        <time>2013-09-01T13:05:49Z</time>
      </trkpt>
      <trkpt lat="49.12594" lon="2.17947">
        <ele>42.200000762939</ele>
        <time>2013-09-01T13:06:10Z</time>
      </trkpt>
      <trkpt lat="49.126" lon="2.17921">
        <ele>42.599998474121</ele>
        <time>2013-09-01T13:06:29Z</time>
      </trkpt>
      <trkpt lat="49.12605" lon="2.17887">
        <ele>43.200000762939</ele>
        <time>2013-09-01T13:06:47Z</time>
      </trkpt>
      <trkpt lat="49.12605" lon="2.1788">
        <ele>43.200000762939</ele>
        <time>2013-09-01T13:06:55Z</time>
      </trkpt>
      <trkpt lat="49.12613" lon="2.17868">
        <ele>44</ele>
        <time>2013-09-01T13:07:13Z</time>
      </trkpt>
      <trkpt lat="49.12623" lon="2.17837">
        <ele>44.799999237061</ele>
        <time>2013-09-01T13:07:32Z</time>
      </trkpt>
      <trkpt lat="49.12637" lon="2.17824">
        <ele>45.599998474121</ele>
        <time>2013-09-01T13:07:47Z</time>
      </trkpt>
      <trkpt lat="49.12654" lon="2.17804">
        <ele>46.599998474121</ele>
        <time>2013-09-01T13:08:04Z</time>
      </trkpt>
      <trkpt lat="49.12667" lon="2.17777">
        <ele>47.400001525879</ele>
        <time>2013-09-01T13:08:23Z</time>
      </trkpt>
      <trkpt lat="49.1267" lon="2.17761">
        <ele>47.599998474121</ele>
        <time>2013-09-01T13:08:33Z</time>
      </trkpt>
      <trkpt lat="49.1267" lon="2.17759">
        <ele>47.599998474121</ele>
        <time>2013-09-01T13:08:34Z</time>
      </trkpt>
      <trkpt lat="49.12671" lon="2.17758">
        <ele>47.599998474121</ele>
        <time>2013-09-01T13:08:35Z</time>
      </trkpt>
      <trkpt lat="49.12671" lon="2.17755">
        <ele>47.799999237061</ele>
        <time>2013-09-01T13:08:36Z</time>
      </trkpt>
      <trkpt lat="49.12672" lon="2.17753">
        <ele>47.799999237061</ele>
        <time>2013-09-01T13:08:37Z</time>
      </trkpt>
      <trkpt lat="49.12679" lon="2.17716">
        <ele>48.400001525879</ele>
        <time>2013-09-01T13:08:56Z</time>
      </trkpt>
      <trkpt lat="49.12692" lon="2.17693">
        <ele>49.599998474121</ele>
        <time>2013-09-01T13:09:13Z</time>
      </trkpt>
      <trkpt lat="49.12696" lon="2.17662">
        <ele>49.200000762939</ele>
        <time>2013-09-01T13:09:32Z</time>
      </trkpt>
      <trkpt lat="49.127" lon="2.17628">
        <ele>48.799999237061</ele>
        <time>2013-09-01T13:09:52Z</time>
      </trkpt>
      <trkpt lat="49.12702" lon="2.17614">
        <ele>48.400001525879</ele>
        <time>2013-09-01T13:10:01Z</time>
      </trkpt>
      <trkpt lat="49.12708" lon="2.17586">
        <ele>48.400001525879</ele>
        <time>2013-09-01T13:10:18Z</time>
      </trkpt>
      <trkpt lat="49.12716" lon="2.17557">
        <ele>49.400001525879</ele>
        <time>2013-09-01T13:10:35Z</time>
      </trkpt>
      <trkpt lat="49.12721" lon="2.17529">
        <ele>50</ele>
        <time>2013-09-01T13:10:53Z</time>
      </trkpt>
      <trkpt lat="49.12724" lon="2.17522">
        <ele>50.200000762939</ele>
        <time>2013-09-01T13:10:59Z</time>
      </trkpt>
      <trkpt lat="49.12725" lon="2.1752">
        <ele>50.400001525879</ele>
        <time>2013-09-01T13:11:00Z</time>
      </trkpt>
      <trkpt lat="49.12729" lon="2.17486">
        <ele>50.599998474121</ele>
        <time>2013-09-01T13:11:20Z</time>
      </trkpt>
      <trkpt lat="49.12738" lon="2.17459">
        <ele>51.200000762939</ele>
        <time>2013-09-01T13:11:34Z</time>
      </trkpt>
      <trkpt lat="49.12741" lon="2.17447">
        <ele>51.400001525879</ele>
        <time>2013-09-01T13:11:48Z</time>
      </trkpt>
      <trkpt lat="49.12757" lon="2.17435">
        <ele>53</ele>
        <time>2013-09-01T13:12:11Z</time>
      </trkpt>
      <trkpt lat="49.12764" lon="2.17429">
        <ele>53.799999237061</ele>
        <time>2013-09-01T13:12:26Z</time>
      </trkpt>
      <trkpt lat="49.12776" lon="2.17421">
        <ele>55.200000762939</ele>
        <time>2013-09-01T13:12:43Z</time>
      </trkpt>
      <trkpt lat="49.12793" lon="2.17395">
        <ele>56</ele>
        <time>2013-09-01T13:13:04Z</time>
      </trkpt>
      <trkpt lat="49.12802" lon="2.17384">
        <ele>56.200000762939</ele>
        <time>2013-09-01T13:13:20Z</time>
      </trkpt>
      <trkpt lat="49.12803" lon="2.17381">
        <ele>56.200000762939</ele>
        <time>2013-09-01T13:13:23Z</time>
      </trkpt>
      <trkpt lat="49.12803" lon="2.17379">
        <ele>56</ele>
        <time>2013-09-01T13:13:24Z</time>
      </trkpt>
      <trkpt lat="49.12806" lon="2.17355">
        <ele>55</ele>
        <time>2013-09-01T13:13:43Z</time>
      </trkpt>
      <trkpt lat="49.12811" lon="2.1734">
        <ele>54.400001525879</ele>
        <time>2013-09-01T13:14:01Z</time>
      </trkpt>
      <trkpt lat="49.12813" lon="2.17337">
        <ele>54.400001525879</ele>
        <time>2013-09-01T13:14:20Z</time>
      </trkpt>
      <trkpt lat="49.12824" lon="2.17322">
        <ele>54.599998474121</ele>
        <time>2013-09-01T13:14:39Z</time>
      </trkpt>
      <trkpt lat="49.12833" lon="2.17306">
        <ele>54.599998474121</ele>
        <time>2013-09-01T13:14:57Z</time>
      </trkpt>
      <trkpt lat="49.12843" lon="2.17298">
        <ele>55</ele>
        <time>2013-09-01T13:15:06Z</time>
      </trkpt>
      <trkpt lat="49.12864" lon="2.17274">
        <ele>54.799999237061</ele>
        <time>2013-09-01T13:15:25Z</time>
      </trkpt>
      <trkpt lat="49.12876" lon="2.17251">
        <ele>53.599998474121</ele>
        <time>2013-09-01T13:15:41Z</time>
      </trkpt>
      <trkpt lat="49.12888" lon="2.1724">
        <ele>53.200000762939</ele>
        <time>2013-09-01T13:15:59Z</time>
      </trkpt>
      <trkpt lat="49.12907" lon="2.17221">
        <ele>52.799999237061</ele>
        <time>2013-09-01T13:16:18Z</time>
      </trkpt>
      <trkpt lat="49.12916" lon="2.17223">
        <ele>53.200000762939</ele>
        <time>2013-09-01T13:16:28Z</time>
      </trkpt>
      <trkpt lat="49.12924" lon="2.17232">
        <ele>54.200000762939</ele>
        <time>2013-09-01T13:16:50Z</time>
      </trkpt>
      <trkpt lat="49.12913" lon="2.17213">
        <ele>52.599998474121</ele>
        <time>2013-09-01T13:17:08Z</time>
      </trkpt>
      <trkpt lat="49.129" lon="2.17213">
        <ele>52</ele>
        <time>2013-09-01T13:17:32Z</time>
      </trkpt>
      <trkpt lat="49.12905" lon="2.17215">
        <ele>52.400001525879</ele>
        <time>2013-09-01T13:17:56Z</time>
      </trkpt>
      <trkpt lat="49.12903" lon="2.1721">
        <ele>52</ele>
        <time>2013-09-01T13:18:02Z</time>
      </trkpt>
      <trkpt lat="49.12892" lon="2.17181">
        <ele>49.799999237061</ele>
        <time>2013-09-01T13:18:23Z</time>
      </trkpt>
      <trkpt lat="49.12892" lon="2.17161">
        <ele>48.599998474121</ele>
        <time>2013-09-01T13:18:39Z</time>
      </trkpt>
      <trkpt lat="49.12891" lon="2.1716">
        <ele>48.599998474121</ele>
        <time>2013-09-01T13:18:40Z</time>
      </trkpt>
      <trkpt lat="49.12885" lon="2.17124">
        <ele>46.599998474121</ele>
        <time>2013-09-01T13:19:02Z</time>
      </trkpt>
      <trkpt lat="49.12891" lon="2.17114">
        <ele>46.200000762939</ele>
        <time>2013-09-01T13:19:09Z</time>
      </trkpt>
      <trkpt lat="49.12895" lon="2.17082">
        <ele>44.799999237061</ele>
        <time>2013-09-01T13:19:27Z</time>
      </trkpt>
      <trkpt lat="49.12893" lon="2.17079">
        <ele>44.599998474121</ele>
        <time>2013-09-01T13:19:29Z</time>
      </trkpt>
      <trkpt lat="49.12885" lon="2.17055">
        <ele>43.200000762939</ele>
        <time>2013-09-01T13:19:46Z</time>
      </trkpt>
      <trkpt lat="49.12879" lon="2.17033">
        <ele>42.200000762939</ele>
        <time>2013-09-01T13:20:00Z</time>
      </trkpt>
      <trkpt lat="49.12872" lon="2.17013">
        <ele>41.200000762939</ele>
        <time>2013-09-01T13:20:13Z</time>
      </trkpt>
      <trkpt lat="49.12871" lon="2.17011">
        <ele>41.200000762939</ele>
        <time>2013-09-01T13:20:14Z</time>
      </trkpt>
      <trkpt lat="49.12888" lon="2.16991">
        <ele>41</ele>
        <time>2013-09-01T13:20:27Z</time>
      </trkpt>
      <trkpt lat="49.12888" lon="2.16982">
        <ele>40.799999237061</ele>
        <time>2013-09-01T13:20:38Z</time>
      </trkpt>
      <trkpt lat="49.12895" lon="2.16968">
        <ele>40.599998474121</ele>
        <time>2013-09-01T13:21:00Z</time>
      </trkpt>
      <trkpt lat="49.12878" lon="2.1697">
        <ele>40.200000762939</ele>
        <time>2013-09-01T13:21:33Z</time>
      </trkpt>
      <trkpt lat="49.12908" lon="2.16969">
        <ele>41</ele>
        <time>2013-09-01T13:25:17Z</time>
      </trkpt>
      <trkpt lat="49.12916" lon="2.16977">
        <ele>41.400001525879</ele>
        <time>2013-09-01T13:25:42Z</time>
      </trkpt>
      <trkpt lat="49.12886" lon="2.16968">
        <ele>40.400001525879</ele>
        <time>2013-09-01T13:26:04Z</time>
      </trkpt>
      <trkpt lat="49.12891" lon="2.16965">
        <ele>40.400001525879</ele>
        <time>2013-09-01T13:26:22Z</time>
      </trkpt>
      <trkpt lat="49.1289" lon="2.16964">
        <ele>40.400001525879</ele>
        <time>2013-09-01T13:26:23Z</time>
      </trkpt>
      <trkpt lat="49.12888" lon="2.16948">
        <ele>40</ele>
        <time>2013-09-01T13:26:40Z</time>
      </trkpt>
      <trkpt lat="49.1289" lon="2.16949">
        <ele>40</ele>
        <time>2013-09-01T13:26:43Z</time>
      </trkpt>
      <trkpt lat="49.12893" lon="2.1695">
        <ele>40.200000762939</ele>
        <time>2013-09-01T13:26:48Z</time>
      </trkpt>
    </trkseg>
  </trk>
</gpx>